<?xml version="1.0" encoding="UTF-8" standalone="no" ?>
<gpx xmlns="http://www.topografix.com/GPX/1/1" xmlns:xsi="http://www.w3.org/2001/XMLSchema-instance" xsi:schemaLocation="http://www.topografix.com/GPX/1/1 http://www.topografix.com/GPX/1/1/gpx.xsd" version="1.1" creator="VisuGPX - https://www.visugpx.com">
  <metadata>
    <name>Traversée du Vercors VTT - JOUR 1</name>
  </metadata>
  <wpt lat="44.88135" lon="5.44438">
    <ele>1379.1</ele>
  </wpt>
  <wpt lat="44.86987" lon="5.42142">
    <ele>982.5</ele>
  </wpt>
  <trk>
    <name><![CDATA[Traversée du Vercors VTT]]></name>
    <extensions>
      <line xmlns="http://www.topografix.com/GPX/gpx_style/0/2">
        <color>0000FF</color>
        <width>4</width>
      </line>
    </extensions>
    <trkseg>
      <trkpt lat="45.06799" lon="5.56753">
        <ele>1108.13276</ele>
        <time>2021-05-18T10:37:43.107Z</time>
      </trkpt>
      <trkpt lat="45.06799" lon="5.56753">
        <ele>1108.13276</ele>
        <time>2021-05-18T10:37:43.107Z</time>
      </trkpt>
      <trkpt lat="45.06735" lon="5.56742">
        <ele>1108.13276</ele>
        <time>2021-05-18T10:38:10.760Z</time>
      </trkpt>
      <trkpt lat="45.06717" lon="5.56742">
        <ele>1108.13276</ele>
        <time>2021-05-18T10:38:18.512Z</time>
      </trkpt>
      <trkpt lat="45.06721" lon="5.56718">
        <ele>1109.37481</ele>
        <time>2021-05-18T10:38:26.009Z</time>
      </trkpt>
      <trkpt lat="45.06702" lon="5.56719">
        <ele>1111.747279</ele>
        <time>2021-05-18T10:38:34.207Z</time>
      </trkpt>
      <trkpt lat="45.06679" lon="5.56726">
        <ele>1114.682788</ele>
        <time>2021-05-18T10:38:44.326Z</time>
      </trkpt>
      <trkpt lat="45.06659" lon="5.56733">
        <ele>1117.25352</ele>
        <time>2021-05-18T10:38:53.212Z</time>
      </trkpt>
      <trkpt lat="45.06634" lon="5.56739">
        <ele>1120.417535</ele>
        <time>2021-05-18T10:39:04.146Z</time>
      </trkpt>
      <trkpt lat="45.06608" lon="5.56749">
        <ele>1123.779405</ele>
        <time>2021-05-18T10:39:15.745Z</time>
      </trkpt>
      <trkpt lat="45.06592" lon="5.56743">
        <ele>1125.844735</ele>
        <time>2021-05-18T10:39:22.880Z</time>
      </trkpt>
      <trkpt lat="45.06583" lon="5.56729">
        <ele>1127.513135</ele>
        <time>2021-05-18T10:39:28.623Z</time>
      </trkpt>
      <trkpt lat="45.06556" lon="5.56709">
        <ele>1130.902562</ele>
        <time>2021-05-18T10:39:41.727Z</time>
      </trkpt>
      <trkpt lat="45.06535" lon="5.56695">
        <ele>1132.180931</ele>
        <time>2021-05-18T10:39:51.699Z</time>
      </trkpt>
      <trkpt lat="45.06503" lon="5.56686">
        <ele>1133.977758</ele>
        <time>2021-05-18T10:40:05.693Z</time>
      </trkpt>
      <trkpt lat="45.06479" lon="5.5668">
        <ele>1135.319999</ele>
        <time>2021-05-18T10:40:16.132Z</time>
      </trkpt>
      <trkpt lat="45.06463" lon="5.56683">
        <ele>1136.208888</ele>
        <time>2021-05-18T10:40:23.045Z</time>
      </trkpt>
      <trkpt lat="45.06454" lon="5.56682">
        <ele>1136.706084</ele>
        <time>2021-05-18T10:40:26.905Z</time>
      </trkpt>
      <trkpt lat="45.06416" lon="5.56682">
        <ele>1138.798923</ele>
        <time>2021-05-18T10:40:43.149Z</time>
      </trkpt>
      <trkpt lat="45.06387" lon="5.56697">
        <ele>1140.482857</ele>
        <time>2021-05-18T10:40:56.352Z</time>
      </trkpt>
      <trkpt lat="45.06359" lon="5.5673">
        <ele>1140.546826</ele>
        <time>2021-05-18T10:41:11.946Z</time>
      </trkpt>
      <trkpt lat="45.06337" lon="5.56742">
        <ele>1140.588222</ele>
        <time>2021-05-18T10:41:22.027Z</time>
      </trkpt>
      <trkpt lat="45.06317" lon="5.5675">
        <ele>1140.624713</ele>
        <time>2021-05-18T10:41:30.913Z</time>
      </trkpt>
      <trkpt lat="45.06293" lon="5.56738">
        <ele>1140.669404</ele>
        <time>2021-05-18T10:41:41.797Z</time>
      </trkpt>
      <trkpt lat="45.06274" lon="5.56732">
        <ele>1140.703585</ele>
        <time>2021-05-18T10:41:50.120Z</time>
      </trkpt>
      <trkpt lat="45.06256" lon="5.5671">
        <ele>1140.745338</ele>
        <time>2021-05-18T10:42:00.299Z</time>
      </trkpt>
      <trkpt lat="45.06242" lon="5.5672">
        <ele>1140.772871</ele>
        <time>2021-05-18T10:42:07.007Z</time>
      </trkpt>
      <trkpt lat="45.06229" lon="5.56753">
        <ele>1140.86547</ele>
        <time>2021-05-18T10:42:18.444Z</time>
      </trkpt>
      <trkpt lat="45.06225" lon="5.56763">
        <ele>1140.909893</ele>
        <time>2021-05-18T10:42:21.923Z</time>
      </trkpt>
      <trkpt lat="45.06197" lon="5.56789">
        <ele>1141.093148</ele>
        <time>2021-05-18T10:42:36.250Z</time>
      </trkpt>
      <trkpt lat="45.06171" lon="5.56784">
        <ele>1141.236744</ele>
        <time>2021-05-18T10:42:47.467Z</time>
      </trkpt>
      <trkpt lat="45.06178" lon="5.56779">
        <ele>1141.279653</ele>
        <time>2021-05-18T10:42:50.820Z</time>
      </trkpt>
      <trkpt lat="45.06187" lon="5.56768">
        <ele>1141.344722</ele>
        <time>2021-05-18T10:42:55.912Z</time>
      </trkpt>
      <trkpt lat="45.06196" lon="5.56737">
        <ele>1141.474283</ele>
        <time>2021-05-18T10:43:06.061Z</time>
      </trkpt>
      <trkpt lat="45.06193" lon="5.56738">
        <ele>1141.492217</ele>
        <time>2021-05-18T10:43:07.462Z</time>
      </trkpt>
      <trkpt lat="45.0619" lon="5.56739">
        <ele>1141.509397</ele>
        <time>2021-05-18T10:43:09.196Z</time>
      </trkpt>
      <trkpt lat="45.06187" lon="5.56738">
        <ele>1141.527062</ele>
        <time>2021-05-18T10:43:10.561Z</time>
      </trkpt>
      <trkpt lat="45.06184" lon="5.56736">
        <ele>1141.544111</ele>
        <time>2021-05-18T10:43:12.623Z</time>
      </trkpt>
      <trkpt lat="45.06177" lon="5.56729">
        <ele>1141.59213</ele>
        <time>2021-05-18T10:43:17.954Z</time>
      </trkpt>
      <trkpt lat="45.06185" lon="5.56716">
        <ele>1141.660325</ele>
        <time>2021-05-18T10:43:21.531Z</time>
      </trkpt>
      <trkpt lat="45.06241" lon="5.56587">
        <ele>1139.917404</ele>
        <time>2021-05-18T10:43:53.111Z</time>
      </trkpt>
      <trkpt lat="45.06246" lon="5.56574">
        <ele>1139.680734</ele>
        <time>2021-05-18T10:43:55.926Z</time>
      </trkpt>
      <trkpt lat="45.06253" lon="5.56548">
        <ele>1139.248964</ele>
        <time>2021-05-18T10:44:01.894Z</time>
      </trkpt>
      <trkpt lat="45.06255" lon="5.56498">
        <ele>1138.467323</ele>
        <time>2021-05-18T10:44:10.742Z</time>
      </trkpt>
      <trkpt lat="45.0624" lon="5.5639">
        <ele>1133.953262</ele>
        <time>2021-05-18T10:44:29.518Z</time>
      </trkpt>
      <trkpt lat="45.06268" lon="5.56281">
        <ele>1127.409494</ele>
        <time>2021-05-18T10:44:47.840Z</time>
      </trkpt>
      <trkpt lat="45.06271" lon="5.56226">
        <ele>1124.283707</ele>
        <time>2021-05-18T10:44:56.290Z</time>
      </trkpt>
      <trkpt lat="45.06303" lon="5.56131">
        <ele>1114.599884</ele>
        <time>2021-05-18T10:45:11.614Z</time>
      </trkpt>
      <trkpt lat="45.063" lon="5.56091">
        <ele>1110.647125</ele>
        <time>2021-05-18T10:45:17.334Z</time>
      </trkpt>
      <trkpt lat="45.0629" lon="5.56043">
        <ele>1105.714394</ele>
        <time>2021-05-18T10:45:24.496Z</time>
      </trkpt>
      <trkpt lat="45.06282" lon="5.56009">
        <ele>1102.225836</ele>
        <time>2021-05-18T10:45:29.699Z</time>
      </trkpt>
      <trkpt lat="45.06286" lon="5.5599">
        <ele>1100.210499</ele>
        <time>2021-05-18T10:45:32.540Z</time>
      </trkpt>
      <trkpt lat="45.06297" lon="5.55908">
        <ele>1092.655452</ele>
        <time>2021-05-18T10:45:44.644Z</time>
      </trkpt>
      <trkpt lat="45.06297" lon="5.559">
        <ele>1091.961039</ele>
        <time>2021-05-18T10:45:45.720Z</time>
      </trkpt>
      <trkpt lat="45.06294" lon="5.55886">
        <ele>1090.623812</ele>
        <time>2021-05-18T10:45:47.899Z</time>
      </trkpt>
      <trkpt lat="45.06292" lon="5.55874">
        <ele>1089.491239</ele>
        <time>2021-05-18T10:45:49.787Z</time>
      </trkpt>
      <trkpt lat="45.06285" lon="5.55834">
        <ele>1085.820027</ele>
        <time>2021-05-18T10:45:55.712Z</time>
      </trkpt>
      <trkpt lat="45.06279" lon="5.55818">
        <ele>1084.230562</ele>
        <time>2021-05-18T10:45:57.286Z</time>
      </trkpt>
      <trkpt lat="45.06272" lon="5.55796">
        <ele>1082.112061</ele>
        <time>2021-05-18T10:45:59.316Z</time>
      </trkpt>
      <trkpt lat="45.06272" lon="5.55793">
        <ele>1081.818318</ele>
        <time>2021-05-18T10:45:59.599Z</time>
      </trkpt>
      <trkpt lat="45.06272" lon="5.55788">
        <ele>1081.417759</ele>
        <time>2021-05-18T10:46:00.002Z</time>
      </trkpt>
      <trkpt lat="45.06272" lon="5.55778">
        <ele>1080.47212</ele>
        <time>2021-05-18T10:46:00.970Z</time>
      </trkpt>
      <trkpt lat="45.06265" lon="5.55735">
        <ele>1076.518194</ele>
        <time>2021-05-18T10:46:04.979Z</time>
      </trkpt>
      <trkpt lat="45.06262" lon="5.55728">
        <ele>1075.797781</ele>
        <time>2021-05-18T10:46:05.726Z</time>
      </trkpt>
      <trkpt lat="45.06261" lon="5.55725">
        <ele>1075.588374</ele>
        <time>2021-05-18T10:46:05.987Z</time>
      </trkpt>
      <trkpt lat="45.06248" lon="5.55703">
        <ele>1074.675951</ele>
        <time>2021-05-18T10:46:08.605Z</time>
      </trkpt>
      <trkpt lat="45.06241" lon="5.55691">
        <ele>1074.169144</ele>
        <time>2021-05-18T10:46:10.110Z</time>
      </trkpt>
      <trkpt lat="45.06225" lon="5.55664">
        <ele>1073.04616</ele>
        <time>2021-05-18T10:46:13.665Z</time>
      </trkpt>
      <trkpt lat="45.06223" lon="5.5566">
        <ele>1072.905787</ele>
        <time>2021-05-18T10:46:14.071Z</time>
      </trkpt>
      <trkpt lat="45.06204" lon="5.55629">
        <ele>1071.616301</ele>
        <time>2021-05-18T10:46:18.069Z</time>
      </trkpt>
      <trkpt lat="45.06194" lon="5.55612">
        <ele>1070.903804</ele>
        <time>2021-05-18T10:46:20.492Z</time>
      </trkpt>
      <trkpt lat="45.06185" lon="5.55595">
        <ele>1070.24263</ele>
        <time>2021-05-18T10:46:22.693Z</time>
      </trkpt>
      <trkpt lat="45.06183" lon="5.55591">
        <ele>1070.084514</ele>
        <time>2021-05-18T10:46:23.204Z</time>
      </trkpt>
      <trkpt lat="45.06172" lon="5.55609">
        <ele>1069.325441</ele>
        <time>2021-05-18T10:46:26.089Z</time>
      </trkpt>
      <trkpt lat="45.06121" lon="5.55645">
        <ele>1068.020172</ele>
        <time>2021-05-18T10:46:35.800Z</time>
      </trkpt>
      <trkpt lat="45.06115" lon="5.5566">
        <ele>1068.353004</ele>
        <time>2021-05-18T10:46:39.090Z</time>
      </trkpt>
      <trkpt lat="45.06114" lon="5.55677">
        <ele>1068.693973</ele>
        <time>2021-05-18T10:46:43.206Z</time>
      </trkpt>
      <trkpt lat="45.06102" lon="5.55675">
        <ele>1069.031864</ele>
        <time>2021-05-18T10:46:48.350Z</time>
      </trkpt>
      <trkpt lat="45.06086" lon="5.55698">
        <ele>1069.674341</ele>
        <time>2021-05-18T10:46:58.122Z</time>
      </trkpt>
      <trkpt lat="45.06073" lon="5.55704">
        <ele>1070.059605</ele>
        <time>2021-05-18T10:47:03.969Z</time>
      </trkpt>
      <trkpt lat="45.06059" lon="5.55702">
        <ele>1070.456075</ele>
        <time>2021-05-18T10:47:09.992Z</time>
      </trkpt>
      <trkpt lat="45.06017" lon="5.55672">
        <ele>1071.781569</ele>
        <time>2021-05-18T10:47:30.122Z</time>
      </trkpt>
      <trkpt lat="45.06" lon="5.55657">
        <ele>1072.345982</ele>
        <time>2021-05-18T10:47:38.700Z</time>
      </trkpt>
      <trkpt lat="45.05987" lon="5.55644">
        <ele>1073.102808</ele>
        <time>2021-05-18T10:47:45.516Z</time>
      </trkpt>
      <trkpt lat="45.05974" lon="5.55645">
        <ele>1074.072619</ele>
        <time>2021-05-18T10:47:51.083Z</time>
      </trkpt>
      <trkpt lat="45.05966" lon="5.55637">
        <ele>1074.802225</ele>
        <time>2021-05-18T10:47:55.287Z</time>
      </trkpt>
      <trkpt lat="45.0596" lon="5.55625">
        <ele>1075.575821</ele>
        <time>2021-05-18T10:47:59.740Z</time>
      </trkpt>
      <trkpt lat="45.05948" lon="5.55598">
        <ele>1077.254337</ele>
        <time>2021-05-18T10:48:09.407Z</time>
      </trkpt>
      <trkpt lat="45.05924" lon="5.55551">
        <ele>1080.305934</ele>
        <time>2021-05-18T10:48:26.984Z</time>
      </trkpt>
      <trkpt lat="45.05906" lon="5.55543">
        <ele>1081.711297</ele>
        <time>2021-05-18T10:48:35.068Z</time>
      </trkpt>
      <trkpt lat="45.05901" lon="5.55543">
        <ele>1082.061405</ele>
        <time>2021-05-18T10:48:37.082Z</time>
      </trkpt>
      <trkpt lat="45.0589" lon="5.55546">
        <ele>1082.905225</ele>
        <time>2021-05-18T10:48:51.329Z</time>
      </trkpt>
      <trkpt lat="45.05828" lon="5.55588">
        <ele>1090.172476</ele>
        <time>2021-05-18T10:50:14.543Z</time>
      </trkpt>
      <trkpt lat="45.0583" lon="5.55593">
        <ele>1090.814434</ele>
        <time>2021-05-18T10:50:16.343Z</time>
      </trkpt>
      <trkpt lat="45.05803" lon="5.55627">
        <ele>1096.398803</ele>
        <time>2021-05-18T10:50:31.931Z</time>
      </trkpt>
      <trkpt lat="45.05777" lon="5.55658">
        <ele>1101.651977</ele>
        <time>2021-05-18T10:50:46.639Z</time>
      </trkpt>
      <trkpt lat="45.05751" lon="5.55673">
        <ele>1105.99078</ele>
        <time>2021-05-18T10:50:58.784Z</time>
      </trkpt>
      <trkpt lat="45.05724" lon="5.55687">
        <ele>1110.434356</ele>
        <time>2021-05-18T10:51:11.265Z</time>
      </trkpt>
      <trkpt lat="45.05689" lon="5.55697">
        <ele>1115.705254</ele>
        <time>2021-05-18T10:51:26.764Z</time>
      </trkpt>
      <trkpt lat="45.05653" lon="5.55691">
        <ele>1120.664026</ele>
        <time>2021-05-18T10:51:42.472Z</time>
      </trkpt>
      <trkpt lat="45.05635" lon="5.55662">
        <ele>1124.394577</ele>
        <time>2021-05-18T10:51:54.264Z</time>
      </trkpt>
      <trkpt lat="45.05611" lon="5.55644">
        <ele>1128.110074</ele>
        <time>2021-05-18T10:52:05.980Z</time>
      </trkpt>
      <trkpt lat="45.05591" lon="5.55665">
        <ele>1131.561014</ele>
        <time>2021-05-18T10:52:16.860Z</time>
      </trkpt>
      <trkpt lat="45.05574" lon="5.55633">
        <ele>1135.397979</ele>
        <time>2021-05-18T10:52:38.032Z</time>
      </trkpt>
      <trkpt lat="45.05466" lon="5.55484">
        <ele>1142.721647</ele>
        <time>2021-05-18T10:53:46.311Z</time>
      </trkpt>
      <trkpt lat="45.05459" lon="5.55494">
        <ele>1143.038097</ele>
        <time>2021-05-18T10:53:50.355Z</time>
      </trkpt>
      <trkpt lat="45.0544" lon="5.55458">
        <ele>1144.099664</ele>
        <time>2021-05-18T10:54:03.962Z</time>
      </trkpt>
      <trkpt lat="45.05418" lon="5.55434">
        <ele>1143.851441</ele>
        <time>2021-05-18T10:54:15.857Z</time>
      </trkpt>
      <trkpt lat="45.05397" lon="5.5541">
        <ele>1143.006261</ele>
        <time>2021-05-18T10:54:27.411Z</time>
      </trkpt>
      <trkpt lat="45.05364" lon="5.55394">
        <ele>1141.913942</ele>
        <time>2021-05-18T10:54:42.332Z</time>
      </trkpt>
      <trkpt lat="45.05333" lon="5.55371">
        <ele>1140.817927</ele>
        <time>2021-05-18T10:54:57.306Z</time>
      </trkpt>
      <trkpt lat="45.05256" lon="5.55343">
        <ele>1138.576591</ele>
        <time>2021-05-18T10:55:31.327Z</time>
      </trkpt>
      <trkpt lat="45.05233" lon="5.55342">
        <ele>1138.244918</ele>
        <time>2021-05-18T10:55:41.165Z</time>
      </trkpt>
      <trkpt lat="45.05208" lon="5.5535">
        <ele>1137.87548</ele>
        <time>2021-05-18T10:55:52.125Z</time>
      </trkpt>
      <trkpt lat="45.05198" lon="5.5535">
        <ele>1137.731342</ele>
        <time>2021-05-18T10:55:56.401Z</time>
      </trkpt>
      <trkpt lat="45.05171" lon="5.55318">
        <ele>1137.223765</ele>
        <time>2021-05-18T10:56:11.474Z</time>
      </trkpt>
      <trkpt lat="45.05131" lon="5.55296">
        <ele>1136.60522</ele>
        <time>2021-05-18T10:56:29.825Z</time>
      </trkpt>
      <trkpt lat="45.0508" lon="5.55262">
        <ele>1135.474186</ele>
        <time>2021-05-18T10:56:53.937Z</time>
      </trkpt>
      <trkpt lat="45.05065" lon="5.5524">
        <ele>1134.916838</ele>
        <time>2021-05-18T10:57:03.186Z</time>
      </trkpt>
      <trkpt lat="45.05043" lon="5.55236">
        <ele>1134.344511</ele>
        <time>2021-05-18T10:57:12.670Z</time>
      </trkpt>
      <trkpt lat="45.04997" lon="5.55251">
        <ele>1133.126491</ele>
        <time>2021-05-18T10:57:32.860Z</time>
      </trkpt>
      <trkpt lat="45.0496" lon="5.55254">
        <ele>1132.170221</ele>
        <time>2021-05-18T10:57:48.717Z</time>
      </trkpt>
      <trkpt lat="45.04921" lon="5.5526">
        <ele>1131.103887</ele>
        <time>2021-05-18T10:58:05.499Z</time>
      </trkpt>
      <trkpt lat="45.04883" lon="5.55257">
        <ele>1129.98795</ele>
        <time>2021-05-18T10:58:21.776Z</time>
      </trkpt>
      <trkpt lat="45.04854" lon="5.5526">
        <ele>1129.135368</ele>
        <time>2021-05-18T10:58:34.215Z</time>
      </trkpt>
      <trkpt lat="45.04841" lon="5.55273">
        <ele>1128.668658</ele>
        <time>2021-05-18T10:58:41.030Z</time>
      </trkpt>
      <trkpt lat="45.04829" lon="5.55267">
        <ele>1128.295387</ele>
        <time>2021-05-18T10:58:46.482Z</time>
      </trkpt>
      <trkpt lat="45.04821" lon="5.55302">
        <ele>1127.533336</ele>
        <time>2021-05-18T10:58:50.715Z</time>
      </trkpt>
      <trkpt lat="45.04812" lon="5.55408">
        <ele>1127.307956</ele>
        <time>2021-05-18T10:59:05.873Z</time>
      </trkpt>
      <trkpt lat="45.04821" lon="5.55512">
        <ele>1129.639252</ele>
        <time>2021-05-18T10:59:40.350Z</time>
      </trkpt>
      <trkpt lat="45.04818" lon="5.55515">
        <ele>1129.751379</ele>
        <time>2021-05-18T10:59:43.743Z</time>
      </trkpt>
      <trkpt lat="45.04821" lon="5.55526">
        <ele>1130.006678</ele>
        <time>2021-05-18T10:59:47.003Z</time>
      </trkpt>
      <trkpt lat="45.04807" lon="5.55538">
        <ele>1130.531456</ele>
        <time>2021-05-18T10:59:54.861Z</time>
      </trkpt>
      <trkpt lat="45.04788" lon="5.55551">
        <ele>1131.211338</ele>
        <time>2021-05-18T11:00:03.365Z</time>
      </trkpt>
      <trkpt lat="45.04782" lon="5.55553">
        <ele>1131.400821</ele>
        <time>2021-05-18T11:00:05.302Z</time>
      </trkpt>
      <trkpt lat="45.04787" lon="5.55565">
        <ele>1131.714306</ele>
        <time>2021-05-18T11:00:10.015Z</time>
      </trkpt>
      <trkpt lat="45.04809" lon="5.55591">
        <ele>1131.832645</ele>
        <time>2021-05-18T11:00:18.229Z</time>
      </trkpt>
      <trkpt lat="45.04816" lon="5.55596">
        <ele>1131.787798</ele>
        <time>2021-05-18T11:00:21.321Z</time>
      </trkpt>
      <trkpt lat="45.04821" lon="5.55582">
        <ele>1131.72239</ele>
        <time>2021-05-18T11:00:26.125Z</time>
      </trkpt>
      <trkpt lat="45.04812" lon="5.5559">
        <ele>1131.660294</ele>
        <time>2021-05-18T11:00:30.672Z</time>
      </trkpt>
      <trkpt lat="45.04803" lon="5.55598">
        <ele>1131.598197</ele>
        <time>2021-05-18T11:00:35.219Z</time>
      </trkpt>
      <trkpt lat="45.04792" lon="5.55603">
        <ele>1131.530691</ele>
        <time>2021-05-18T11:00:40.159Z</time>
      </trkpt>
      <trkpt lat="45.04777" lon="5.55607">
        <ele>1131.441504</ele>
        <time>2021-05-18T11:00:46.684Z</time>
      </trkpt>
      <trkpt lat="45.04763" lon="5.556">
        <ele>1131.354749</ele>
        <time>2021-05-18T11:00:53.033Z</time>
      </trkpt>
      <trkpt lat="45.04739" lon="5.55576">
        <ele>1131.183048</ele>
        <time>2021-05-18T11:01:05.608Z</time>
      </trkpt>
      <trkpt lat="45.04722" lon="5.55548">
        <ele>1131.030643</ele>
        <time>2021-05-18T11:01:16.781Z</time>
      </trkpt>
      <trkpt lat="45.04705" lon="5.55519">
        <ele>1130.792427</ele>
        <time>2021-05-18T11:01:28.193Z</time>
      </trkpt>
      <trkpt lat="45.04696" lon="5.55508">
        <ele>1130.518902</ele>
        <time>2021-05-18T11:01:33.287Z</time>
      </trkpt>
      <trkpt lat="45.0468" lon="5.55502">
        <ele>1130.138167</ele>
        <time>2021-05-18T11:01:40.376Z</time>
      </trkpt>
      <trkpt lat="45.04673" lon="5.5551">
        <ele>1129.931213</ele>
        <time>2021-05-18T11:01:44.239Z</time>
      </trkpt>
      <trkpt lat="45.04673" lon="5.5553">
        <ele>1129.606176</ele>
        <time>2021-05-18T11:01:50.306Z</time>
      </trkpt>
      <trkpt lat="45.04668" lon="5.55548">
        <ele>1129.291847</ele>
        <time>2021-05-18T11:01:56.168Z</time>
      </trkpt>
      <trkpt lat="45.0466" lon="5.55559">
        <ele>1129.03529</ele>
        <time>2021-05-18T11:02:00.950Z</time>
      </trkpt>
      <trkpt lat="45.04651" lon="5.55572">
        <ele>1128.739495</ele>
        <time>2021-05-18T11:02:06.459Z</time>
      </trkpt>
      <trkpt lat="45.04642" lon="5.55582">
        <ele>1128.476303</ele>
        <time>2021-05-18T11:02:11.357Z</time>
      </trkpt>
      <trkpt lat="45.04629" lon="5.55589">
        <ele>1128.156364</ele>
        <time>2021-05-18T11:02:17.308Z</time>
      </trkpt>
      <trkpt lat="45.04611" lon="5.55592">
        <ele>1127.739462</ele>
        <time>2021-05-18T11:02:25.056Z</time>
      </trkpt>
      <trkpt lat="45.0459" lon="5.55598">
        <ele>1127.246669</ele>
        <time>2021-05-18T11:02:34.214Z</time>
      </trkpt>
      <trkpt lat="45.04576" lon="5.55609">
        <ele>1126.878343</ele>
        <time>2021-05-18T11:02:41.067Z</time>
      </trkpt>
      <trkpt lat="45.04559" lon="5.556">
        <ele>1127.639281</ele>
        <time>2021-05-18T11:02:48.912Z</time>
      </trkpt>
      <trkpt lat="45.04548" lon="5.55638">
        <ele>1129.52298</ele>
        <time>2021-05-18T11:03:05.686Z</time>
      </trkpt>
      <trkpt lat="45.04534" lon="5.55727">
        <ele>1133.703433</ele>
        <time>2021-05-18T11:03:42.617Z</time>
      </trkpt>
      <trkpt lat="45.04489" lon="5.55821">
        <ele>1139.148788</ele>
        <time>2021-05-18T11:04:48.621Z</time>
      </trkpt>
      <trkpt lat="45.0447" lon="5.55844">
        <ele>1141.594963</ele>
        <time>2021-05-18T11:05:09.955Z</time>
      </trkpt>
      <trkpt lat="45.04466" lon="5.55844">
        <ele>1142.061797</ele>
        <time>2021-05-18T11:05:14.042Z</time>
      </trkpt>
      <trkpt lat="45.04448" lon="5.55815">
        <ele>1144.769335</ele>
        <time>2021-05-18T11:05:37.499Z</time>
      </trkpt>
      <trkpt lat="45.04427" lon="5.55795">
        <ele>1147.284837</ele>
        <time>2021-05-18T11:05:59.121Z</time>
      </trkpt>
      <trkpt lat="45.04383" lon="5.55677">
        <ele>1156.553513</ele>
        <time>2021-05-18T11:07:14.715Z</time>
      </trkpt>
      <trkpt lat="45.04327" lon="5.55564">
        <ele>1163.652262</ele>
        <time>2021-05-18T11:08:26.727Z</time>
      </trkpt>
      <trkpt lat="45.04284" lon="5.55478">
        <ele>1169.011975</ele>
        <time>2021-05-18T11:09:11.012Z</time>
      </trkpt>
      <trkpt lat="45.0428" lon="5.55481">
        <ele>1169.352536</ele>
        <time>2021-05-18T11:09:18.116Z</time>
      </trkpt>
      <trkpt lat="45.04264" lon="5.55504">
        <ele>1169.918312</ele>
        <time>2021-05-18T11:09:26.335Z</time>
      </trkpt>
      <trkpt lat="45.0428" lon="5.55481">
        <ele>1170.484088</ele>
        <time>2021-05-18T11:09:42.563Z</time>
      </trkpt>
      <trkpt lat="45.04284" lon="5.55478">
        <ele>1170.603778</ele>
        <time>2021-05-18T11:09:43.541Z</time>
      </trkpt>
      <trkpt lat="45.04278" lon="5.55455">
        <ele>1171.047527</ele>
        <time>2021-05-18T11:09:54.683Z</time>
      </trkpt>
      <trkpt lat="45.04245" lon="5.55393">
        <ele>1172.397077</ele>
        <time>2021-05-18T11:10:17.805Z</time>
      </trkpt>
      <trkpt lat="45.04231" lon="5.55367">
        <ele>1172.972093</ele>
        <time>2021-05-18T11:10:32.214Z</time>
      </trkpt>
      <trkpt lat="45.04169" lon="5.55228">
        <ele>1169.149148</ele>
        <time>2021-05-18T11:11:03.491Z</time>
      </trkpt>
      <trkpt lat="45.04146" lon="5.55212">
        <ele>1167.680248</ele>
        <time>2021-05-18T11:11:09.683Z</time>
      </trkpt>
      <trkpt lat="45.04136" lon="5.55194">
        <ele>1166.786636</ele>
        <time>2021-05-18T11:11:13.111Z</time>
      </trkpt>
      <trkpt lat="45.04134" lon="5.55172">
        <ele>1165.910792</ele>
        <time>2021-05-18T11:11:16.612Z</time>
      </trkpt>
      <trkpt lat="45.04145" lon="5.55148">
        <ele>1164.795378</ele>
        <time>2021-05-18T11:11:20.807Z</time>
      </trkpt>
      <trkpt lat="45.04132" lon="5.55137">
        <ele>1163.958264</ele>
        <time>2021-05-18T11:11:27.201Z</time>
      </trkpt>
      <trkpt lat="45.04133" lon="5.55122">
        <ele>1163.183777</ele>
        <time>2021-05-18T11:11:31.800Z</time>
      </trkpt>
      <trkpt lat="45.04141" lon="5.55101">
        <ele>1161.717769</ele>
        <time>2021-05-18T11:11:39.060Z</time>
      </trkpt>
      <trkpt lat="45.04159" lon="5.55073">
        <ele>1159.391699</ele>
        <time>2021-05-18T11:11:50.583Z</time>
      </trkpt>
      <trkpt lat="45.04175" lon="5.55053">
        <ele>1157.535253</ele>
        <time>2021-05-18T11:11:59.764Z</time>
      </trkpt>
      <trkpt lat="45.04193" lon="5.55045">
        <ele>1155.894531</ele>
        <time>2021-05-18T11:12:07.875Z</time>
      </trkpt>
      <trkpt lat="45.04212" lon="5.55023">
        <ele>1153.759671</ele>
        <time>2021-05-18T11:12:18.418Z</time>
      </trkpt>
      <trkpt lat="45.04226" lon="5.54996">
        <ele>1151.7018</ele>
        <time>2021-05-18T11:12:28.572Z</time>
      </trkpt>
      <trkpt lat="45.04238" lon="5.54984">
        <ele>1150.424013</ele>
        <time>2021-05-18T11:12:34.880Z</time>
      </trkpt>
      <trkpt lat="45.04249" lon="5.54965">
        <ele>1148.914665</ele>
        <time>2021-05-18T11:12:42.319Z</time>
      </trkpt>
      <trkpt lat="45.04254" lon="5.54958">
        <ele>1148.303045</ele>
        <time>2021-05-18T11:12:45.334Z</time>
      </trkpt>
      <trkpt lat="45.04268" lon="5.54921">
        <ele>1147.417468</ele>
        <time>2021-05-18T11:12:58.050Z</time>
      </trkpt>
      <trkpt lat="45.04276" lon="5.54897">
        <ele>1146.979536</ele>
        <time>2021-05-18T11:13:06.091Z</time>
      </trkpt>
      <trkpt lat="45.04263" lon="5.54882">
        <ele>1146.587786</ele>
        <time>2021-05-18T11:13:13.271Z</time>
      </trkpt>
      <trkpt lat="45.04239" lon="5.54872">
        <ele>1146.003451</ele>
        <time>2021-05-18T11:13:23.968Z</time>
      </trkpt>
      <trkpt lat="45.04212" lon="5.54869">
        <ele>1145.370897</ele>
        <time>2021-05-18T11:13:35.545Z</time>
      </trkpt>
      <trkpt lat="45.04194" lon="5.54872">
        <ele>1144.947582</ele>
        <time>2021-05-18T11:13:43.293Z</time>
      </trkpt>
      <trkpt lat="45.0418" lon="5.54869">
        <ele>1144.61687</ele>
        <time>2021-05-18T11:13:49.346Z</time>
      </trkpt>
      <trkpt lat="45.04172" lon="5.54863">
        <ele>1144.405406</ele>
        <time>2021-05-18T11:13:53.219Z</time>
      </trkpt>
      <trkpt lat="45.04169" lon="5.54795">
        <ele>1142.395137</ele>
        <time>2021-05-18T11:14:13.866Z</time>
      </trkpt>
      <trkpt lat="45.04174" lon="5.54796">
        <ele>1142.102832</ele>
        <time>2021-05-18T11:14:15.932Z</time>
      </trkpt>
      <trkpt lat="45.04183" lon="5.54686">
        <ele>1137.38483</ele>
        <time>2021-05-18T11:14:27.280Z</time>
      </trkpt>
      <trkpt lat="45.04241" lon="5.54603">
        <ele>1132.043105</ele>
        <time>2021-05-18T11:14:37.760Z</time>
      </trkpt>
      <trkpt lat="45.04252" lon="5.54569">
        <ele>1129.532423</ele>
        <time>2021-05-18T11:14:41.088Z</time>
      </trkpt>
      <trkpt lat="45.04258" lon="5.54505">
        <ele>1125.180272</ele>
        <time>2021-05-18T11:14:46.984Z</time>
      </trkpt>
      <trkpt lat="45.04259" lon="5.54466">
        <ele>1122.595608</ele>
        <time>2021-05-18T11:14:50.514Z</time>
      </trkpt>
      <trkpt lat="45.04249" lon="5.54437">
        <ele>1120.429248</ele>
        <time>2021-05-18T11:14:53.354Z</time>
      </trkpt>
      <trkpt lat="45.04207" lon="5.54273">
        <ele>1110.923814</ele>
        <time>2021-05-18T11:15:09.401Z</time>
      </trkpt>
      <trkpt lat="45.04205" lon="5.54244">
        <ele>1109.604068</ele>
        <time>2021-05-18T11:15:12.043Z</time>
      </trkpt>
      <trkpt lat="45.04201" lon="5.54237">
        <ele>1109.169708</ele>
        <time>2021-05-18T11:15:13.671Z</time>
      </trkpt>
      <trkpt lat="45.04195" lon="5.54203">
        <ele>1107.570441</ele>
        <time>2021-05-18T11:15:19.690Z</time>
      </trkpt>
      <trkpt lat="45.04191" lon="5.54197">
        <ele>1107.201715</ele>
        <time>2021-05-18T11:15:20.941Z</time>
      </trkpt>
      <trkpt lat="45.04184" lon="5.54185">
        <ele>1106.531358</ele>
        <time>2021-05-18T11:15:22.568Z</time>
      </trkpt>
      <trkpt lat="45.04154" lon="5.54161">
        <ele>1104.265562</ele>
        <time>2021-05-18T11:15:27.692Z</time>
      </trkpt>
      <trkpt lat="45.04147" lon="5.54145">
        <ele>1104.360149</ele>
        <time>2021-05-18T11:15:29.664Z</time>
      </trkpt>
      <trkpt lat="45.04139" lon="5.54016">
        <ele>1106.096933</ele>
        <time>2021-05-18T11:15:47.611Z</time>
      </trkpt>
      <trkpt lat="45.04131" lon="5.53995">
        <ele>1106.426916</ele>
        <time>2021-05-18T11:15:55.034Z</time>
      </trkpt>
      <trkpt lat="45.04121" lon="5.54002">
        <ele>1106.646232</ele>
        <time>2021-05-18T11:15:59.956Z</time>
      </trkpt>
      <trkpt lat="45.04123" lon="5.53973">
        <ele>1107.039066</ele>
        <time>2021-05-18T11:16:08.798Z</time>
      </trkpt>
      <trkpt lat="45.0412" lon="5.53945">
        <ele>1107.420874</ele>
        <time>2021-05-18T11:16:17.395Z</time>
      </trkpt>
      <trkpt lat="45.04098" lon="5.53928">
        <ele>1108.457385</ele>
        <time>2021-05-18T11:16:28.140Z</time>
      </trkpt>
      <trkpt lat="45.04062" lon="5.53912">
        <ele>1110.406493</ele>
        <time>2021-05-18T11:16:44.306Z</time>
      </trkpt>
      <trkpt lat="45.04029" lon="5.53883">
        <ele>1112.412995</ele>
        <time>2021-05-18T11:17:00.948Z</time>
      </trkpt>
      <trkpt lat="45.04008" lon="5.53869">
        <ele>1113.612073</ele>
        <time>2021-05-18T11:17:10.885Z</time>
      </trkpt>
      <trkpt lat="45.0398" lon="5.53845">
        <ele>1115.302999</ele>
        <time>2021-05-18T11:17:24.900Z</time>
      </trkpt>
      <trkpt lat="45.0395" lon="5.53815">
        <ele>1116.909775</ele>
        <time>2021-05-18T11:17:40.629Z</time>
      </trkpt>
      <trkpt lat="45.0394" lon="5.53806">
        <ele>1116.994703</ele>
        <time>2021-05-18T11:17:45.701Z</time>
      </trkpt>
      <trkpt lat="45.03922" lon="5.53785">
        <ele>1117.161879</ele>
        <time>2021-05-18T11:17:55.688Z</time>
      </trkpt>
      <trkpt lat="45.03872" lon="5.53722">
        <ele>1117.641636</ele>
        <time>2021-05-18T11:18:24.346Z</time>
      </trkpt>
      <trkpt lat="45.03842" lon="5.53698">
        <ele>1117.888599</ele>
        <time>2021-05-18T11:18:39.089Z</time>
      </trkpt>
      <trkpt lat="45.03821" lon="5.53669">
        <ele>1118.098871</ele>
        <time>2021-05-18T11:18:51.652Z</time>
      </trkpt>
      <trkpt lat="45.0377" lon="5.53617">
        <ele>1117.812047</ele>
        <time>2021-05-18T11:19:18.553Z</time>
      </trkpt>
      <trkpt lat="45.03721" lon="5.53576">
        <ele>1117.463189</ele>
        <time>2021-05-18T11:19:42.906Z</time>
      </trkpt>
      <trkpt lat="45.03696" lon="5.53548">
        <ele>1117.267799</ele>
        <time>2021-05-18T11:19:56.552Z</time>
      </trkpt>
      <trkpt lat="45.03664" lon="5.53492">
        <ele>1117.220668</ele>
        <time>2021-05-18T11:20:18.349Z</time>
      </trkpt>
      <trkpt lat="45.03663" lon="5.53468">
        <ele>1117.410694</ele>
        <time>2021-05-18T11:20:25.635Z</time>
      </trkpt>
      <trkpt lat="45.03648" lon="5.53455">
        <ele>1117.607436</ele>
        <time>2021-05-18T11:20:33.161Z</time>
      </trkpt>
      <trkpt lat="45.03592" lon="5.53434">
        <ele>1118.255424</ele>
        <time>2021-05-18T11:20:57.930Z</time>
      </trkpt>
      <trkpt lat="45.03563" lon="5.53428">
        <ele>1118.583242</ele>
        <time>2021-05-18T11:21:10.459Z</time>
      </trkpt>
      <trkpt lat="45.0349" lon="5.53406">
        <ele>1118.981518</ele>
        <time>2021-05-18T11:21:42.372Z</time>
      </trkpt>
      <trkpt lat="45.03455" lon="5.53382">
        <ele>1118.884034</ele>
        <time>2021-05-18T11:21:59.007Z</time>
      </trkpt>
      <trkpt lat="45.03408" lon="5.53342">
        <ele>1118.746565</ele>
        <time>2021-05-18T11:22:22.473Z</time>
      </trkpt>
      <trkpt lat="45.03383" lon="5.53309">
        <ele>1118.660872</ele>
        <time>2021-05-18T11:22:37.110Z</time>
      </trkpt>
      <trkpt lat="45.03352" lon="5.53247">
        <ele>1117.965875</ele>
        <time>2021-05-18T11:23:00.103Z</time>
      </trkpt>
      <trkpt lat="45.03337" lon="5.53178">
        <ele>1116.987508</ele>
        <time>2021-05-18T11:23:21.986Z</time>
      </trkpt>
      <trkpt lat="45.03322" lon="5.53181">
        <ele>1116.696989</ele>
        <time>2021-05-18T11:23:28.461Z</time>
      </trkpt>
      <trkpt lat="45.03297" lon="5.53199">
        <ele>1116.159062</ele>
        <time>2021-05-18T11:23:40.462Z</time>
      </trkpt>
      <trkpt lat="45.03289" lon="5.53204">
        <ele>1115.991344</ele>
        <time>2021-05-18T11:23:44.202Z</time>
      </trkpt>
      <trkpt lat="45.03279" lon="5.53197">
        <ele>1115.777389</ele>
        <time>2021-05-18T11:23:48.977Z</time>
      </trkpt>
      <trkpt lat="45.03252" lon="5.5315">
        <ele>1114.894128</ele>
        <time>2021-05-18T11:24:07.315Z</time>
      </trkpt>
      <trkpt lat="45.03238" lon="5.53135">
        <ele>1114.454778</ele>
        <time>2021-05-18T11:24:14.831Z</time>
      </trkpt>
      <trkpt lat="45.03228" lon="5.53126">
        <ele>1114.158267</ele>
        <time>2021-05-18T11:24:19.902Z</time>
      </trkpt>
      <trkpt lat="45.0322" lon="5.53122">
        <ele>1113.945986</ele>
        <time>2021-05-18T11:24:23.532Z</time>
      </trkpt>
      <trkpt lat="45.03204" lon="5.53109">
        <ele>1113.48438</ele>
        <time>2021-05-18T11:24:31.426Z</time>
      </trkpt>
      <trkpt lat="45.03195" lon="5.53104">
        <ele>1113.242475</ele>
        <time>2021-05-18T11:24:35.560Z</time>
      </trkpt>
      <trkpt lat="45.03187" lon="5.53093">
        <ele>1112.963387</ele>
        <time>2021-05-18T11:24:40.337Z</time>
      </trkpt>
      <trkpt lat="45.03179" lon="5.53088">
        <ele>1112.744579</ele>
        <time>2021-05-18T11:24:44.077Z</time>
      </trkpt>
      <trkpt lat="45.03177" lon="5.53052">
        <ele>1112.106085</ele>
        <time>2021-05-18T11:24:55.033Z</time>
      </trkpt>
      <trkpt lat="45.03161" lon="5.53015">
        <ele>1111.339117</ele>
        <time>2021-05-18T11:25:08.179Z</time>
      </trkpt>
      <trkpt lat="45.03135" lon="5.52984">
        <ele>1110.447312</ele>
        <time>2021-05-18T11:25:22.739Z</time>
      </trkpt>
      <trkpt lat="45.03111" lon="5.52958">
        <ele>1109.51089</ele>
        <time>2021-05-18T11:25:35.680Z</time>
      </trkpt>
      <trkpt lat="45.03105" lon="5.52931">
        <ele>1108.891202</ele>
        <time>2021-05-18T11:25:44.261Z</time>
      </trkpt>
      <trkpt lat="45.03104" lon="5.52892">
        <ele>1108.036753</ele>
        <time>2021-05-18T11:25:56.102Z</time>
      </trkpt>
      <trkpt lat="45.03108" lon="5.52889">
        <ele>1107.906195</ele>
        <time>2021-05-18T11:25:57.906Z</time>
      </trkpt>
      <trkpt lat="45.03106" lon="5.52886">
        <ele>1107.834498</ele>
        <time>2021-05-18T11:25:58.442Z</time>
      </trkpt>
      <trkpt lat="45.03103" lon="5.5282">
        <ele>1106.375689</ele>
        <time>2021-05-18T11:26:05.796Z</time>
      </trkpt>
      <trkpt lat="45.03098" lon="5.52796">
        <ele>1105.846321</ele>
        <time>2021-05-18T11:26:08.538Z</time>
      </trkpt>
      <trkpt lat="45.03092" lon="5.52761">
        <ele>1105.081424</ele>
        <time>2021-05-18T11:26:12.884Z</time>
      </trkpt>
      <trkpt lat="45.03088" lon="5.52744">
        <ele>1104.995119</ele>
        <time>2021-05-18T11:26:15.019Z</time>
      </trkpt>
      <trkpt lat="45.03098" lon="5.52731">
        <ele>1104.901795</ele>
        <time>2021-05-18T11:26:17.576Z</time>
      </trkpt>
      <trkpt lat="45.03116" lon="5.52713">
        <ele>1104.753943</ele>
        <time>2021-05-18T11:26:21.346Z</time>
      </trkpt>
      <trkpt lat="45.03128" lon="5.52706">
        <ele>1104.667173</ele>
        <time>2021-05-18T11:26:23.936Z</time>
      </trkpt>
      <trkpt lat="45.03132" lon="5.52721">
        <ele>1104.5913</ele>
        <time>2021-05-18T11:26:25.991Z</time>
      </trkpt>
      <trkpt lat="45.03128" lon="5.52706">
        <ele>1104.515426</ele>
        <time>2021-05-18T11:26:28.119Z</time>
      </trkpt>
      <trkpt lat="45.03116" lon="5.52713">
        <ele>1104.428656</ele>
        <time>2021-05-18T11:26:30.555Z</time>
      </trkpt>
      <trkpt lat="45.03098" lon="5.52731">
        <ele>1104.280804</ele>
        <time>2021-05-18T11:26:34.640Z</time>
      </trkpt>
      <trkpt lat="45.03088" lon="5.52744">
        <ele>1104.187481</ele>
        <time>2021-05-18T11:26:37.310Z</time>
      </trkpt>
      <trkpt lat="45.03092" lon="5.52761">
        <ele>1104.101176</ele>
        <time>2021-05-18T11:26:39.819Z</time>
      </trkpt>
      <trkpt lat="45.03098" lon="5.52796">
        <ele>1103.93001</ele>
        <time>2021-05-18T11:26:45.055Z</time>
      </trkpt>
      <trkpt lat="45.03091" lon="5.52799">
        <ele>1103.893222</ele>
        <time>2021-05-18T11:26:48.234Z</time>
      </trkpt>
      <trkpt lat="45.03148" lon="5.52741">
        <ele>1104.638229</ele>
        <time>2021-05-18T11:27:18.279Z</time>
      </trkpt>
      <trkpt lat="45.03125" lon="5.52722">
        <ele>1104.920841</ele>
        <time>2021-05-18T11:27:29.673Z</time>
      </trkpt>
      <trkpt lat="45.03086" lon="5.52698">
        <ele>1105.372131</ele>
        <time>2021-05-18T11:27:47.861Z</time>
      </trkpt>
      <trkpt lat="45.03038" lon="5.52664">
        <ele>1106.186442</ele>
        <time>2021-05-18T11:28:10.823Z</time>
      </trkpt>
      <trkpt lat="45.0301" lon="5.52624">
        <ele>1107.307194</ele>
        <time>2021-05-18T11:28:27.863Z</time>
      </trkpt>
      <trkpt lat="45.03026" lon="5.52592">
        <ele>1108.092403</ele>
        <time>2021-05-18T11:28:39.809Z</time>
      </trkpt>
      <trkpt lat="45.0302" lon="5.52586">
        <ele>1108.301661</ele>
        <time>2021-05-18T11:28:42.673Z</time>
      </trkpt>
      <trkpt lat="45.02969" lon="5.52506">
        <ele>1110.443034</ele>
        <time>2021-05-18T11:29:09.768Z</time>
      </trkpt>
      <trkpt lat="45.02949" lon="5.52472">
        <ele>1111.345128</ele>
        <time>2021-05-18T11:29:20.883Z</time>
      </trkpt>
      <trkpt lat="45.02931" lon="5.5244">
        <ele>1112.166584</ele>
        <time>2021-05-18T11:29:31.280Z</time>
      </trkpt>
      <trkpt lat="45.02926" lon="5.5243">
        <ele>1112.411207</ele>
        <time>2021-05-18T11:29:34.077Z</time>
      </trkpt>
      <trkpt lat="45.0292" lon="5.52419">
        <ele>1112.699219</ele>
        <time>2021-05-18T11:29:37.603Z</time>
      </trkpt>
      <trkpt lat="45.02905" lon="5.52388">
        <ele>1113.461382</ele>
        <time>2021-05-18T11:29:46.331Z</time>
      </trkpt>
      <trkpt lat="45.02898" lon="5.52374">
        <ele>1113.807546</ele>
        <time>2021-05-18T11:29:50.535Z</time>
      </trkpt>
      <trkpt lat="45.02861" lon="5.52298">
        <ele>1115.686547</ele>
        <time>2021-05-18T11:30:11.551Z</time>
      </trkpt>
      <trkpt lat="45.02858" lon="5.5229">
        <ele>1115.888243</ele>
        <time>2021-05-18T11:30:13.921Z</time>
      </trkpt>
      <trkpt lat="45.02843" lon="5.523">
        <ele>1116.441028</ele>
        <time>2021-05-18T11:30:18.960Z</time>
      </trkpt>
      <trkpt lat="45.02858" lon="5.5229">
        <ele>1117.036983</ele>
        <time>2021-05-18T11:30:24.180Z</time>
      </trkpt>
      <trkpt lat="45.0285" lon="5.52277">
        <ele>1117.455126</ele>
        <time>2021-05-18T11:30:27.847Z</time>
      </trkpt>
      <trkpt lat="45.02811" lon="5.52208">
        <ele>1119.7647</ele>
        <time>2021-05-18T11:30:49.331Z</time>
      </trkpt>
      <trkpt lat="45.02796" lon="5.52185">
        <ele>1120.584287</ele>
        <time>2021-05-18T11:30:57.720Z</time>
      </trkpt>
      <trkpt lat="45.02792" lon="5.5218">
        <ele>1120.785376</ele>
        <time>2021-05-18T11:31:00.375Z</time>
      </trkpt>
      <trkpt lat="45.02769" lon="5.52153">
        <ele>1121.862952</ele>
        <time>2021-05-18T11:31:12.764Z</time>
      </trkpt>
      <trkpt lat="45.02752" lon="5.52134">
        <ele>1122.646142</ele>
        <time>2021-05-18T11:31:21.687Z</time>
      </trkpt>
      <trkpt lat="45.02751" lon="5.52132">
        <ele>1122.813394</ele>
        <time>2021-05-18T11:31:22.670Z</time>
      </trkpt>
      <trkpt lat="45.02732" lon="5.5216">
        <ele>1124.708789</ele>
        <time>2021-05-18T11:31:35.241Z</time>
      </trkpt>
      <trkpt lat="45.0273" lon="5.52157">
        <ele>1124.930174</ele>
        <time>2021-05-18T11:31:36.574Z</time>
      </trkpt>
      <trkpt lat="45.02699" lon="5.52133">
        <ele>1127.431015</ele>
        <time>2021-05-18T11:31:51.722Z</time>
      </trkpt>
      <trkpt lat="45.02667" lon="5.52126">
        <ele>1129.722578</ele>
        <time>2021-05-18T11:32:05.599Z</time>
      </trkpt>
      <trkpt lat="45.02649" lon="5.52117">
        <ele>1131.07365</ele>
        <time>2021-05-18T11:32:13.779Z</time>
      </trkpt>
      <trkpt lat="45.02641" lon="5.52105">
        <ele>1131.898767</ele>
        <time>2021-05-18T11:32:18.790Z</time>
      </trkpt>
      <trkpt lat="45.02633" lon="5.52093">
        <ele>1132.723885</ele>
        <time>2021-05-18T11:32:23.790Z</time>
      </trkpt>
      <trkpt lat="45.02615" lon="5.52049">
        <ele>1135.266815</ele>
        <time>2021-05-18T11:32:39.227Z</time>
      </trkpt>
      <trkpt lat="45.02615" lon="5.52047">
        <ele>1135.383133</ele>
        <time>2021-05-18T11:32:39.930Z</time>
      </trkpt>
      <trkpt lat="45.02612" lon="5.52046">
        <ele>1135.642177</ele>
        <time>2021-05-18T11:32:41.258Z</time>
      </trkpt>
      <trkpt lat="45.02606" lon="5.52046">
        <ele>1136.104454</ele>
        <time>2021-05-18T11:32:46.012Z</time>
      </trkpt>
      <trkpt lat="45.02601" lon="5.52034">
        <ele>1136.860253</ele>
        <time>2021-05-18T11:32:54.209Z</time>
      </trkpt>
      <trkpt lat="45.02581" lon="5.52001">
        <ele>1139.272578</ele>
        <time>2021-05-18T11:33:15.984Z</time>
      </trkpt>
      <trkpt lat="45.02522" lon="5.51952">
        <ele>1144.615474</ele>
        <time>2021-05-18T11:34:04.909Z</time>
      </trkpt>
      <trkpt lat="45.02503" lon="5.519">
        <ele>1147.862259</ele>
        <time>2021-05-18T11:34:35.885Z</time>
      </trkpt>
      <trkpt lat="45.02512" lon="5.51893">
        <ele>1148.674081</ele>
        <time>2021-05-18T11:34:40.341Z</time>
      </trkpt>
      <trkpt lat="45.02471" lon="5.51855">
        <ele>1151.334162</ele>
        <time>2021-05-18T11:35:01.347Z</time>
      </trkpt>
      <trkpt lat="45.02453" lon="5.51857">
        <ele>1152.205011</ele>
        <time>2021-05-18T11:35:09.075Z</time>
      </trkpt>
      <trkpt lat="45.02437" lon="5.5184">
        <ele>1153.170105</ele>
        <time>2021-05-18T11:35:17.645Z</time>
      </trkpt>
      <trkpt lat="45.02414" lon="5.51819">
        <ele>1154.490388</ele>
        <time>2021-05-18T11:35:29.365Z</time>
      </trkpt>
      <trkpt lat="45.02392" lon="5.51809">
        <ele>1155.60491</ele>
        <time>2021-05-18T11:35:39.256Z</time>
      </trkpt>
      <trkpt lat="45.02359" lon="5.51803">
        <ele>1157.209655</ele>
        <time>2021-05-18T11:35:53.489Z</time>
      </trkpt>
      <trkpt lat="45.02365" lon="5.51803">
        <ele>1157.475281</ele>
        <time>2021-05-18T11:35:55.843Z</time>
      </trkpt>
      <trkpt lat="45.0237" lon="5.5177">
        <ele>1158.3296</ele>
        <time>2021-05-18T11:36:07.386Z</time>
      </trkpt>
      <trkpt lat="45.02356" lon="5.51751">
        <ele>1158.74552</ele>
        <time>2021-05-18T11:36:13.809Z</time>
      </trkpt>
      <trkpt lat="45.02344" lon="5.51748">
        <ele>1158.993682</ele>
        <time>2021-05-18T11:36:19.642Z</time>
      </trkpt>
      <trkpt lat="45.02335" lon="5.51746">
        <ele>1159.184444</ele>
        <time>2021-05-18T11:36:23.581Z</time>
      </trkpt>
      <trkpt lat="45.02338" lon="5.51737">
        <ele>1159.32931</ele>
        <time>2021-05-18T11:36:25.469Z</time>
      </trkpt>
      <trkpt lat="45.02331" lon="5.51728">
        <ele>1159.525147</ele>
        <time>2021-05-18T11:36:28.269Z</time>
      </trkpt>
      <trkpt lat="45.02324" lon="5.51716">
        <ele>1159.752358</ele>
        <time>2021-05-18T11:36:33.583Z</time>
      </trkpt>
      <trkpt lat="45.02325" lon="5.51689">
        <ele>1160.157518</ele>
        <time>2021-05-18T11:36:39.657Z</time>
      </trkpt>
      <trkpt lat="45.02332" lon="5.5167">
        <ele>1160.467112</ele>
        <time>2021-05-18T11:36:46.094Z</time>
      </trkpt>
      <trkpt lat="45.02367" lon="5.51659">
        <ele>1161.22509</ele>
        <time>2021-05-18T11:36:59.759Z</time>
      </trkpt>
      <trkpt lat="45.0237" lon="5.5165">
        <ele>1161.365898</ele>
        <time>2021-05-18T11:37:03.009Z</time>
      </trkpt>
      <trkpt lat="45.02386" lon="5.51658">
        <ele>1161.728794</ele>
        <time>2021-05-18T11:37:10.422Z</time>
      </trkpt>
      <trkpt lat="45.02426" lon="5.51633">
        <ele>1164.156994</ele>
        <time>2021-05-18T11:37:29.141Z</time>
      </trkpt>
      <trkpt lat="45.02451" lon="5.51624">
        <ele>1165.770772</ele>
        <time>2021-05-18T11:37:40.179Z</time>
      </trkpt>
      <trkpt lat="45.02487" lon="5.51608">
        <ele>1168.131355</ele>
        <time>2021-05-18T11:37:56.333Z</time>
      </trkpt>
      <trkpt lat="45.02494" lon="5.51606">
        <ele>1168.578099</ele>
        <time>2021-05-18T11:37:59.394Z</time>
      </trkpt>
      <trkpt lat="45.02542" lon="5.51591">
        <ele>1171.653243</ele>
        <time>2021-05-18T11:38:20.456Z</time>
      </trkpt>
      <trkpt lat="45.02542" lon="5.51591">
        <ele>1171.662087</ele>
        <time>2021-05-18T11:38:20.517Z</time>
      </trkpt>
      <trkpt lat="45.02566" lon="5.51589">
        <ele>1173.210998</ele>
        <time>2021-05-18T11:38:40.181Z</time>
      </trkpt>
      <trkpt lat="45.0262" lon="5.51561">
        <ele>1178.770628</ele>
        <time>2021-05-18T11:39:26.761Z</time>
      </trkpt>
      <trkpt lat="45.02623" lon="5.51573">
        <ele>1179.636395</ele>
        <time>2021-05-18T11:39:30.594Z</time>
      </trkpt>
      <trkpt lat="45.0264" lon="5.51568">
        <ele>1181.325925</ele>
        <time>2021-05-18T11:39:38.045Z</time>
      </trkpt>
      <trkpt lat="45.02677" lon="5.5154">
        <ele>1185.408793</ele>
        <time>2021-05-18T11:39:56.071Z</time>
      </trkpt>
      <trkpt lat="45.02684" lon="5.51509">
        <ele>1187.646891</ele>
        <time>2021-05-18T11:40:05.975Z</time>
      </trkpt>
      <trkpt lat="45.02705" lon="5.51483">
        <ele>1190.362147</ele>
        <time>2021-05-18T11:40:17.962Z</time>
      </trkpt>
      <trkpt lat="45.02721" lon="5.51448">
        <ele>1192.679896</ele>
        <time>2021-05-18T11:40:30.625Z</time>
      </trkpt>
      <trkpt lat="45.02767" lon="5.51397">
        <ele>1197.1623</ele>
        <time>2021-05-18T11:40:55.709Z</time>
      </trkpt>
      <trkpt lat="45.02787" lon="5.51345">
        <ele>1200.371554</ele>
        <time>2021-05-18T11:41:13.677Z</time>
      </trkpt>
      <trkpt lat="45.02802" lon="5.51314">
        <ele>1202.408144</ele>
        <time>2021-05-18T11:41:25.074Z</time>
      </trkpt>
      <trkpt lat="45.02809" lon="5.51278">
        <ele>1204.432179</ele>
        <time>2021-05-18T11:41:36.407Z</time>
      </trkpt>
      <trkpt lat="45.02821" lon="5.51252">
        <ele>1205.364293</ele>
        <time>2021-05-18T11:41:45.822Z</time>
      </trkpt>
      <trkpt lat="45.02843" lon="5.51238">
        <ele>1206.388751</ele>
        <time>2021-05-18T11:41:56.152Z</time>
      </trkpt>
      <trkpt lat="45.0287" lon="5.51229">
        <ele>1207.566795</ele>
        <time>2021-05-18T11:42:08.020Z</time>
      </trkpt>
      <trkpt lat="45.02897" lon="5.51212">
        <ele>1208.821854</ele>
        <time>2021-05-18T11:42:20.666Z</time>
      </trkpt>
      <trkpt lat="45.02922" lon="5.51195">
        <ele>1209.999817</ele>
        <time>2021-05-18T11:42:32.534Z</time>
      </trkpt>
      <trkpt lat="45.02944" lon="5.51177">
        <ele>1211.079085</ele>
        <time>2021-05-18T11:42:43.409Z</time>
      </trkpt>
      <trkpt lat="45.02966" lon="5.51142">
        <ele>1212.425418</ele>
        <time>2021-05-18T11:42:57.592Z</time>
      </trkpt>
      <trkpt lat="45.02981" lon="5.51078">
        <ele>1214.158161</ele>
        <time>2021-05-18T11:43:18.031Z</time>
      </trkpt>
      <trkpt lat="45.0299" lon="5.51033">
        <ele>1215.359975</ele>
        <time>2021-05-18T11:43:32.208Z</time>
      </trkpt>
      <trkpt lat="45.0301" lon="5.50991">
        <ele>1216.661418</ele>
        <time>2021-05-18T11:43:47.550Z</time>
      </trkpt>
      <trkpt lat="45.03026" lon="5.50995">
        <ele>1217.252208</ele>
        <time>2021-05-18T11:43:54.501Z</time>
      </trkpt>
      <trkpt lat="45.03059" lon="5.50967">
        <ele>1218.678869</ele>
        <time>2021-05-18T11:44:10.975Z</time>
      </trkpt>
      <trkpt lat="45.03072" lon="5.50954">
        <ele>1219.652878</ele>
        <time>2021-05-18T11:44:17.791Z</time>
      </trkpt>
      <trkpt lat="45.03087" lon="5.50934">
        <ele>1220.913939</ele>
        <time>2021-05-18T11:44:26.622Z</time>
      </trkpt>
      <trkpt lat="45.03108" lon="5.50913">
        <ele>1222.487335</ele>
        <time>2021-05-18T11:44:37.636Z</time>
      </trkpt>
      <trkpt lat="45.03127" lon="5.50908">
        <ele>1223.669802</ele>
        <time>2021-05-18T11:44:45.909Z</time>
      </trkpt>
      <trkpt lat="45.03143" lon="5.50911">
        <ele>1224.657334</ele>
        <time>2021-05-18T11:44:52.819Z</time>
      </trkpt>
      <trkpt lat="45.03161" lon="5.50904">
        <ele>1225.799518</ele>
        <time>2021-05-18T11:45:00.815Z</time>
      </trkpt>
      <trkpt lat="45.03176" lon="5.50871">
        <ele>1227.496142</ele>
        <time>2021-05-18T11:45:12.720Z</time>
      </trkpt>
      <trkpt lat="45.03185" lon="5.50831">
        <ele>1229.311325</ele>
        <time>2021-05-18T11:45:25.470Z</time>
      </trkpt>
      <trkpt lat="45.03203" lon="5.50817">
        <ele>1230.685265</ele>
        <time>2021-05-18T11:45:34.281Z</time>
      </trkpt>
      <trkpt lat="45.03238" lon="5.50811">
        <ele>1233.107974</ele>
        <time>2021-05-18T11:45:49.391Z</time>
      </trkpt>
      <trkpt lat="45.0326" lon="5.50813">
        <ele>1234.622882</ele>
        <time>2021-05-18T11:45:58.835Z</time>
      </trkpt>
      <trkpt lat="45.03295" lon="5.50826">
        <ele>1237.109482</ele>
        <time>2021-05-18T11:46:14.334Z</time>
      </trkpt>
      <trkpt lat="45.03315" lon="5.50835">
        <ele>1238.55166</ele>
        <time>2021-05-18T11:46:23.325Z</time>
      </trkpt>
      <trkpt lat="45.03342" lon="5.50836">
        <ele>1240.407676</ele>
        <time>2021-05-18T11:46:34.890Z</time>
      </trkpt>
      <trkpt lat="45.0336" lon="5.50836">
        <ele>1241.644596</ele>
        <time>2021-05-18T11:46:42.598Z</time>
      </trkpt>
      <trkpt lat="45.03376" lon="5.50828">
        <ele>1242.331194</ele>
        <time>2021-05-18T11:46:49.861Z</time>
      </trkpt>
      <trkpt lat="45.03404" lon="5.50819">
        <ele>1243.170791</ele>
        <time>2021-05-18T11:47:02.147Z</time>
      </trkpt>
      <trkpt lat="45.03421" lon="5.50821">
        <ele>1243.669598</ele>
        <time>2021-05-18T11:47:09.444Z</time>
      </trkpt>
      <trkpt lat="45.03447" lon="5.50827">
        <ele>1244.439901</ele>
        <time>2021-05-18T11:47:20.709Z</time>
      </trkpt>
      <trkpt lat="45.03463" lon="5.50842">
        <ele>1245.001113</ele>
        <time>2021-05-18T11:47:28.924Z</time>
      </trkpt>
      <trkpt lat="45.03483" lon="5.50846">
        <ele>1245.591739</ele>
        <time>2021-05-18T11:47:37.559Z</time>
      </trkpt>
      <trkpt lat="45.03507" lon="5.50853">
        <ele>1246.308269</ele>
        <time>2021-05-18T11:47:48.035Z</time>
      </trkpt>
      <trkpt lat="45.03534" lon="5.50861">
        <ele>1247.114889</ele>
        <time>2021-05-18T11:47:59.829Z</time>
      </trkpt>
      <trkpt lat="45.03555" lon="5.50863">
        <ele>1247.200128</ele>
        <time>2021-05-18T11:48:08.826Z</time>
      </trkpt>
      <trkpt lat="45.03578" lon="5.50862">
        <ele>1247.152197</ele>
        <time>2021-05-18T11:48:18.662Z</time>
      </trkpt>
      <trkpt lat="45.03606" lon="5.50866">
        <ele>1247.093576</ele>
        <time>2021-05-18T11:48:30.691Z</time>
      </trkpt>
      <trkpt lat="45.03624" lon="5.50874">
        <ele>1247.054276</ele>
        <time>2021-05-18T11:48:38.760Z</time>
      </trkpt>
      <trkpt lat="45.0364" lon="5.5088">
        <ele>1247.019797</ele>
        <time>2021-05-18T11:48:45.836Z</time>
      </trkpt>
      <trkpt lat="45.0366" lon="5.50887">
        <ele>1246.976882</ele>
        <time>2021-05-18T11:48:54.646Z</time>
      </trkpt>
      <trkpt lat="45.03671" lon="5.50903">
        <ele>1246.943229</ele>
        <time>2021-05-18T11:49:01.563Z</time>
      </trkpt>
      <trkpt lat="45.03674" lon="5.509">
        <ele>1246.936223</ele>
        <time>2021-05-18T11:49:02.340Z</time>
      </trkpt>
      <trkpt lat="45.03671" lon="5.50836">
        <ele>1247.068535</ele>
        <time>2021-05-18T11:49:18.255Z</time>
      </trkpt>
      <trkpt lat="45.03673" lon="5.50799">
        <ele>1247.656497</ele>
        <time>2021-05-18T11:49:27.249Z</time>
      </trkpt>
      <trkpt lat="45.03669" lon="5.5075">
        <ele>1248.461941</ele>
        <time>2021-05-18T11:49:42.174Z</time>
      </trkpt>
      <trkpt lat="45.03668" lon="5.507">
        <ele>1249.253662</ele>
        <time>2021-05-18T11:49:57.171Z</time>
      </trkpt>
      <trkpt lat="45.03667" lon="5.50677">
        <ele>1249.628638</ele>
        <time>2021-05-18T11:50:04.562Z</time>
      </trkpt>
      <trkpt lat="45.03666" lon="5.50677">
        <ele>1249.660512</ele>
        <time>2021-05-18T11:50:05.178Z</time>
      </trkpt>
      <trkpt lat="45.03664" lon="5.50642">
        <ele>1250.225452</ele>
        <time>2021-05-18T11:50:15.823Z</time>
      </trkpt>
      <trkpt lat="45.03669" lon="5.50602">
        <ele>1250.878988</ele>
        <time>2021-05-18T11:50:28.137Z</time>
      </trkpt>
      <trkpt lat="45.0368" lon="5.50581">
        <ele>1251.950977</ele>
        <time>2021-05-18T11:50:36.057Z</time>
      </trkpt>
      <trkpt lat="45.03688" lon="5.50561">
        <ele>1253.021335</ele>
        <time>2021-05-18T11:50:43.022Z</time>
      </trkpt>
      <trkpt lat="45.03702" lon="5.50544">
        <ele>1254.23718</ele>
        <time>2021-05-18T11:50:50.934Z</time>
      </trkpt>
      <trkpt lat="45.03737" lon="5.50541">
        <ele>1256.548189</ele>
        <time>2021-05-18T11:51:05.951Z</time>
      </trkpt>
      <trkpt lat="45.03733" lon="5.5054">
        <ele>1256.795529</ele>
        <time>2021-05-18T11:51:07.557Z</time>
      </trkpt>
      <trkpt lat="45.03739" lon="5.50515">
        <ele>1257.998472</ele>
        <time>2021-05-18T11:51:20.170Z</time>
      </trkpt>
      <trkpt lat="45.03756" lon="5.50491">
        <ele>1259.592366</ele>
        <time>2021-05-18T11:51:37.258Z</time>
      </trkpt>
      <trkpt lat="45.03767" lon="5.50462">
        <ele>1261.137073</ele>
        <time>2021-05-18T11:51:53.906Z</time>
      </trkpt>
      <trkpt lat="45.03786" lon="5.50449">
        <ele>1262.518035</ele>
        <time>2021-05-18T11:52:08.362Z</time>
      </trkpt>
      <trkpt lat="45.03817" lon="5.50382">
        <ele>1267.016523</ele>
        <time>2021-05-18T11:52:49.851Z</time>
      </trkpt>
      <trkpt lat="45.03882" lon="5.50278">
        <ele>1274.936245</ele>
        <time>2021-05-18T11:54:02.022Z</time>
      </trkpt>
      <trkpt lat="45.0389" lon="5.50249">
        <ele>1276.669783</ele>
        <time>2021-05-18T11:54:18.308Z</time>
      </trkpt>
      <trkpt lat="45.03892" lon="5.5019">
        <ele>1279.190404</ele>
        <time>2021-05-18T11:54:46.850Z</time>
      </trkpt>
      <trkpt lat="45.03917" lon="5.50125">
        <ele>1282.01015</ele>
        <time>2021-05-18T11:55:19.257Z</time>
      </trkpt>
      <trkpt lat="45.03961" lon="5.50082">
        <ele>1284.954475</ele>
        <time>2021-05-18T11:55:51.218Z</time>
      </trkpt>
      <trkpt lat="45.04107" lon="5.50078">
        <ele>1289.311327</ele>
        <time>2021-05-18T11:56:57.831Z</time>
      </trkpt>
      <trkpt lat="45.04199" lon="5.5006">
        <ele>1291.236705</ele>
        <time>2021-05-18T11:57:31.314Z</time>
      </trkpt>
      <trkpt lat="45.04277" lon="5.50028">
        <ele>1293.001595</ele>
        <time>2021-05-18T11:57:59.726Z</time>
      </trkpt>
      <trkpt lat="45.04304" lon="5.49995">
        <ele>1293.76254</ele>
        <time>2021-05-18T11:58:13.929Z</time>
      </trkpt>
      <trkpt lat="45.04294" lon="5.49984">
        <ele>1294.021808</ele>
        <time>2021-05-18T11:58:22.173Z</time>
      </trkpt>
      <trkpt lat="45.04282" lon="5.49962">
        <ele>1294.453409</ele>
        <time>2021-05-18T11:58:28.178Z</time>
      </trkpt>
      <trkpt lat="45.04281" lon="5.49946">
        <ele>1294.700908</ele>
        <time>2021-05-18T11:58:39.011Z</time>
      </trkpt>
      <trkpt lat="45.04276" lon="5.49944">
        <ele>1295.063897</ele>
        <time>2021-05-18T11:58:41.523Z</time>
      </trkpt>
      <trkpt lat="45.04272" lon="5.4994">
        <ele>1295.439942</ele>
        <time>2021-05-18T11:58:44.108Z</time>
      </trkpt>
      <trkpt lat="45.04267" lon="5.49932">
        <ele>1296.013487</ele>
        <time>2021-05-18T11:58:47.962Z</time>
      </trkpt>
      <trkpt lat="45.04264" lon="5.49921">
        <ele>1296.658901</ele>
        <time>2021-05-18T11:58:49.136Z</time>
      </trkpt>
      <trkpt lat="45.04265" lon="5.49914">
        <ele>1297.05907</ele>
        <time>2021-05-18T11:58:55.986Z</time>
      </trkpt>
      <trkpt lat="45.0428" lon="5.4988">
        <ele>1299.254278</ele>
        <time>2021-05-18T11:59:12.588Z</time>
      </trkpt>
      <trkpt lat="45.04279" lon="5.49879">
        <ele>1299.317192</ele>
        <time>2021-05-18T11:59:13.093Z</time>
      </trkpt>
      <trkpt lat="45.04268" lon="5.49843">
        <ele>1301.447715</ele>
        <time>2021-05-18T11:59:25.033Z</time>
      </trkpt>
      <trkpt lat="45.04263" lon="5.49823">
        <ele>1302.600106</ele>
        <time>2021-05-18T11:59:31.474Z</time>
      </trkpt>
      <trkpt lat="45.04254" lon="5.49804">
        <ele>1303.842643</ele>
        <time>2021-05-18T11:59:38.424Z</time>
      </trkpt>
      <trkpt lat="45.04238" lon="5.4979">
        <ele>1305.288777</ele>
        <time>2021-05-18T11:59:46.490Z</time>
      </trkpt>
      <trkpt lat="45.04206" lon="5.49774">
        <ele>1307.897854</ele>
        <time>2021-05-18T12:00:01.045Z</time>
      </trkpt>
      <trkpt lat="45.0417" lon="5.49758">
        <ele>1311.319619</ele>
        <time>2021-05-18T12:00:17.240Z</time>
      </trkpt>
      <trkpt lat="45.04114" lon="5.49737">
        <ele>1316.798605</ele>
        <time>2021-05-18T12:00:42.116Z</time>
      </trkpt>
      <trkpt lat="45.04088" lon="5.4973">
        <ele>1319.301661</ele>
        <time>2021-05-18T12:00:53.460Z</time>
      </trkpt>
      <trkpt lat="45.0405" lon="5.49717">
        <ele>1322.999033</ele>
        <time>2021-05-18T12:01:10.219Z</time>
      </trkpt>
      <trkpt lat="45.04022" lon="5.49697">
        <ele>1326.134355</ele>
        <time>2021-05-18T12:01:23.687Z</time>
      </trkpt>
      <trkpt lat="45.03998" lon="5.49688">
        <ele>1329.43044</ele>
        <time>2021-05-18T12:01:34.347Z</time>
      </trkpt>
      <trkpt lat="45.03966" lon="5.49683">
        <ele>1333.704424</ele>
        <time>2021-05-18T12:01:48.180Z</time>
      </trkpt>
      <trkpt lat="45.03935" lon="5.49678">
        <ele>1337.84648</ele>
        <time>2021-05-18T12:02:01.597Z</time>
      </trkpt>
      <trkpt lat="45.03913" lon="5.49659">
        <ele>1341.267995</ele>
        <time>2021-05-18T12:02:12.695Z</time>
      </trkpt>
      <trkpt lat="45.03911" lon="5.4964">
        <ele>1343.070016</ele>
        <time>2021-05-18T12:02:18.582Z</time>
      </trkpt>
      <trkpt lat="45.03945" lon="5.49628">
        <ele>1347.72195</ele>
        <time>2021-05-18T12:02:33.716Z</time>
      </trkpt>
      <trkpt lat="45.0396" lon="5.4961">
        <ele>1350.727902</ele>
        <time>2021-05-18T12:02:42.214Z</time>
      </trkpt>
      <trkpt lat="45.03971" lon="5.49582">
        <ele>1355.040465</ele>
        <time>2021-05-18T12:02:52.041Z</time>
      </trkpt>
      <trkpt lat="45.03997" lon="5.49567">
        <ele>1360.389363</ele>
        <time>2021-05-18T12:03:04.236Z</time>
      </trkpt>
      <trkpt lat="45.04025" lon="5.49564">
        <ele>1365.73877</ele>
        <time>2021-05-18T12:03:16.475Z</time>
      </trkpt>
      <trkpt lat="45.04035" lon="5.49546">
        <ele>1368.821023</ele>
        <time>2021-05-18T12:03:23.550Z</time>
      </trkpt>
      <trkpt lat="45.04035" lon="5.49523">
        <ele>1371.917111</ele>
        <time>2021-05-18T12:03:30.627Z</time>
      </trkpt>
      <trkpt lat="45.04035" lon="5.49511">
        <ele>1373.532462</ele>
        <time>2021-05-18T12:03:34.320Z</time>
      </trkpt>
      <trkpt lat="45.04033" lon="5.49497">
        <ele>1375.52492</ele>
        <time>2021-05-18T12:03:38.877Z</time>
      </trkpt>
      <trkpt lat="45.04079" lon="5.49484">
        <ele>1384.254435</ele>
        <time>2021-05-18T12:04:36.923Z</time>
      </trkpt>
      <trkpt lat="45.04084" lon="5.49444">
        <ele>1388.141418</ele>
        <time>2021-05-18T12:05:10.592Z</time>
      </trkpt>
      <trkpt lat="45.04097" lon="5.49442">
        <ele>1389.929537</ele>
        <time>2021-05-18T12:05:26.506Z</time>
      </trkpt>
      <trkpt lat="45.04136" lon="5.49439">
        <ele>1395.210428</ele>
        <time>2021-05-18T12:06:08.550Z</time>
      </trkpt>
      <trkpt lat="45.04193" lon="5.49402">
        <ele>1403.720816</ele>
        <time>2021-05-18T12:07:05.242Z</time>
      </trkpt>
      <trkpt lat="45.04223" lon="5.49395">
        <ele>1407.938464</ele>
        <time>2021-05-18T12:07:31.668Z</time>
      </trkpt>
      <trkpt lat="45.04222" lon="5.49385">
        <ele>1408.680782</ele>
        <time>2021-05-18T12:07:34.874Z</time>
      </trkpt>
      <trkpt lat="45.04247" lon="5.49387">
        <ele>1410.890764</ele>
        <time>2021-05-18T12:07:45.597Z</time>
      </trkpt>
      <trkpt lat="45.04259" lon="5.49389">
        <ele>1411.957183</ele>
        <time>2021-05-18T12:07:50.777Z</time>
      </trkpt>
      <trkpt lat="45.04281" lon="5.49391">
        <ele>1413.902869</ele>
        <time>2021-05-18T12:08:00.218Z</time>
      </trkpt>
      <trkpt lat="45.04299" lon="5.49392">
        <ele>1415.492744</ele>
        <time>2021-05-18T12:08:07.941Z</time>
      </trkpt>
      <trkpt lat="45.04308" lon="5.49392">
        <ele>1416.287069</ele>
        <time>2021-05-18T12:08:11.796Z</time>
      </trkpt>
      <trkpt lat="45.04321" lon="5.49391">
        <ele>1417.436122</ele>
        <time>2021-05-18T12:08:17.374Z</time>
      </trkpt>
      <trkpt lat="45.04339" lon="5.49386">
        <ele>1419.055083</ele>
        <time>2021-05-18T12:08:25.242Z</time>
      </trkpt>
      <trkpt lat="45.04365" lon="5.49385">
        <ele>1421.350648</ele>
        <time>2021-05-18T12:08:36.397Z</time>
      </trkpt>
      <trkpt lat="45.04375" lon="5.49378">
        <ele>1422.335283</ele>
        <time>2021-05-18T12:08:41.183Z</time>
      </trkpt>
      <trkpt lat="45.04406" lon="5.4936">
        <ele>1425.717768</ele>
        <time>2021-05-18T12:08:55.555Z</time>
      </trkpt>
      <trkpt lat="45.04432" lon="5.49346">
        <ele>1429.016451</ele>
        <time>2021-05-18T12:09:07.499Z</time>
      </trkpt>
      <trkpt lat="45.04491" lon="5.49319">
        <ele>1436.369319</ele>
        <time>2021-05-18T12:09:34.153Z</time>
      </trkpt>
      <trkpt lat="45.04507" lon="5.49305">
        <ele>1438.599909</ele>
        <time>2021-05-18T12:09:42.250Z</time>
      </trkpt>
      <trkpt lat="45.04489" lon="5.49274">
        <ele>1441.961708</ele>
        <time>2021-05-18T12:09:54.480Z</time>
      </trkpt>
      <trkpt lat="45.04482" lon="5.49259">
        <ele>1443.467836</ele>
        <time>2021-05-18T12:09:59.958Z</time>
      </trkpt>
      <trkpt lat="45.0449" lon="5.49234">
        <ele>1445.89695</ele>
        <time>2021-05-18T12:10:08.348Z</time>
      </trkpt>
      <trkpt lat="45.04494" lon="5.49224">
        <ele>1447.185143</ele>
        <time>2021-05-18T12:10:11.855Z</time>
      </trkpt>
      <trkpt lat="45.04506" lon="5.4921">
        <ele>1449.652525</ele>
        <time>2021-05-18T12:10:18.570Z</time>
      </trkpt>
      <trkpt lat="45.04515" lon="5.49207">
        <ele>1451.119532</ele>
        <time>2021-05-18T12:10:22.564Z</time>
      </trkpt>
      <trkpt lat="45.04524" lon="5.49212">
        <ele>1452.653537</ele>
        <time>2021-05-18T12:10:26.732Z</time>
      </trkpt>
      <trkpt lat="45.04532" lon="5.49213">
        <ele>1453.927757</ele>
        <time>2021-05-18T12:10:30.191Z</time>
      </trkpt>
      <trkpt lat="45.04536" lon="5.49205">
        <ele>1455.026404</ele>
        <time>2021-05-18T12:10:33.188Z</time>
      </trkpt>
      <trkpt lat="45.04537" lon="5.49192">
        <ele>1456.492323</ele>
        <time>2021-05-18T12:10:37.192Z</time>
      </trkpt>
      <trkpt lat="45.04537" lon="5.49172">
        <ele>1458.734334</ele>
        <time>2021-05-18T12:10:43.308Z</time>
      </trkpt>
      <trkpt lat="45.04541" lon="5.49137">
        <ele>1462.708848</ele>
        <time>2021-05-18T12:10:54.138Z</time>
      </trkpt>
      <trkpt lat="45.04556" lon="5.49126">
        <ele>1465.389232</ele>
        <time>2021-05-18T12:11:01.447Z</time>
      </trkpt>
      <trkpt lat="45.0457" lon="5.49108">
        <ele>1468.390135</ele>
        <time>2021-05-18T12:11:09.641Z</time>
      </trkpt>
      <trkpt lat="45.04579" lon="5.49098">
        <ele>1470.205526</ele>
        <time>2021-05-18T12:11:14.614Z</time>
      </trkpt>
      <trkpt lat="45.046" lon="5.49081">
        <ele>1474.053267</ele>
        <time>2021-05-18T12:11:25.089Z</time>
      </trkpt>
      <trkpt lat="45.04609" lon="5.49072">
        <ele>1475.934909</ele>
        <time>2021-05-18T12:11:29.872Z</time>
      </trkpt>
      <trkpt lat="45.0463" lon="5.49055">
        <ele>1480.065786</ele>
        <time>2021-05-18T12:11:40.346Z</time>
      </trkpt>
      <trkpt lat="45.04648" lon="5.49037">
        <ele>1483.829063</ele>
        <time>2021-05-18T12:11:49.924Z</time>
      </trkpt>
      <trkpt lat="45.04651" lon="5.49043">
        <ele>1484.64872</ele>
        <time>2021-05-18T12:11:51.997Z</time>
      </trkpt>
      <trkpt lat="45.0466" lon="5.49035">
        <ele>1486.527857</ele>
        <time>2021-05-18T12:12:03.014Z</time>
      </trkpt>
      <trkpt lat="45.04672" lon="5.49007">
        <ele>1490.49651</ele>
        <time>2021-05-18T12:12:29.445Z</time>
      </trkpt>
      <trkpt lat="45.04697" lon="5.48983">
        <ele>1495.614316</ele>
        <time>2021-05-18T12:13:01.795Z</time>
      </trkpt>
      <trkpt lat="45.04716" lon="5.48954">
        <ele>1500.455845</ele>
        <time>2021-05-18T12:13:29.266Z</time>
      </trkpt>
      <trkpt lat="45.04812" lon="5.48855">
        <ele>1516.93264</ele>
        <time>2021-05-18T12:15:24.992Z</time>
      </trkpt>
      <trkpt lat="45.04856" lon="5.48788">
        <ele>1525.483697</ele>
        <time>2021-05-18T12:16:15.256Z</time>
      </trkpt>
      <trkpt lat="45.04869" lon="5.4874">
        <ele>1528.988809</ele>
        <time>2021-05-18T12:16:39.939Z</time>
      </trkpt>
      <trkpt lat="45.04881" lon="5.48747">
        <ele>1529.637393</ele>
        <time>2021-05-18T12:16:45.541Z</time>
      </trkpt>
      <trkpt lat="45.04898" lon="5.48705">
        <ele>1531.335626</ele>
        <time>2021-05-18T12:17:00.228Z</time>
      </trkpt>
      <trkpt lat="45.04896" lon="5.48689">
        <ele>1531.905692</ele>
        <time>2021-05-18T12:17:05.156Z</time>
      </trkpt>
      <trkpt lat="45.04883" lon="5.48667">
        <ele>1532.91193</ele>
        <time>2021-05-18T12:17:13.847Z</time>
      </trkpt>
      <trkpt lat="45.04858" lon="5.48641">
        <ele>1534.452501</ele>
        <time>2021-05-18T12:17:27.133Z</time>
      </trkpt>
      <trkpt lat="45.04827" lon="5.48623">
        <ele>1536.116431</ele>
        <time>2021-05-18T12:17:41.465Z</time>
      </trkpt>
      <trkpt lat="45.04797" lon="5.48601">
        <ele>1536.489743</ele>
        <time>2021-05-18T12:17:55.917Z</time>
      </trkpt>
      <trkpt lat="45.04779" lon="5.48584">
        <ele>1535.229753</ele>
        <time>2021-05-18T12:18:05.179Z</time>
      </trkpt>
      <trkpt lat="45.04762" lon="5.48572">
        <ele>1534.123623</ele>
        <time>2021-05-18T12:18:13.311Z</time>
      </trkpt>
      <trkpt lat="45.04723" lon="5.48549">
        <ele>1531.663532</ele>
        <time>2021-05-18T12:18:31.407Z</time>
      </trkpt>
      <trkpt lat="45.0468" lon="5.48528">
        <ele>1529.014915</ele>
        <time>2021-05-18T12:18:50.908Z</time>
      </trkpt>
      <trkpt lat="45.04662" lon="5.48514">
        <ele>1527.819005</ele>
        <time>2021-05-18T12:18:59.722Z</time>
      </trkpt>
      <trkpt lat="45.04609" lon="5.48476">
        <ele>1522.416303</ele>
        <time>2021-05-18T12:19:25.230Z</time>
      </trkpt>
      <trkpt lat="45.04595" lon="5.48467">
        <ele>1520.784133</ele>
        <time>2021-05-18T12:19:31.837Z</time>
      </trkpt>
      <trkpt lat="45.04583" lon="5.48466">
        <ele>1519.508158</ele>
        <time>2021-05-18T12:19:37.015Z</time>
      </trkpt>
      <trkpt lat="45.04573" lon="5.48455">
        <ele>1518.163796</ele>
        <time>2021-05-18T12:19:42.455Z</time>
      </trkpt>
      <trkpt lat="45.04557" lon="5.48435">
        <ele>1515.897899</ele>
        <time>2021-05-18T12:19:51.644Z</time>
      </trkpt>
      <trkpt lat="45.04539" lon="5.48421">
        <ele>1513.717753</ele>
        <time>2021-05-18T12:20:00.465Z</time>
      </trkpt>
      <trkpt lat="45.04514" lon="5.48375">
        <ele>1509.365283</ele>
        <time>2021-05-18T12:20:18.124Z</time>
      </trkpt>
      <trkpt lat="45.04505" lon="5.48362">
        <ele>1508.000279</ele>
        <time>2021-05-18T12:20:23.655Z</time>
      </trkpt>
      <trkpt lat="45.04498" lon="5.48359">
        <ele>1507.254594</ele>
        <time>2021-05-18T12:20:26.784Z</time>
      </trkpt>
      <trkpt lat="45.04486" lon="5.48355">
        <ele>1506.045114</ele>
        <time>2021-05-18T12:20:32.107Z</time>
      </trkpt>
      <trkpt lat="45.04488" lon="5.48353">
        <ele>1505.840211</ele>
        <time>2021-05-18T12:20:33.009Z</time>
      </trkpt>
      <trkpt lat="45.04497" lon="5.48368">
        <ele>1504.503583</ele>
        <time>2021-05-18T12:20:35.858Z</time>
      </trkpt>
      <trkpt lat="45.04501" lon="5.48367">
        <ele>1504.044694</ele>
        <time>2021-05-18T12:20:39.217Z</time>
      </trkpt>
      <trkpt lat="45.04502" lon="5.48375">
        <ele>1503.467891</ele>
        <time>2021-05-18T12:20:40.380Z</time>
      </trkpt>
      <trkpt lat="45.04493" lon="5.48413">
        <ele>1500.652818</ele>
        <time>2021-05-18T12:20:46.540Z</time>
      </trkpt>
      <trkpt lat="45.04493" lon="5.48435">
        <ele>1499.167361</ele>
        <time>2021-05-18T12:20:49.716Z</time>
      </trkpt>
      <trkpt lat="45.04496" lon="5.48435">
        <ele>1498.833513</ele>
        <time>2021-05-18T12:20:51.192Z</time>
      </trkpt>
      <trkpt lat="45.04491" lon="5.4842">
        <ele>1497.683858</ele>
        <time>2021-05-18T12:20:56.237Z</time>
      </trkpt>
      <trkpt lat="45.04486" lon="5.48406">
        <ele>1496.59649</ele>
        <time>2021-05-18T12:21:00.990Z</time>
      </trkpt>
      <trkpt lat="45.04469" lon="5.48395">
        <ele>1494.762657</ele>
        <time>2021-05-18T12:21:09.034Z</time>
      </trkpt>
      <trkpt lat="45.0446" lon="5.48387">
        <ele>1493.720007</ele>
        <time>2021-05-18T12:21:13.587Z</time>
      </trkpt>
      <trkpt lat="45.04447" lon="5.48373">
        <ele>1492.117401</ele>
        <time>2021-05-18T12:21:20.597Z</time>
      </trkpt>
      <trkpt lat="45.04423" lon="5.48338">
        <ele>1489.256084</ele>
        <time>2021-05-18T12:21:35.390Z</time>
      </trkpt>
      <trkpt lat="45.04407" lon="5.48318">
        <ele>1488.034721</ele>
        <time>2021-05-18T12:21:44.558Z</time>
      </trkpt>
      <trkpt lat="45.04395" lon="5.48294">
        <ele>1486.846142</ele>
        <time>2021-05-18T12:21:53.481Z</time>
      </trkpt>
      <trkpt lat="45.04388" lon="5.4826">
        <ele>1485.414496</ele>
        <time>2021-05-18T12:22:04.221Z</time>
      </trkpt>
      <trkpt lat="45.04388" lon="5.48253">
        <ele>1485.131514</ele>
        <time>2021-05-18T12:22:06.344Z</time>
      </trkpt>
      <trkpt lat="45.04388" lon="5.48231">
        <ele>1484.242141</ele>
        <time>2021-05-18T12:22:13.020Z</time>
      </trkpt>
      <trkpt lat="45.04388" lon="5.4823">
        <ele>1484.201715</ele>
        <time>2021-05-18T12:22:13.324Z</time>
      </trkpt>
      <trkpt lat="45.04388" lon="5.48229">
        <ele>1484.161289</ele>
        <time>2021-05-18T12:22:13.627Z</time>
      </trkpt>
      <trkpt lat="45.04397" lon="5.48205">
        <ele>1483.062885</ele>
        <time>2021-05-18T12:22:21.860Z</time>
      </trkpt>
      <trkpt lat="45.04414" lon="5.4819">
        <ele>1481.916691</ele>
        <time>2021-05-18T12:22:30.438Z</time>
      </trkpt>
      <trkpt lat="45.04444" lon="5.48166">
        <ele>1479.945014</ele>
        <time>2021-05-18T12:22:45.188Z</time>
      </trkpt>
      <trkpt lat="45.04469" lon="5.4816">
        <ele>1479.167598</ele>
        <time>2021-05-18T12:22:56.034Z</time>
      </trkpt>
      <trkpt lat="45.04521" lon="5.48148">
        <ele>1477.847755</ele>
        <time>2021-05-18T12:23:18.566Z</time>
      </trkpt>
      <trkpt lat="45.04554" lon="5.48138">
        <ele>1477.002344</ele>
        <time>2021-05-18T12:23:32.998Z</time>
      </trkpt>
      <trkpt lat="45.04589" lon="5.48125">
        <ele>1476.095878</ele>
        <time>2021-05-18T12:23:48.472Z</time>
      </trkpt>
      <trkpt lat="45.04612" lon="5.48116">
        <ele>1475.498095</ele>
        <time>2021-05-18T12:23:58.674Z</time>
      </trkpt>
      <trkpt lat="45.04635" lon="5.48111">
        <ele>1474.733359</ele>
        <time>2021-05-18T12:24:08.621Z</time>
      </trkpt>
      <trkpt lat="45.04663" lon="5.48103">
        <ele>1473.537967</ele>
        <time>2021-05-18T12:24:20.833Z</time>
      </trkpt>
      <trkpt lat="45.04696" lon="5.48096">
        <ele>1472.141547</ele>
        <time>2021-05-18T12:24:35.099Z</time>
      </trkpt>
      <trkpt lat="45.04723" lon="5.48089">
        <ele>1470.992841</ele>
        <time>2021-05-18T12:24:46.838Z</time>
      </trkpt>
      <trkpt lat="45.04759" lon="5.48085">
        <ele>1469.481663</ele>
        <time>2021-05-18T12:25:02.282Z</time>
      </trkpt>
      <trkpt lat="45.04809" lon="5.4808">
        <ele>1466.554512</ele>
        <time>2021-05-18T12:25:23.749Z</time>
      </trkpt>
      <trkpt lat="45.04837" lon="5.48073">
        <ele>1461.77864</ele>
        <time>2021-05-18T12:25:35.986Z</time>
      </trkpt>
      <trkpt lat="45.04888" lon="5.4807">
        <ele>1453.204933</ele>
        <time>2021-05-18T12:25:58.013Z</time>
      </trkpt>
      <trkpt lat="45.04926" lon="5.48066">
        <ele>1446.804565</ele>
        <time>2021-05-18T12:26:14.540Z</time>
      </trkpt>
      <trkpt lat="45.04983" lon="5.48058">
        <ele>1437.194644</ele>
        <time>2021-05-18T12:26:39.508Z</time>
      </trkpt>
      <trkpt lat="45.05015" lon="5.48059">
        <ele>1432.044906</ele>
        <time>2021-05-18T12:26:53.448Z</time>
      </trkpt>
      <trkpt lat="45.05042" lon="5.4806">
        <ele>1427.699387</ele>
        <time>2021-05-18T12:27:05.285Z</time>
      </trkpt>
      <trkpt lat="45.05053" lon="5.48061">
        <ele>1425.925949</ele>
        <time>2021-05-18T12:27:10.059Z</time>
      </trkpt>
      <trkpt lat="45.05086" lon="5.48062">
        <ele>1420.615359</ele>
        <time>2021-05-18T12:27:24.378Z</time>
      </trkpt>
      <trkpt lat="45.05102" lon="5.48062">
        <ele>1418.041118</ele>
        <time>2021-05-18T12:27:31.268Z</time>
      </trkpt>
      <trkpt lat="45.05108" lon="5.48064">
        <ele>1417.049371</ele>
        <time>2021-05-18T12:27:33.922Z</time>
      </trkpt>
      <trkpt lat="45.05107" lon="5.48058">
        <ele>1416.34866</ele>
        <time>2021-05-18T12:27:35.824Z</time>
      </trkpt>
      <trkpt lat="45.05101" lon="5.48053">
        <ele>1415.228448</ele>
        <time>2021-05-18T12:27:38.806Z</time>
      </trkpt>
      <trkpt lat="45.05095" lon="5.48053">
        <ele>1414.263107</ele>
        <time>2021-05-18T12:27:41.372Z</time>
      </trkpt>
      <trkpt lat="45.05084" lon="5.48051">
        <ele>1412.478775</ele>
        <time>2021-05-18T12:27:46.157Z</time>
      </trkpt>
      <trkpt lat="45.05059" lon="5.48045">
        <ele>1408.467225</ele>
        <time>2021-05-18T12:27:57.002Z</time>
      </trkpt>
      <trkpt lat="45.0506" lon="5.48013">
        <ele>1407.066845</ele>
        <time>2021-05-18T12:28:06.776Z</time>
      </trkpt>
      <trkpt lat="45.04983" lon="5.48011">
        <ele>1402.336847</ele>
        <time>2021-05-18T12:28:25.720Z</time>
      </trkpt>
      <trkpt lat="45.04971" lon="5.48012">
        <ele>1401.594983</ele>
        <time>2021-05-18T12:28:31.756Z</time>
      </trkpt>
      <trkpt lat="45.04971" lon="5.48014">
        <ele>1401.485769</ele>
        <time>2021-05-18T12:28:32.610Z</time>
      </trkpt>
      <trkpt lat="45.04898" lon="5.47989">
        <ele>1396.687472</ele>
        <time>2021-05-18T12:29:04.778Z</time>
      </trkpt>
      <trkpt lat="45.04887" lon="5.47985">
        <ele>1395.782789</ele>
        <time>2021-05-18T12:29:09.644Z</time>
      </trkpt>
      <trkpt lat="45.04877" lon="5.47981">
        <ele>1394.955019</ele>
        <time>2021-05-18T12:29:14.088Z</time>
      </trkpt>
      <trkpt lat="45.04826" lon="5.47958">
        <ele>1390.65331</ele>
        <time>2021-05-18T12:29:37.259Z</time>
      </trkpt>
      <trkpt lat="45.04774" lon="5.47935">
        <ele>1386.351597</ele>
        <time>2021-05-18T12:30:00.427Z</time>
      </trkpt>
      <trkpt lat="45.04781" lon="5.47895">
        <ele>1384.003173</ele>
        <time>2021-05-18T12:30:13.121Z</time>
      </trkpt>
      <trkpt lat="45.04638" lon="5.47844">
        <ele>1377.892008</ele>
        <time>2021-05-18T12:30:48.892Z</time>
      </trkpt>
      <trkpt lat="45.04594" lon="5.47813">
        <ele>1376.145699</ele>
        <time>2021-05-18T12:31:07.274Z</time>
      </trkpt>
      <trkpt lat="45.04534" lon="5.47731">
        <ele>1374.862722</ele>
        <time>2021-05-18T12:31:33.301Z</time>
      </trkpt>
      <trkpt lat="45.04531" lon="5.47711">
        <ele>1374.631683</ele>
        <time>2021-05-18T12:31:37.532Z</time>
      </trkpt>
      <trkpt lat="45.0453" lon="5.47711">
        <ele>1374.615886</ele>
        <time>2021-05-18T12:31:37.980Z</time>
      </trkpt>
      <trkpt lat="45.04507" lon="5.47709">
        <ele>1374.259781</ele>
        <time>2021-05-18T12:31:47.832Z</time>
      </trkpt>
      <trkpt lat="45.04489" lon="5.47705">
        <ele>1373.978207</ele>
        <time>2021-05-18T12:31:55.622Z</time>
      </trkpt>
      <trkpt lat="45.04467" lon="5.47701">
        <ele>1373.635432</ele>
        <time>2021-05-18T12:32:05.108Z</time>
      </trkpt>
      <trkpt lat="45.04446" lon="5.47701">
        <ele>1372.93831</ele>
        <time>2021-05-18T12:32:14.088Z</time>
      </trkpt>
      <trkpt lat="45.04425" lon="5.47699">
        <ele>1371.742391</ele>
        <time>2021-05-18T12:32:23.091Z</time>
      </trkpt>
      <trkpt lat="45.04402" lon="5.47701">
        <ele>1370.433065</ele>
        <time>2021-05-18T12:32:32.949Z</time>
      </trkpt>
      <trkpt lat="45.04383" lon="5.47707">
        <ele>1369.326938</ele>
        <time>2021-05-18T12:32:41.281Z</time>
      </trkpt>
      <trkpt lat="45.04364" lon="5.4771">
        <ele>1368.240659</ele>
        <time>2021-05-18T12:32:49.464Z</time>
      </trkpt>
      <trkpt lat="45.04337" lon="5.4771">
        <ele>1366.706519</ele>
        <time>2021-05-18T12:33:01.024Z</time>
      </trkpt>
      <trkpt lat="45.0431" lon="5.47707">
        <ele>1365.167657</ele>
        <time>2021-05-18T12:33:12.622Z</time>
      </trkpt>
      <trkpt lat="45.04288" lon="5.47702">
        <ele>1363.901601</ele>
        <time>2021-05-18T12:33:22.167Z</time>
      </trkpt>
      <trkpt lat="45.04262" lon="5.47701">
        <ele>1362.209166</ele>
        <time>2021-05-18T12:33:33.308Z</time>
      </trkpt>
      <trkpt lat="45.04242" lon="5.47703">
        <ele>1360.766828</ele>
        <time>2021-05-18T12:33:41.897Z</time>
      </trkpt>
      <trkpt lat="45.04217" lon="5.47709">
        <ele>1358.942714</ele>
        <time>2021-05-18T12:33:52.763Z</time>
      </trkpt>
      <trkpt lat="45.04174" lon="5.47724">
        <ele>1355.756818</ele>
        <time>2021-05-18T12:34:11.744Z</time>
      </trkpt>
      <trkpt lat="45.04095" lon="5.4774">
        <ele>1350.078797</ele>
        <time>2021-05-18T12:34:45.925Z</time>
      </trkpt>
      <trkpt lat="45.0403" lon="5.4777">
        <ele>1346.284774</ele>
        <time>2021-05-18T12:35:15.200Z</time>
      </trkpt>
      <trkpt lat="45.04001" lon="5.47775">
        <ele>1344.663576</ele>
        <time>2021-05-18T12:35:27.701Z</time>
      </trkpt>
      <trkpt lat="45.03931" lon="5.47812">
        <ele>1340.516958</ele>
        <time>2021-05-18T12:35:59.684Z</time>
      </trkpt>
      <trkpt lat="45.03863" lon="5.47833">
        <ele>1336.68972</ele>
        <time>2021-05-18T12:36:29.436Z</time>
      </trkpt>
      <trkpt lat="45.03795" lon="5.47853">
        <ele>1332.864236</ele>
        <time>2021-05-18T12:36:59.203Z</time>
      </trkpt>
      <trkpt lat="45.03768" lon="5.47869">
        <ele>1331.253636</ele>
        <time>2021-05-18T12:37:11.738Z</time>
      </trkpt>
      <trkpt lat="45.03747" lon="5.47902">
        <ele>1329.753124</ele>
        <time>2021-05-18T12:37:25.193Z</time>
      </trkpt>
      <trkpt lat="45.03689" lon="5.47966">
        <ele>1326.738808</ele>
        <time>2021-05-18T12:37:56.701Z</time>
      </trkpt>
      <trkpt lat="45.03664" lon="5.47999">
        <ele>1325.337651</ele>
        <time>2021-05-18T12:38:11.347Z</time>
      </trkpt>
      <trkpt lat="45.03642" lon="5.48014">
        <ele>1324.3368</ele>
        <time>2021-05-18T12:38:21.796Z</time>
      </trkpt>
      <trkpt lat="45.03598" lon="5.48025">
        <ele>1322.495586</ele>
        <time>2021-05-18T12:38:40.900Z</time>
      </trkpt>
      <trkpt lat="45.03565" lon="5.48029">
        <ele>1321.11288</ele>
        <time>2021-05-18T12:38:55.059Z</time>
      </trkpt>
      <trkpt lat="45.03537" lon="5.4803">
        <ele>1319.943583</ele>
        <time>2021-05-18T12:39:07.032Z</time>
      </trkpt>
      <trkpt lat="45.03493" lon="5.4803">
        <ele>1318.1067</ele>
        <time>2021-05-18T12:39:25.853Z</time>
      </trkpt>
      <trkpt lat="45.03455" lon="5.48033">
        <ele>1316.517835</ele>
        <time>2021-05-18T12:39:42.148Z</time>
      </trkpt>
      <trkpt lat="45.03433" lon="5.48033">
        <ele>1315.599394</ele>
        <time>2021-05-18T12:39:51.567Z</time>
      </trkpt>
      <trkpt lat="45.03405" lon="5.4802">
        <ele>1313.637531</ele>
        <time>2021-05-18T12:40:04.192Z</time>
      </trkpt>
      <trkpt lat="45.03392" lon="5.4801">
        <ele>1312.631476</ele>
        <time>2021-05-18T12:40:10.534Z</time>
      </trkpt>
      <trkpt lat="45.03366" lon="5.47987">
        <ele>1310.54667</ele>
        <time>2021-05-18T12:40:23.677Z</time>
      </trkpt>
      <trkpt lat="45.03351" lon="5.47965">
        <ele>1309.077795</ele>
        <time>2021-05-18T12:40:32.948Z</time>
      </trkpt>
      <trkpt lat="45.03338" lon="5.47942">
        <ele>1307.662659</ele>
        <time>2021-05-18T12:40:41.879Z</time>
      </trkpt>
      <trkpt lat="45.03312" lon="5.47913">
        <ele>1305.411709</ele>
        <time>2021-05-18T12:40:56.076Z</time>
      </trkpt>
      <trkpt lat="45.03286" lon="5.47871">
        <ele>1302.86957</ele>
        <time>2021-05-18T12:41:13.009Z</time>
      </trkpt>
      <trkpt lat="45.03271" lon="5.47852">
        <ele>1301.835922</ele>
        <time>2021-05-18T12:41:21.641Z</time>
      </trkpt>
      <trkpt lat="45.03249" lon="5.47839">
        <ele>1300.611824</ele>
        <time>2021-05-18T12:41:31.850Z</time>
      </trkpt>
      <trkpt lat="45.03203" lon="5.4784">
        <ele>1298.249732</ele>
        <time>2021-05-18T12:41:51.532Z</time>
      </trkpt>
      <trkpt lat="45.03177" lon="5.47839">
        <ele>1296.914301</ele>
        <time>2021-05-18T12:42:02.660Z</time>
      </trkpt>
      <trkpt lat="45.03143" lon="5.47833">
        <ele>1295.15509</ele>
        <time>2021-05-18T12:42:17.316Z</time>
      </trkpt>
      <trkpt lat="45.03116" lon="5.47828">
        <ele>1293.798259</ele>
        <time>2021-05-18T12:42:28.964Z</time>
      </trkpt>
      <trkpt lat="45.03083" lon="5.47806">
        <ele>1292.173276</ele>
        <time>2021-05-18T12:42:44.577Z</time>
      </trkpt>
      <trkpt lat="45.03043" lon="5.47793">
        <ele>1290.345064</ele>
        <time>2021-05-18T12:43:02.138Z</time>
      </trkpt>
      <trkpt lat="45.02994" lon="5.47781">
        <ele>1288.129889</ele>
        <time>2021-05-18T12:43:23.416Z</time>
      </trkpt>
      <trkpt lat="45.02934" lon="5.47774">
        <ele>1285.705487</ele>
        <time>2021-05-18T12:43:49.173Z</time>
      </trkpt>
      <trkpt lat="45.02923" lon="5.47773">
        <ele>1285.422179</ele>
        <time>2021-05-18T12:43:53.887Z</time>
      </trkpt>
      <trkpt lat="45.02898" lon="5.47767">
        <ele>1284.770445</ele>
        <time>2021-05-18T12:44:04.730Z</time>
      </trkpt>
      <trkpt lat="45.02868" lon="5.47759">
        <ele>1283.985804</ele>
        <time>2021-05-18T12:44:17.783Z</time>
      </trkpt>
      <trkpt lat="45.02853" lon="5.47756">
        <ele>1283.596438</ele>
        <time>2021-05-18T12:44:24.259Z</time>
      </trkpt>
      <trkpt lat="45.02834" lon="5.47751">
        <ele>1283.099721</ele>
        <time>2021-05-18T12:44:32.522Z</time>
      </trkpt>
      <trkpt lat="45.0281" lon="5.47754">
        <ele>1282.480464</ele>
        <time>2021-05-18T12:44:42.823Z</time>
      </trkpt>
      <trkpt lat="45.02765" lon="5.4777">
        <ele>1281.416518</ele>
        <time>2021-05-18T12:45:02.662Z</time>
      </trkpt>
      <trkpt lat="45.02735" lon="5.47775">
        <ele>1281.325242</ele>
        <time>2021-05-18T12:45:15.576Z</time>
      </trkpt>
      <trkpt lat="45.02709" lon="5.47765">
        <ele>1281.243829</ele>
        <time>2021-05-18T12:45:27.096Z</time>
      </trkpt>
      <trkpt lat="45.02663" lon="5.47756">
        <ele>1281.10351</ele>
        <time>2021-05-18T12:45:46.946Z</time>
      </trkpt>
      <trkpt lat="45.02618" lon="5.47756">
        <ele>1280.967536</ele>
        <time>2021-05-18T12:46:06.180Z</time>
      </trkpt>
      <trkpt lat="45.02589" lon="5.47752">
        <ele>1280.993239</ele>
        <time>2021-05-18T12:46:18.636Z</time>
      </trkpt>
      <trkpt lat="45.0257" lon="5.47744">
        <ele>1281.571655</ele>
        <time>2021-05-18T12:46:27.112Z</time>
      </trkpt>
      <trkpt lat="45.02566" lon="5.47743">
        <ele>1281.690176</ele>
        <time>2021-05-18T12:46:28.849Z</time>
      </trkpt>
      <trkpt lat="45.0255" lon="5.47741">
        <ele>1282.158847</ele>
        <time>2021-05-18T12:46:35.716Z</time>
      </trkpt>
      <trkpt lat="45.0252" lon="5.47736">
        <ele>1283.040248</ele>
        <time>2021-05-18T12:46:48.631Z</time>
      </trkpt>
      <trkpt lat="45.02497" lon="5.47728">
        <ele>1283.731332</ele>
        <time>2021-05-18T12:46:58.760Z</time>
      </trkpt>
      <trkpt lat="45.02472" lon="5.47722">
        <ele>1284.471209</ele>
        <time>2021-05-18T12:47:09.604Z</time>
      </trkpt>
      <trkpt lat="45.02424" lon="5.47721">
        <ele>1285.871919</ele>
        <time>2021-05-18T12:47:30.136Z</time>
      </trkpt>
      <trkpt lat="45.02389" lon="5.47705">
        <ele>1287.606366</ele>
        <time>2021-05-18T12:47:45.874Z</time>
      </trkpt>
      <trkpt lat="45.02313" lon="5.47686">
        <ele>1291.703734</ele>
        <time>2021-05-18T12:48:18.909Z</time>
      </trkpt>
      <trkpt lat="45.02293" lon="5.47682">
        <ele>1292.776096</ele>
        <time>2021-05-18T12:48:27.554Z</time>
      </trkpt>
      <trkpt lat="45.02274" lon="5.47678">
        <ele>1293.795918</ele>
        <time>2021-05-18T12:48:35.778Z</time>
      </trkpt>
      <trkpt lat="45.02271" lon="5.47676">
        <ele>1293.971985</ele>
        <time>2021-05-18T12:48:37.197Z</time>
      </trkpt>
      <trkpt lat="45.02262" lon="5.47669">
        <ele>1294.517242</ele>
        <time>2021-05-18T12:48:41.594Z</time>
      </trkpt>
      <trkpt lat="45.0225" lon="5.47665">
        <ele>1295.171769</ele>
        <time>2021-05-18T12:48:46.874Z</time>
      </trkpt>
      <trkpt lat="45.0224" lon="5.47663">
        <ele>1295.700644</ele>
        <time>2021-05-18T12:48:51.198Z</time>
      </trkpt>
      <trkpt lat="45.02229" lon="5.47662">
        <ele>1296.078357</ele>
        <time>2021-05-18T12:48:55.913Z</time>
      </trkpt>
      <trkpt lat="45.02224" lon="5.47664">
        <ele>1296.256408</ele>
        <time>2021-05-18T12:48:58.138Z</time>
      </trkpt>
      <trkpt lat="45.0222" lon="5.47665">
        <ele>1296.395599</ele>
        <time>2021-05-18T12:48:59.878Z</time>
      </trkpt>
      <trkpt lat="45.02207" lon="5.47664">
        <ele>1296.841727</ele>
        <time>2021-05-18T12:49:05.453Z</time>
      </trkpt>
      <trkpt lat="45.02185" lon="5.47654">
        <ele>1297.633553</ele>
        <time>2021-05-18T12:49:15.343Z</time>
      </trkpt>
      <trkpt lat="45.02165" lon="5.4765">
        <ele>1298.325705</ele>
        <time>2021-05-18T12:49:23.983Z</time>
      </trkpt>
      <trkpt lat="45.02145" lon="5.47643">
        <ele>1299.031704</ele>
        <time>2021-05-18T12:49:32.794Z</time>
      </trkpt>
      <trkpt lat="45.02143" lon="5.47642">
        <ele>1299.104392</ele>
        <time>2021-05-18T12:49:33.701Z</time>
      </trkpt>
      <trkpt lat="45.02134" lon="5.47635">
        <ele>1299.456328</ele>
        <time>2021-05-18T12:49:38.096Z</time>
      </trkpt>
      <trkpt lat="45.02124" lon="5.47629">
        <ele>1299.828541</ele>
        <time>2021-05-18T12:49:42.742Z</time>
      </trkpt>
      <trkpt lat="45.02114" lon="5.47627">
        <ele>1300.174617</ele>
        <time>2021-05-18T12:49:47.061Z</time>
      </trkpt>
      <trkpt lat="45.02102" lon="5.47628">
        <ele>1300.586532</ele>
        <time>2021-05-18T12:49:52.200Z</time>
      </trkpt>
      <trkpt lat="45.02088" lon="5.47625">
        <ele>1301.071741</ele>
        <time>2021-05-18T12:49:58.253Z</time>
      </trkpt>
      <trkpt lat="45.02073" lon="5.47624">
        <ele>1301.586315</ele>
        <time>2021-05-18T12:50:04.672Z</time>
      </trkpt>
      <trkpt lat="45.02064" lon="5.47617">
        <ele>1301.873129</ele>
        <time>2021-05-18T12:50:09.066Z</time>
      </trkpt>
      <trkpt lat="45.02048" lon="5.47601">
        <ele>1302.044934</ele>
        <time>2021-05-18T12:50:17.451Z</time>
      </trkpt>
      <trkpt lat="45.02043" lon="5.47587">
        <ele>1302.142153</ele>
        <time>2021-05-18T12:50:22.203Z</time>
      </trkpt>
      <trkpt lat="45.02042" lon="5.4758">
        <ele>1302.186417</ele>
        <time>2021-05-18T12:50:24.368Z</time>
      </trkpt>
      <trkpt lat="45.02038" lon="5.47561">
        <ele>1302.309291</ele>
        <time>2021-05-18T12:50:30.377Z</time>
      </trkpt>
      <trkpt lat="45.02041" lon="5.47556">
        <ele>1302.351453</ele>
        <time>2021-05-18T12:50:32.436Z</time>
      </trkpt>
      <trkpt lat="45.02037" lon="5.47551">
        <ele>1302.396376</ele>
        <time>2021-05-18T12:50:33.853Z</time>
      </trkpt>
      <trkpt lat="45.02023" lon="5.47494">
        <ele>1302.77068</ele>
        <time>2021-05-18T12:50:49.629Z</time>
      </trkpt>
      <trkpt lat="45.02026" lon="5.47472">
        <ele>1302.912049</ele>
        <time>2021-05-18T12:50:55.976Z</time>
      </trkpt>
      <trkpt lat="45.02021" lon="5.47439">
        <ele>1303.1196</ele>
        <time>2021-05-18T12:51:03.262Z</time>
      </trkpt>
      <trkpt lat="45.02011" lon="5.4741">
        <ele>1303.32109</ele>
        <time>2021-05-18T12:51:10.563Z</time>
      </trkpt>
      <trkpt lat="45.01991" lon="5.47365">
        <ele>1303.911743</ele>
        <time>2021-05-18T12:51:22.503Z</time>
      </trkpt>
      <trkpt lat="45.0198" lon="5.47341">
        <ele>1304.291187</ele>
        <time>2021-05-18T12:51:31.506Z</time>
      </trkpt>
      <trkpt lat="45.01971" lon="5.47377">
        <ele>1304.793325</ele>
        <time>2021-05-18T12:51:42.506Z</time>
      </trkpt>
      <trkpt lat="45.0194" lon="5.47411">
        <ele>1305.528002</ele>
        <time>2021-05-18T12:51:59.896Z</time>
      </trkpt>
      <trkpt lat="45.0191" lon="5.4746">
        <ele>1306.385147</ele>
        <time>2021-05-18T12:52:20.932Z</time>
      </trkpt>
      <trkpt lat="45.01897" lon="5.47489">
        <ele>1306.814019</ele>
        <time>2021-05-18T12:52:31.332Z</time>
      </trkpt>
      <trkpt lat="45.0188" lon="5.47557">
        <ele>1307.402513</ele>
        <time>2021-05-18T12:52:52.896Z</time>
      </trkpt>
      <trkpt lat="45.01857" lon="5.47584">
        <ele>1307.744279</ele>
        <time>2021-05-18T12:53:05.052Z</time>
      </trkpt>
      <trkpt lat="45.01828" lon="5.47582">
        <ele>1308.081578</ele>
        <time>2021-05-18T12:53:16.225Z</time>
      </trkpt>
      <trkpt lat="45.01774" lon="5.47534">
        <ele>1308.817323</ele>
        <time>2021-05-18T12:53:37.242Z</time>
      </trkpt>
      <trkpt lat="45.01764" lon="5.47517">
        <ele>1308.643969</ele>
        <time>2021-05-18T12:53:41.920Z</time>
      </trkpt>
      <trkpt lat="45.0174" lon="5.47517">
        <ele>1308.186241</ele>
        <time>2021-05-18T12:53:49.168Z</time>
      </trkpt>
      <trkpt lat="45.01728" lon="5.47528">
        <ele>1307.90109</ele>
        <time>2021-05-18T12:53:53.559Z</time>
      </trkpt>
      <trkpt lat="45.01725" lon="5.47542">
        <ele>1307.702645</ele>
        <time>2021-05-18T12:53:56.593Z</time>
      </trkpt>
      <trkpt lat="45.01711" lon="5.47555">
        <ele>1307.403174</ele>
        <time>2021-05-18T12:54:01.087Z</time>
      </trkpt>
      <trkpt lat="45.01677" lon="5.47561">
        <ele>1306.742821</ele>
        <time>2021-05-18T12:54:10.615Z</time>
      </trkpt>
      <trkpt lat="45.01655" lon="5.47539">
        <ele>1306.236519</ele>
        <time>2021-05-18T12:54:17.528Z</time>
      </trkpt>
      <trkpt lat="45.01631" lon="5.47503">
        <ele>1305.561985</ele>
        <time>2021-05-18T12:54:26.574Z</time>
      </trkpt>
      <trkpt lat="45.016" lon="5.47483">
        <ele>1304.826265</ele>
        <time>2021-05-18T12:54:35.307Z</time>
      </trkpt>
      <trkpt lat="45.01581" lon="5.47448">
        <ele>1304.147136</ele>
        <time>2021-05-18T12:54:43.289Z</time>
      </trkpt>
      <trkpt lat="45.01566" lon="5.47433">
        <ele>1303.741642</ele>
        <time>2021-05-18T12:54:48.102Z</time>
      </trkpt>
      <trkpt lat="45.01542" lon="5.47396">
        <ele>1302.956203</ele>
        <time>2021-05-18T12:54:57.691Z</time>
      </trkpt>
      <trkpt lat="45.01534" lon="5.47433">
        <ele>1302.353526</ele>
        <time>2021-05-18T12:55:05.264Z</time>
      </trkpt>
      <trkpt lat="45.0151" lon="5.47457">
        <ele>1301.700007</ele>
        <time>2021-05-18T12:55:13.737Z</time>
      </trkpt>
      <trkpt lat="45.01451" lon="5.47462">
        <ele>1301.539871</ele>
        <time>2021-05-18T12:55:31.725Z</time>
      </trkpt>
      <trkpt lat="45.01436" lon="5.47478">
        <ele>1301.56717</ele>
        <time>2021-05-18T12:55:37.684Z</time>
      </trkpt>
      <trkpt lat="45.01397" lon="5.47499">
        <ele>1301.628747</ele>
        <time>2021-05-18T12:55:52.544Z</time>
      </trkpt>
      <trkpt lat="45.01357" lon="5.4751">
        <ele>1301.687827</ele>
        <time>2021-05-18T12:56:06.981Z</time>
      </trkpt>
      <trkpt lat="45.01325" lon="5.47516">
        <ele>1301.739995</ele>
        <time>2021-05-18T12:56:18.298Z</time>
      </trkpt>
      <trkpt lat="45.01292" lon="5.47548">
        <ele>1301.865337</ele>
        <time>2021-05-18T12:56:31.923Z</time>
      </trkpt>
      <trkpt lat="45.01221" lon="5.47585">
        <ele>1302.10343</ele>
        <time>2021-05-18T12:56:57.009Z</time>
      </trkpt>
      <trkpt lat="45.01173" lon="5.47598">
        <ele>1302.257909</ele>
        <time>2021-05-18T12:57:12.103Z</time>
      </trkpt>
      <trkpt lat="45.01092" lon="5.47631">
        <ele>1303.133684</ele>
        <time>2021-05-18T12:57:42.126Z</time>
      </trkpt>
      <trkpt lat="45.01074" lon="5.47634">
        <ele>1303.341791</ele>
        <time>2021-05-18T12:57:48.862Z</time>
      </trkpt>
      <trkpt lat="45.01035" lon="5.47613">
        <ele>1303.830716</ele>
        <time>2021-05-18T12:58:05.149Z</time>
      </trkpt>
      <trkpt lat="45.0102" lon="5.476">
        <ele>1304.036192</ele>
        <time>2021-05-18T12:58:12.327Z</time>
      </trkpt>
      <trkpt lat="45.01004" lon="5.47616">
        <ele>1304.266479</ele>
        <time>2021-05-18T12:58:20.214Z</time>
      </trkpt>
      <trkpt lat="45.00993" lon="5.4763">
        <ele>1304.477196</ele>
        <time>2021-05-18T12:58:26.504Z</time>
      </trkpt>
      <trkpt lat="45.00975" lon="5.47657">
        <ele>1305.03709</ele>
        <time>2021-05-18T12:58:37.148Z</time>
      </trkpt>
      <trkpt lat="45.00953" lon="5.47687">
        <ele>1305.704688</ele>
        <time>2021-05-18T12:58:50.016Z</time>
      </trkpt>
      <trkpt lat="45.00938" lon="5.477">
        <ele>1306.089285</ele>
        <time>2021-05-18T12:58:57.642Z</time>
      </trkpt>
      <trkpt lat="45.0088" lon="5.4773">
        <ele>1307.407901</ele>
        <time>2021-05-18T12:59:24.140Z</time>
      </trkpt>
      <trkpt lat="45.00865" lon="5.47739">
        <ele>1307.771363</ele>
        <time>2021-05-18T12:59:32.136Z</time>
      </trkpt>
      <trkpt lat="45.00852" lon="5.47747">
        <ele>1308.077554</ele>
        <time>2021-05-18T12:59:37.426Z</time>
      </trkpt>
      <trkpt lat="45.00831" lon="5.47771">
        <ele>1308.74093</ele>
        <time>2021-05-18T12:59:49.373Z</time>
      </trkpt>
      <trkpt lat="45.00793" lon="5.47809">
        <ele>1310.000186</ele>
        <time>2021-05-18T13:00:09.027Z</time>
      </trkpt>
      <trkpt lat="45.00776" lon="5.47826">
        <ele>1310.547568</ele>
        <time>2021-05-18T13:00:19.145Z</time>
      </trkpt>
      <trkpt lat="45.00714" lon="5.47869">
        <ele>1312.409977</ele>
        <time>2021-05-18T13:00:50.572Z</time>
      </trkpt>
      <trkpt lat="45.0067" lon="5.47872">
        <ele>1313.436612</ele>
        <time>2021-05-18T13:01:11.230Z</time>
      </trkpt>
      <trkpt lat="45.00624" lon="5.47856">
        <ele>1314.28971</ele>
        <time>2021-05-18T13:01:33.538Z</time>
      </trkpt>
      <trkpt lat="45.00608" lon="5.47863">
        <ele>1314.598286</ele>
        <time>2021-05-18T13:01:40.957Z</time>
      </trkpt>
      <trkpt lat="45.00578" lon="5.47897">
        <ele>1315.301341</ele>
        <time>2021-05-18T13:01:56.969Z</time>
      </trkpt>
      <trkpt lat="45.00527" lon="5.47924">
        <ele>1316.289799</ele>
        <time>2021-05-18T13:02:16.839Z</time>
      </trkpt>
      <trkpt lat="45.00508" lon="5.47941">
        <ele>1316.082883</ele>
        <time>2021-05-18T13:02:23.853Z</time>
      </trkpt>
      <trkpt lat="45.00494" lon="5.47944">
        <ele>1315.852442</ele>
        <time>2021-05-18T13:02:28.290Z</time>
      </trkpt>
      <trkpt lat="45.00478" lon="5.47943">
        <ele>1315.592374</ele>
        <time>2021-05-18T13:02:33.139Z</time>
      </trkpt>
      <trkpt lat="45.00439" lon="5.47901">
        <ele>1314.817796</ele>
        <time>2021-05-18T13:02:46.912Z</time>
      </trkpt>
      <trkpt lat="45.00415" lon="5.47894">
        <ele>1314.428632</ele>
        <time>2021-05-18T13:02:53.562Z</time>
      </trkpt>
      <trkpt lat="45.00391" lon="5.47909">
        <ele>1314.013001</ele>
        <time>2021-05-18T13:03:00.513Z</time>
      </trkpt>
      <trkpt lat="45.00342" lon="5.47964">
        <ele>1313.029674</ele>
        <time>2021-05-18T13:03:16.653Z</time>
      </trkpt>
      <trkpt lat="45.00267" lon="5.47987">
        <ele>1311.81095</ele>
        <time>2021-05-18T13:03:36.928Z</time>
      </trkpt>
      <trkpt lat="45.00228" lon="5.48043">
        <ele>1310.940294</ele>
        <time>2021-05-18T13:03:52.993Z</time>
      </trkpt>
      <trkpt lat="45.002" lon="5.48048">
        <ele>1311.038667</ele>
        <time>2021-05-18T13:04:04.364Z</time>
      </trkpt>
      <trkpt lat="45.00182" lon="5.48041">
        <ele>1311.634493</ele>
        <time>2021-05-18T13:04:11.561Z</time>
      </trkpt>
      <trkpt lat="45.0015" lon="5.48045">
        <ele>1312.669598</ele>
        <time>2021-05-18T13:04:26.416Z</time>
      </trkpt>
      <trkpt lat="45.0013" lon="5.4804">
        <ele>1313.327471</ele>
        <time>2021-05-18T13:04:36.749Z</time>
      </trkpt>
      <trkpt lat="45.00092" lon="5.48024">
        <ele>1314.596055</ele>
        <time>2021-05-18T13:04:56.833Z</time>
      </trkpt>
      <trkpt lat="45.00078" lon="5.4802">
        <ele>1315.061905</ele>
        <time>2021-05-18T13:05:03.471Z</time>
      </trkpt>
      <trkpt lat="45.00058" lon="5.48007">
        <ele>1315.761839</ele>
        <time>2021-05-18T13:05:16.260Z</time>
      </trkpt>
      <trkpt lat="45.00024" lon="5.47979">
        <ele>1317.226862</ele>
        <time>2021-05-18T13:05:38.284Z</time>
      </trkpt>
      <trkpt lat="45" lon="5.47949">
        <ele>1318.558197</ele>
        <time>2021-05-18T13:05:56.291Z</time>
      </trkpt>
      <trkpt lat="44.99985" lon="5.47905">
        <ele>1320.027644</ele>
        <time>2021-05-18T13:06:15.926Z</time>
      </trkpt>
      <trkpt lat="44.99939" lon="5.47883">
        <ele>1322.12866</ele>
        <time>2021-05-18T13:06:41.970Z</time>
      </trkpt>
      <trkpt lat="44.99917" lon="5.47847">
        <ele>1323.550416</ele>
        <time>2021-05-18T13:06:57.586Z</time>
      </trkpt>
      <trkpt lat="44.99889" lon="5.47844">
        <ele>1324.668112</ele>
        <time>2021-05-18T13:07:11.205Z</time>
      </trkpt>
      <trkpt lat="44.99879" lon="5.47835">
        <ele>1325.097351</ele>
        <time>2021-05-18T13:07:16.960Z</time>
      </trkpt>
      <trkpt lat="44.99867" lon="5.47795">
        <ele>1326.23887</ele>
        <time>2021-05-18T13:07:32.553Z</time>
      </trkpt>
      <trkpt lat="44.99856" lon="5.4778">
        <ele>1326.786832</ele>
        <time>2021-05-18T13:07:40.168Z</time>
      </trkpt>
      <trkpt lat="44.99792" lon="5.47764">
        <ele>1329.185748</ele>
        <time>2021-05-18T13:08:13.282Z</time>
      </trkpt>
      <trkpt lat="44.99764" lon="5.47771">
        <ele>1330.231078</ele>
        <time>2021-05-18T13:08:27.600Z</time>
      </trkpt>
      <trkpt lat="44.99753" lon="5.47758">
        <ele>1330.747389</ele>
        <time>2021-05-18T13:08:34.887Z</time>
      </trkpt>
      <trkpt lat="44.99739" lon="5.4772">
        <ele>1331.71771</ele>
        <time>2021-05-18T13:08:50.297Z</time>
      </trkpt>
      <trkpt lat="44.99674" lon="5.47742">
        <ele>1333.863293</ele>
        <time>2021-05-18T13:09:23.615Z</time>
      </trkpt>
      <trkpt lat="44.99635" lon="5.47737">
        <ele>1335.125484</ele>
        <time>2021-05-18T13:09:42.164Z</time>
      </trkpt>
      <trkpt lat="44.99625" lon="5.47729">
        <ele>1335.494439</ele>
        <time>2021-05-18T13:09:47.339Z</time>
      </trkpt>
      <trkpt lat="44.99619" lon="5.47716">
        <ele>1335.85915</ele>
        <time>2021-05-18T13:09:52.342Z</time>
      </trkpt>
      <trkpt lat="44.99611" lon="5.4768">
        <ele>1336.672013</ele>
        <time>2021-05-18T13:10:03.838Z</time>
      </trkpt>
      <trkpt lat="44.99591" lon="5.47664">
        <ele>1337.263333</ele>
        <time>2021-05-18T13:10:13.588Z</time>
      </trkpt>
      <trkpt lat="44.99577" lon="5.47665">
        <ele>1337.622518</ele>
        <time>2021-05-18T13:10:19.406Z</time>
      </trkpt>
      <trkpt lat="44.9953" lon="5.47715">
        <ele>1339.153819</ele>
        <time>2021-05-18T13:10:44.872Z</time>
      </trkpt>
      <trkpt lat="44.9951" lon="5.47729">
        <ele>1339.751975</ele>
        <time>2021-05-18T13:10:54.972Z</time>
      </trkpt>
      <trkpt lat="44.99484" lon="5.47738">
        <ele>1340.448692</ele>
        <time>2021-05-18T13:11:06.978Z</time>
      </trkpt>
      <trkpt lat="44.99416" lon="5.4781">
        <ele>1343.394173</ele>
        <time>2021-05-18T13:11:47.317Z</time>
      </trkpt>
      <trkpt lat="44.99341" lon="5.47861">
        <ele>1346.633206</ele>
        <time>2021-05-18T13:12:30.861Z</time>
      </trkpt>
      <trkpt lat="44.99273" lon="5.47893">
        <ele>1349.603171</ele>
        <time>2021-05-18T13:13:10.657Z</time>
      </trkpt>
      <trkpt lat="44.99267" lon="5.47888">
        <ele>1349.919615</ele>
        <time>2021-05-18T13:13:14.651Z</time>
      </trkpt>
      <trkpt lat="44.99265" lon="5.47878">
        <ele>1350.24407</ele>
        <time>2021-05-18T13:13:18.723Z</time>
      </trkpt>
      <trkpt lat="44.9927" lon="5.47851">
        <ele>1351.112446</ele>
        <time>2021-05-18T13:13:29.462Z</time>
      </trkpt>
      <trkpt lat="44.99276" lon="5.47837">
        <ele>1351.609569</ele>
        <time>2021-05-18T13:13:35.550Z</time>
      </trkpt>
      <trkpt lat="44.99312" lon="5.4781">
        <ele>1353.407243</ele>
        <time>2021-05-18T13:13:57.273Z</time>
      </trkpt>
      <trkpt lat="44.99317" lon="5.47789">
        <ele>1354.103849</ele>
        <time>2021-05-18T13:14:05.668Z</time>
      </trkpt>
      <trkpt lat="44.99287" lon="5.47756">
        <ele>1355.757492</ele>
        <time>2021-05-18T13:14:26.317Z</time>
      </trkpt>
      <trkpt lat="44.99275" lon="5.47735">
        <ele>1356.421514</ele>
        <time>2021-05-18T13:14:37.198Z</time>
      </trkpt>
      <trkpt lat="44.99279" lon="5.47705">
        <ele>1357.031797</ele>
        <time>2021-05-18T13:14:47.507Z</time>
      </trkpt>
      <trkpt lat="44.99276" lon="5.47684">
        <ele>1357.463826</ele>
        <time>2021-05-18T13:14:55.910Z</time>
      </trkpt>
      <trkpt lat="44.99246" lon="5.47679">
        <ele>1358.314883</ele>
        <time>2021-05-18T13:15:10.461Z</time>
      </trkpt>
      <trkpt lat="44.99221" lon="5.47662">
        <ele>1359.104192</ele>
        <time>2021-05-18T13:15:22.185Z</time>
      </trkpt>
      <trkpt lat="44.99216" lon="5.47659">
        <ele>1359.263658</ele>
        <time>2021-05-18T13:15:25.557Z</time>
      </trkpt>
      <trkpt lat="44.99211" lon="5.47654">
        <ele>1359.431035</ele>
        <time>2021-05-18T13:15:27.968Z</time>
      </trkpt>
      <trkpt lat="44.99194" lon="5.47647">
        <ele>1359.938194</ele>
        <time>2021-05-18T13:15:34.870Z</time>
      </trkpt>
      <trkpt lat="44.9911" lon="5.47664">
        <ele>1361.839845</ele>
        <time>2021-05-18T13:16:09.085Z</time>
      </trkpt>
      <trkpt lat="44.99083" lon="5.47652">
        <ele>1362.300801</ele>
        <time>2021-05-18T13:16:19.831Z</time>
      </trkpt>
      <trkpt lat="44.99064" lon="5.47645">
        <ele>1362.610712</ele>
        <time>2021-05-18T13:16:28.153Z</time>
      </trkpt>
      <trkpt lat="44.99045" lon="5.47636">
        <ele>1362.93265</ele>
        <time>2021-05-18T13:16:36.071Z</time>
      </trkpt>
      <trkpt lat="44.99021" lon="5.47628">
        <ele>1363.322164</ele>
        <time>2021-05-18T13:16:45.388Z</time>
      </trkpt>
      <trkpt lat="44.99009" lon="5.47617">
        <ele>1363.552106</ele>
        <time>2021-05-18T13:16:50.918Z</time>
      </trkpt>
      <trkpt lat="44.98999" lon="5.47593">
        <ele>1363.868606</ele>
        <time>2021-05-18T13:16:58.743Z</time>
      </trkpt>
      <trkpt lat="44.98993" lon="5.47556">
        <ele>1364.416467</ele>
        <time>2021-05-18T13:17:09.059Z</time>
      </trkpt>
      <trkpt lat="44.98991" lon="5.47543">
        <ele>1364.657313</ele>
        <time>2021-05-18T13:17:13.297Z</time>
      </trkpt>
      <trkpt lat="44.98981" lon="5.47484">
        <ele>1365.734883</ele>
        <time>2021-05-18T13:17:31.270Z</time>
      </trkpt>
      <trkpt lat="44.9897" lon="5.47467">
        <ele>1366.135743</ele>
        <time>2021-05-18T13:17:37.791Z</time>
      </trkpt>
      <trkpt lat="44.98873" lon="5.4741">
        <ele>1369.045325</ele>
        <time>2021-05-18T13:18:26.398Z</time>
      </trkpt>
      <trkpt lat="44.98845" lon="5.47426">
        <ele>1370.714075</ele>
        <time>2021-05-18T13:18:42.037Z</time>
      </trkpt>
      <trkpt lat="44.98814" lon="5.47431">
        <ele>1372.481984</ele>
        <time>2021-05-18T13:18:59.184Z</time>
      </trkpt>
      <trkpt lat="44.98784" lon="5.4744">
        <ele>1374.241181</ele>
        <time>2021-05-18T13:19:17.535Z</time>
      </trkpt>
      <trkpt lat="44.9878" lon="5.47369">
        <ele>1377.098135</ele>
        <time>2021-05-18T13:19:50.913Z</time>
      </trkpt>
      <trkpt lat="44.98683" lon="5.47176">
        <ele>1388.53784</ele>
        <time>2021-05-18T13:21:50.666Z</time>
      </trkpt>
      <trkpt lat="44.98486" lon="5.46999">
        <ele>1400.975554</ele>
        <time>2021-05-18T13:24:03.387Z</time>
      </trkpt>
      <trkpt lat="44.98439" lon="5.46814">
        <ele>1406.279893</ele>
        <time>2021-05-18T13:25:15.423Z</time>
      </trkpt>
      <trkpt lat="44.98392" lon="5.46751">
        <ele>1406.871801</ele>
        <time>2021-05-18T13:25:44.792Z</time>
      </trkpt>
      <trkpt lat="44.98383" lon="5.46699">
        <ele>1406.379314</ele>
        <time>2021-05-18T13:25:59.720Z</time>
      </trkpt>
      <trkpt lat="44.98372" lon="5.46647">
        <ele>1405.869458</ele>
        <time>2021-05-18T13:26:13.374Z</time>
      </trkpt>
      <trkpt lat="44.98269" lon="5.46494">
        <ele>1394.984355</ele>
        <time>2021-05-18T13:26:47.895Z</time>
      </trkpt>
      <trkpt lat="44.98152" lon="5.46324">
        <ele>1370.350457</ele>
        <time>2021-05-18T13:27:21.348Z</time>
      </trkpt>
      <trkpt lat="44.98117" lon="5.4624">
        <ele>1357.830061</ele>
        <time>2021-05-18T13:27:34.814Z</time>
      </trkpt>
      <trkpt lat="44.98094" lon="5.46231">
        <ele>1353.424571</ele>
        <time>2021-05-18T13:27:39.555Z</time>
      </trkpt>
      <trkpt lat="44.98067" lon="5.46245">
        <ele>1348.563673</ele>
        <time>2021-05-18T13:27:45.161Z</time>
      </trkpt>
      <trkpt lat="44.98052" lon="5.46232">
        <ele>1345.793695</ele>
        <time>2021-05-18T13:27:48.697Z</time>
      </trkpt>
      <trkpt lat="44.98043" lon="5.46098">
        <ele>1331.04402</ele>
        <time>2021-05-18T13:28:07.766Z</time>
      </trkpt>
      <trkpt lat="44.98027" lon="5.46018">
        <ele>1322.326768</ele>
        <time>2021-05-18T13:28:20.038Z</time>
      </trkpt>
      <trkpt lat="44.98017" lon="5.45941">
        <ele>1319.524154</ele>
        <time>2021-05-18T13:28:32.104Z</time>
      </trkpt>
      <trkpt lat="44.98013" lon="5.459">
        <ele>1318.014431</ele>
        <time>2021-05-18T13:28:38.937Z</time>
      </trkpt>
      <trkpt lat="44.97966" lon="5.45891">
        <ele>1315.55907</ele>
        <time>2021-05-18T13:28:46.422Z</time>
      </trkpt>
      <trkpt lat="44.97884" lon="5.4589">
        <ele>1314.733351</ele>
        <time>2021-05-18T13:29:04.253Z</time>
      </trkpt>
      <trkpt lat="44.97787" lon="5.45906">
        <ele>1318.196317</ele>
        <time>2021-05-18T13:29:47.161Z</time>
      </trkpt>
      <trkpt lat="44.97731" lon="5.46076">
        <ele>1324.768673</ele>
        <time>2021-05-18T13:30:46.665Z</time>
      </trkpt>
      <trkpt lat="44.97672" lon="5.46149">
        <ele>1329.143685</ele>
        <time>2021-05-18T13:31:26.108Z</time>
      </trkpt>
      <trkpt lat="44.97603" lon="5.46199">
        <ele>1334.486054</ele>
        <time>2021-05-18T13:32:08.961Z</time>
      </trkpt>
      <trkpt lat="44.97585" lon="5.46204">
        <ele>1335.8118</ele>
        <time>2021-05-18T13:32:20.497Z</time>
      </trkpt>
      <trkpt lat="44.97545" lon="5.46207">
        <ele>1338.604692</ele>
        <time>2021-05-18T13:32:43.330Z</time>
      </trkpt>
      <trkpt lat="44.97374" lon="5.46258">
        <ele>1348.702086</ele>
        <time>2021-05-18T13:34:18.554Z</time>
      </trkpt>
      <trkpt lat="44.97316" lon="5.46248">
        <ele>1351.702711</ele>
        <time>2021-05-18T13:34:39.571Z</time>
      </trkpt>
      <trkpt lat="44.97288" lon="5.46252">
        <ele>1351.178418</ele>
        <time>2021-05-18T13:34:47.393Z</time>
      </trkpt>
      <trkpt lat="44.97259" lon="5.46239">
        <ele>1350.374866</ele>
        <time>2021-05-18T13:34:53.100Z</time>
      </trkpt>
      <trkpt lat="44.97239" lon="5.46238">
        <ele>1349.850205</ele>
        <time>2021-05-18T13:34:56.131Z</time>
      </trkpt>
      <trkpt lat="44.97194" lon="5.46228">
        <ele>1348.643331</ele>
        <time>2021-05-18T13:35:03.236Z</time>
      </trkpt>
      <trkpt lat="44.97152" lon="5.46214">
        <ele>1347.507508</ele>
        <time>2021-05-18T13:35:09.372Z</time>
      </trkpt>
      <trkpt lat="44.97134" lon="5.46198">
        <ele>1346.611801</ele>
        <time>2021-05-18T13:35:12.153Z</time>
      </trkpt>
      <trkpt lat="44.97111" lon="5.46157">
        <ele>1343.426699</ele>
        <time>2021-05-18T13:35:17.095Z</time>
      </trkpt>
      <trkpt lat="44.97085" lon="5.46128">
        <ele>1340.568619</ele>
        <time>2021-05-18T13:35:21.438Z</time>
      </trkpt>
      <trkpt lat="44.97073" lon="5.46091">
        <ele>1338.108041</ele>
        <time>2021-05-18T13:35:25.153Z</time>
      </trkpt>
      <trkpt lat="44.9708" lon="5.46047">
        <ele>1335.385716</ele>
        <time>2021-05-18T13:35:29.220Z</time>
      </trkpt>
      <trkpt lat="44.97058" lon="5.4601">
        <ele>1332.438489</ele>
        <time>2021-05-18T13:35:33.615Z</time>
      </trkpt>
      <trkpt lat="44.9699" lon="5.45936">
        <ele>1325.281096</ele>
        <time>2021-05-18T13:35:44.707Z</time>
      </trkpt>
      <trkpt lat="44.96952" lon="5.45928">
        <ele>1322.134455</ele>
        <time>2021-05-18T13:35:49.642Z</time>
      </trkpt>
      <trkpt lat="44.96913" lon="5.45887">
        <ele>1318.142901</ele>
        <time>2021-05-18T13:35:56.020Z</time>
      </trkpt>
      <trkpt lat="44.96907" lon="5.45882">
        <ele>1317.535066</ele>
        <time>2021-05-18T13:35:56.975Z</time>
      </trkpt>
      <trkpt lat="44.96868" lon="5.45851">
        <ele>1316.351007</ele>
        <time>2021-05-18T13:36:03.106Z</time>
      </trkpt>
      <trkpt lat="44.96853" lon="5.45794">
        <ele>1315.782216</ele>
        <time>2021-05-18T13:36:09.738Z</time>
      </trkpt>
      <trkpt lat="44.96839" lon="5.4576">
        <ele>1315.402379</ele>
        <time>2021-05-18T13:36:15.819Z</time>
      </trkpt>
      <trkpt lat="44.9681" lon="5.45735">
        <ele>1314.956555</ele>
        <time>2021-05-18T13:36:24.688Z</time>
      </trkpt>
      <trkpt lat="44.96791" lon="5.45708">
        <ele>1314.588953</ele>
        <time>2021-05-18T13:36:33.079Z</time>
      </trkpt>
      <trkpt lat="44.96767" lon="5.45688">
        <ele>1314.948459</ele>
        <time>2021-05-18T13:36:42.064Z</time>
      </trkpt>
      <trkpt lat="44.96762" lon="5.45685">
        <ele>1315.116511</ele>
        <time>2021-05-18T13:36:44.020Z</time>
      </trkpt>
      <trkpt lat="44.96721" lon="5.4565">
        <ele>1316.681671</ele>
        <time>2021-05-18T13:37:02.191Z</time>
      </trkpt>
      <trkpt lat="44.96708" lon="5.45687">
        <ele>1317.625998</ele>
        <time>2021-05-18T13:37:12.942Z</time>
      </trkpt>
      <trkpt lat="44.96664" lon="5.45767">
        <ele>1319.974167</ele>
        <time>2021-05-18T13:37:41.566Z</time>
      </trkpt>
      <trkpt lat="44.96656" lon="5.45807">
        <ele>1320.786864</ele>
        <time>2021-05-18T13:37:51.958Z</time>
      </trkpt>
      <trkpt lat="44.96637" lon="5.45864">
        <ele>1321.902275</ele>
        <time>2021-05-18T13:38:03.839Z</time>
      </trkpt>
      <trkpt lat="44.9663" lon="5.4595">
        <ele>1323.44054</ele>
        <time>2021-05-18T13:38:19.847Z</time>
      </trkpt>
      <trkpt lat="44.96621" lon="5.45989">
        <ele>1324.159985</ele>
        <time>2021-05-18T13:38:28.515Z</time>
      </trkpt>
      <trkpt lat="44.96608" lon="5.4601">
        <ele>1324.654426</ele>
        <time>2021-05-18T13:38:34.728Z</time>
      </trkpt>
      <trkpt lat="44.96587" lon="5.4602">
        <ele>1325.718418</ele>
        <time>2021-05-18T13:38:44.066Z</time>
      </trkpt>
      <trkpt lat="44.96567" lon="5.46017">
        <ele>1326.815764</ele>
        <time>2021-05-18T13:38:53.407Z</time>
      </trkpt>
      <trkpt lat="44.96537" lon="5.46012">
        <ele>1328.483598</ele>
        <time>2021-05-18T13:39:06.894Z</time>
      </trkpt>
      <trkpt lat="44.9648" lon="5.46048">
        <ele>1331.865867</ele>
        <time>2021-05-18T13:39:37.313Z</time>
      </trkpt>
      <trkpt lat="44.96468" lon="5.4605">
        <ele>1332.530447</ele>
        <time>2021-05-18T13:39:43.598Z</time>
      </trkpt>
      <trkpt lat="44.96455" lon="5.46048">
        <ele>1333.270021</ele>
        <time>2021-05-18T13:39:51.347Z</time>
      </trkpt>
      <trkpt lat="44.96434" lon="5.46026">
        <ele>1334.67759</ele>
        <time>2021-05-18T13:40:05.724Z</time>
      </trkpt>
      <trkpt lat="44.96387" lon="5.46025">
        <ele>1337.097712</ele>
        <time>2021-05-18T13:40:28.410Z</time>
      </trkpt>
      <trkpt lat="44.96344" lon="5.46037">
        <ele>1339.315864</ele>
        <time>2021-05-18T13:40:48.643Z</time>
      </trkpt>
      <trkpt lat="44.96326" lon="5.46034">
        <ele>1340.257531</ele>
        <time>2021-05-18T13:40:56.507Z</time>
      </trkpt>
      <trkpt lat="44.96318" lon="5.46018">
        <ele>1340.926217</ele>
        <time>2021-05-18T13:41:02.452Z</time>
      </trkpt>
      <trkpt lat="44.96318" lon="5.45996">
        <ele>1341.701389</ele>
        <time>2021-05-18T13:41:11.126Z</time>
      </trkpt>
      <trkpt lat="44.96321" lon="5.45988">
        <ele>1342.045614</ele>
        <time>2021-05-18T13:41:12.158Z</time>
      </trkpt>
      <trkpt lat="44.96395" lon="5.45922">
        <ele>1346.049099</ele>
        <time>2021-05-18T13:41:43.939Z</time>
      </trkpt>
      <trkpt lat="44.964" lon="5.45909">
        <ele>1346.497569</ele>
        <time>2021-05-18T13:41:49.664Z</time>
      </trkpt>
      <trkpt lat="44.96397" lon="5.45898">
        <ele>1346.865801</ele>
        <time>2021-05-18T13:41:52.182Z</time>
      </trkpt>
      <trkpt lat="44.96376" lon="5.45902">
        <ele>1347.775624</ele>
        <time>2021-05-18T13:42:00.757Z</time>
      </trkpt>
      <trkpt lat="44.96344" lon="5.4592">
        <ele>1349.233787</ele>
        <time>2021-05-18T13:42:14.108Z</time>
      </trkpt>
      <trkpt lat="44.96294" lon="5.45915">
        <ele>1351.390723</ele>
        <time>2021-05-18T13:42:36.639Z</time>
      </trkpt>
      <trkpt lat="44.96274" lon="5.45877">
        <ele>1352.559158</ele>
        <time>2021-05-18T13:42:51.642Z</time>
      </trkpt>
      <trkpt lat="44.96246" lon="5.45856">
        <ele>1353.637327</ele>
        <time>2021-05-18T13:43:05.028Z</time>
      </trkpt>
      <trkpt lat="44.96208" lon="5.45856">
        <ele>1354.906501</ele>
        <time>2021-05-18T13:43:20.155Z</time>
      </trkpt>
      <trkpt lat="44.96207" lon="5.45856">
        <ele>1354.94484</ele>
        <time>2021-05-18T13:43:21.034Z</time>
      </trkpt>
      <trkpt lat="44.9616" lon="5.45873">
        <ele>1356.586897</ele>
        <time>2021-05-18T13:43:37.318Z</time>
      </trkpt>
      <trkpt lat="44.96115" lon="5.45932">
        <ele>1357.523188</ele>
        <time>2021-05-18T13:43:52.190Z</time>
      </trkpt>
      <trkpt lat="44.96106" lon="5.45994">
        <ele>1357.445467</ele>
        <time>2021-05-18T13:43:59.587Z</time>
      </trkpt>
      <trkpt lat="44.96094" lon="5.46038">
        <ele>1357.385358</ele>
        <time>2021-05-18T13:44:04.983Z</time>
      </trkpt>
      <trkpt lat="44.96097" lon="5.46088">
        <ele>1357.323378</ele>
        <time>2021-05-18T13:44:11.314Z</time>
      </trkpt>
      <trkpt lat="44.96073" lon="5.46114">
        <ele>1357.268981</ele>
        <time>2021-05-18T13:44:17.256Z</time>
      </trkpt>
      <trkpt lat="44.9607" lon="5.46132">
        <ele>1357.26163</ele>
        <time>2021-05-18T13:44:19.975Z</time>
      </trkpt>
      <trkpt lat="44.96115" lon="5.46167">
        <ele>1357.256026</ele>
        <time>2021-05-18T13:44:31.419Z</time>
      </trkpt>
      <trkpt lat="44.96116" lon="5.46185">
        <ele>1357.254632</ele>
        <time>2021-05-18T13:44:34.271Z</time>
      </trkpt>
      <trkpt lat="44.961" lon="5.4619">
        <ele>1357.252874</ele>
        <time>2021-05-18T13:44:39.356Z</time>
      </trkpt>
      <trkpt lat="44.96085" lon="5.46186">
        <ele>1357.251195</ele>
        <time>2021-05-18T13:44:42.811Z</time>
      </trkpt>
      <trkpt lat="44.96074" lon="5.46194">
        <ele>1357.24986</ele>
        <time>2021-05-18T13:44:46.565Z</time>
      </trkpt>
      <trkpt lat="44.96047" lon="5.46248">
        <ele>1357.244829</ele>
        <time>2021-05-18T13:44:55.344Z</time>
      </trkpt>
      <trkpt lat="44.96024" lon="5.46263">
        <ele>1356.624425</ele>
        <time>2021-05-18T13:44:59.152Z</time>
      </trkpt>
      <trkpt lat="44.95991" lon="5.46268">
        <ele>1354.585164</ele>
        <time>2021-05-18T13:45:04.059Z</time>
      </trkpt>
      <trkpt lat="44.95942" lon="5.46229">
        <ele>1351.149503</ele>
        <time>2021-05-18T13:45:11.708Z</time>
      </trkpt>
      <trkpt lat="44.95935" lon="5.46197">
        <ele>1349.670327</ele>
        <time>2021-05-18T13:45:25.105Z</time>
      </trkpt>
      <trkpt lat="44.95941" lon="5.4616">
        <ele>1348.031036</ele>
        <time>2021-05-18T13:45:39.814Z</time>
      </trkpt>
      <trkpt lat="44.95937" lon="5.46128">
        <ele>1346.622689</ele>
        <time>2021-05-18T13:45:52.449Z</time>
      </trkpt>
      <trkpt lat="44.9592" lon="5.46113">
        <ele>1344.519992</ele>
        <time>2021-05-18T13:46:02.632Z</time>
      </trkpt>
      <trkpt lat="44.95873" lon="5.46108">
        <ele>1338.404857</ele>
        <time>2021-05-18T13:46:27.087Z</time>
      </trkpt>
      <trkpt lat="44.95833" lon="5.46087">
        <ele>1332.837219</ele>
        <time>2021-05-18T13:46:48.777Z</time>
      </trkpt>
      <trkpt lat="44.95804" lon="5.46057">
        <ele>1328.194321</ele>
        <time>2021-05-18T13:47:07.327Z</time>
      </trkpt>
      <trkpt lat="44.95732" lon="5.46054">
        <ele>1318.918043</ele>
        <time>2021-05-18T13:47:43.954Z</time>
      </trkpt>
      <trkpt lat="44.95686" lon="5.45993">
        <ele>1310.929815</ele>
        <time>2021-05-18T13:48:15.952Z</time>
      </trkpt>
      <trkpt lat="44.95672" lon="5.45998">
        <ele>1309.092528</ele>
        <time>2021-05-18T13:48:23.350Z</time>
      </trkpt>
      <trkpt lat="44.95653" lon="5.46005">
        <ele>1306.657935</ele>
        <time>2021-05-18T13:48:33.392Z</time>
      </trkpt>
      <trkpt lat="44.95623" lon="5.46007">
        <ele>1302.84585</ele>
        <time>2021-05-18T13:48:49.038Z</time>
      </trkpt>
      <trkpt lat="44.95579" lon="5.45969">
        <ele>1299.060175</ele>
        <time>2021-05-18T13:49:17.371Z</time>
      </trkpt>
      <trkpt lat="44.9554" lon="5.4594">
        <ele>1297.519287</ele>
        <time>2021-05-18T13:49:42.414Z</time>
      </trkpt>
      <trkpt lat="44.95513" lon="5.45932">
        <ele>1296.531207</ele>
        <time>2021-05-18T13:49:59.406Z</time>
      </trkpt>
      <trkpt lat="44.95492" lon="5.45907">
        <ele>1295.591658</ele>
        <time>2021-05-18T13:50:16.101Z</time>
      </trkpt>
      <trkpt lat="44.95482" lon="5.45913">
        <ele>1295.208203</ele>
        <time>2021-05-18T13:50:20.783Z</time>
      </trkpt>
      <trkpt lat="44.95452" lon="5.45918">
        <ele>1294.140362</ele>
        <time>2021-05-18T13:50:32.631Z</time>
      </trkpt>
      <trkpt lat="44.95428" lon="5.45931">
        <ele>1294.557061</ele>
        <time>2021-05-18T13:50:44.932Z</time>
      </trkpt>
      <trkpt lat="44.95414" lon="5.45956">
        <ele>1295.619091</ele>
        <time>2021-05-18T13:50:56.950Z</time>
      </trkpt>
      <trkpt lat="44.95373" lon="5.46078">
        <ele>1300.154293</ele>
        <time>2021-05-18T13:51:52.525Z</time>
      </trkpt>
      <trkpt lat="44.95345" lon="5.46128">
        <ele>1302.280558</ele>
        <time>2021-05-18T13:52:19.848Z</time>
      </trkpt>
      <trkpt lat="44.95341" lon="5.46179">
        <ele>1304.293868</ele>
        <time>2021-05-18T13:52:42.687Z</time>
      </trkpt>
      <trkpt lat="44.95331" lon="5.46198">
        <ele>1305.210474</ele>
        <time>2021-05-18T13:52:53.137Z</time>
      </trkpt>
      <trkpt lat="44.95262" lon="5.46239">
        <ele>1309.328318</ele>
        <time>2021-05-18T13:53:38.451Z</time>
      </trkpt>
      <trkpt lat="44.95249" lon="5.46232">
        <ele>1310.116794</ele>
        <time>2021-05-18T13:53:46.654Z</time>
      </trkpt>
      <trkpt lat="44.95219" lon="5.46192">
        <ele>1312.35714</ele>
        <time>2021-05-18T13:54:09.990Z</time>
      </trkpt>
      <trkpt lat="44.95196" lon="5.46185">
        <ele>1313.218833</ele>
        <time>2021-05-18T13:54:22.796Z</time>
      </trkpt>
      <trkpt lat="44.95172" lon="5.46198">
        <ele>1314.16438</ele>
        <time>2021-05-18T13:54:36.359Z</time>
      </trkpt>
      <trkpt lat="44.95156" lon="5.46195">
        <ele>1314.757931</ele>
        <time>2021-05-18T13:54:44.984Z</time>
      </trkpt>
      <trkpt lat="44.95142" lon="5.46165">
        <ele>1315.698472</ele>
        <time>2021-05-18T13:54:58.790Z</time>
      </trkpt>
      <trkpt lat="44.95131" lon="5.46157">
        <ele>1316.159773</ele>
        <time>2021-05-18T13:55:04.986Z</time>
      </trkpt>
      <trkpt lat="44.95116" lon="5.46166">
        <ele>1316.770321</ele>
        <time>2021-05-18T13:55:13.082Z</time>
      </trkpt>
      <trkpt lat="44.95094" lon="5.46198">
        <ele>1317.926435</ele>
        <time>2021-05-18T13:55:27.589Z</time>
      </trkpt>
      <trkpt lat="44.95056" lon="5.46233">
        <ele>1319.188065</ele>
        <time>2021-05-18T13:55:47.326Z</time>
      </trkpt>
      <trkpt lat="44.95017" lon="5.4624">
        <ele>1319.780211</ele>
        <time>2021-05-18T13:56:03.382Z</time>
      </trkpt>
      <trkpt lat="44.94963" lon="5.46213">
        <ele>1320.621536</ele>
        <time>2021-05-18T13:56:24.562Z</time>
      </trkpt>
      <trkpt lat="44.94923" lon="5.46148">
        <ele>1321.528467</ele>
        <time>2021-05-18T13:56:47.428Z</time>
      </trkpt>
      <trkpt lat="44.94913" lon="5.46147">
        <ele>1321.67375</ele>
        <time>2021-05-18T13:56:51.060Z</time>
      </trkpt>
      <trkpt lat="44.94891" lon="5.46166">
        <ele>1322.05033</ele>
        <time>2021-05-18T13:57:00.786Z</time>
      </trkpt>
      <trkpt lat="44.94833" lon="5.46249">
        <ele>1323.245809</ele>
        <time>2021-05-18T13:57:32.157Z</time>
      </trkpt>
      <trkpt lat="44.94816" lon="5.4629">
        <ele>1323.73246</ele>
        <time>2021-05-18T13:57:45.838Z</time>
      </trkpt>
      <trkpt lat="44.94792" lon="5.46315">
        <ele>1324.169621</ele>
        <time>2021-05-18T13:57:57.938Z</time>
      </trkpt>
      <trkpt lat="44.94765" lon="5.46315">
        <ele>1324.81905</ele>
        <time>2021-05-18T13:58:08.929Z</time>
      </trkpt>
      <trkpt lat="44.94723" lon="5.46337">
        <ele>1325.935018</ele>
        <time>2021-05-18T13:58:27.809Z</time>
      </trkpt>
      <trkpt lat="44.94684" lon="5.46326">
        <ele>1326.915071</ele>
        <time>2021-05-18T13:58:45.329Z</time>
      </trkpt>
      <trkpt lat="44.94673" lon="5.46295">
        <ele>1327.538606</ele>
        <time>2021-05-18T13:58:56.463Z</time>
      </trkpt>
      <trkpt lat="44.94672" lon="5.46256">
        <ele>1328.220325</ele>
        <time>2021-05-18T13:59:09.239Z</time>
      </trkpt>
      <trkpt lat="44.94694" lon="5.46195">
        <ele>1330.078041</ele>
        <time>2021-05-18T13:59:32.427Z</time>
      </trkpt>
      <trkpt lat="44.94687" lon="5.46095">
        <ele>1333.368692</ele>
        <time>2021-05-18T14:00:09.989Z</time>
      </trkpt>
      <trkpt lat="44.94674" lon="5.46046">
        <ele>1335.077563</ele>
        <time>2021-05-18T14:00:31.352Z</time>
      </trkpt>
      <trkpt lat="44.94656" lon="5.46018">
        <ele>1336.340717</ele>
        <time>2021-05-18T14:00:49.679Z</time>
      </trkpt>
      <trkpt lat="44.94653" lon="5.45975">
        <ele>1337.612259</ele>
        <time>2021-05-18T14:01:07.630Z</time>
      </trkpt>
      <trkpt lat="44.94634" lon="5.45915">
        <ele>1339.406002</ele>
        <time>2021-05-18T14:01:36.152Z</time>
      </trkpt>
      <trkpt lat="44.94633" lon="5.45831">
        <ele>1341.70435</ele>
        <time>2021-05-18T14:02:06.487Z</time>
      </trkpt>
      <trkpt lat="44.94628" lon="5.45827">
        <ele>1341.930349</ele>
        <time>2021-05-18T14:02:11.022Z</time>
      </trkpt>
      <trkpt lat="44.94609" lon="5.45822">
        <ele>1342.664666</ele>
        <time>2021-05-18T14:02:16.352Z</time>
      </trkpt>
      <trkpt lat="44.94581" lon="5.45792">
        <ele>1343.926021</ele>
        <time>2021-05-18T14:02:26.633Z</time>
      </trkpt>
      <trkpt lat="44.94557" lon="5.45786">
        <ele>1343.627291</ele>
        <time>2021-05-18T14:02:33.129Z</time>
      </trkpt>
      <trkpt lat="44.94545" lon="5.45795">
        <ele>1343.469296</ele>
        <time>2021-05-18T14:02:35.505Z</time>
      </trkpt>
      <trkpt lat="44.9453" lon="5.45841">
        <ele>1343.042164</ele>
        <time>2021-05-18T14:02:42.136Z</time>
      </trkpt>
      <trkpt lat="44.94466" lon="5.45891">
        <ele>1342.169451</ele>
        <time>2021-05-18T14:02:53.884Z</time>
      </trkpt>
      <trkpt lat="44.94458" lon="5.45892">
        <ele>1342.068827</ele>
        <time>2021-05-18T14:02:55.169Z</time>
      </trkpt>
      <trkpt lat="44.94424" lon="5.45879">
        <ele>1341.683816</ele>
        <time>2021-05-18T14:03:00.638Z</time>
      </trkpt>
      <trkpt lat="44.9439" lon="5.4589">
        <ele>1341.350712</ele>
        <time>2021-05-18T14:03:06.260Z</time>
      </trkpt>
      <trkpt lat="44.94364" lon="5.45878">
        <ele>1341.094165</ele>
        <time>2021-05-18T14:03:10.781Z</time>
      </trkpt>
      <trkpt lat="44.9431" lon="5.45877">
        <ele>1340.582688</ele>
        <time>2021-05-18T14:03:20.348Z</time>
      </trkpt>
      <trkpt lat="44.9426" lon="5.45845">
        <ele>1340.269846</ele>
        <time>2021-05-18T14:03:32.411Z</time>
      </trkpt>
      <trkpt lat="44.94172" lon="5.45842">
        <ele>1343.520411</ele>
        <time>2021-05-18T14:04:01.667Z</time>
      </trkpt>
      <trkpt lat="44.9412" lon="5.45853">
        <ele>1345.484042</ele>
        <time>2021-05-18T14:04:24.893Z</time>
      </trkpt>
      <trkpt lat="44.94076" lon="5.45851">
        <ele>1347.380231</ele>
        <time>2021-05-18T14:04:46.995Z</time>
      </trkpt>
      <trkpt lat="44.93989" lon="5.45874">
        <ele>1353.273186</ele>
        <time>2021-05-18T14:05:36.460Z</time>
      </trkpt>
      <trkpt lat="44.93965" lon="5.45857">
        <ele>1355.048788</ele>
        <time>2021-05-18T14:05:51.680Z</time>
      </trkpt>
      <trkpt lat="44.93922" lon="5.45851">
        <ele>1357.866781</ele>
        <time>2021-05-18T14:06:15.046Z</time>
      </trkpt>
      <trkpt lat="44.93903" lon="5.45817">
        <ele>1359.253341</ele>
        <time>2021-05-18T14:06:30.996Z</time>
      </trkpt>
      <trkpt lat="44.93862" lon="5.45803">
        <ele>1360.53172</ele>
        <time>2021-05-18T14:06:50.284Z</time>
      </trkpt>
      <trkpt lat="44.93859" lon="5.45791">
        <ele>1360.819222</ele>
        <time>2021-05-18T14:06:54.171Z</time>
      </trkpt>
      <trkpt lat="44.93865" lon="5.45757">
        <ele>1361.559916</ele>
        <time>2021-05-18T14:07:03.541Z</time>
      </trkpt>
      <trkpt lat="44.93863" lon="5.45748">
        <ele>1361.767442</ele>
        <time>2021-05-18T14:07:05.893Z</time>
      </trkpt>
      <trkpt lat="44.93855" lon="5.45748">
        <ele>1362.013287</ele>
        <time>2021-05-18T14:07:08.612Z</time>
      </trkpt>
      <trkpt lat="44.93807" lon="5.45765">
        <ele>1363.505889</ele>
        <time>2021-05-18T14:07:22.125Z</time>
      </trkpt>
      <trkpt lat="44.93787" lon="5.45787">
        <ele>1364.09441</ele>
        <time>2021-05-18T14:07:27.217Z</time>
      </trkpt>
      <trkpt lat="44.93737" lon="5.45894">
        <ele>1362.416636</ele>
        <time>2021-05-18T14:07:42.590Z</time>
      </trkpt>
      <trkpt lat="44.93721" lon="5.45899">
        <ele>1362.11607</ele>
        <time>2021-05-18T14:07:45.165Z</time>
      </trkpt>
      <trkpt lat="44.93695" lon="5.45873">
        <ele>1361.535026</ele>
        <time>2021-05-18T14:07:50.083Z</time>
      </trkpt>
      <trkpt lat="44.93659" lon="5.45793">
        <ele>1360.437049</ele>
        <time>2021-05-18T14:08:00.539Z</time>
      </trkpt>
      <trkpt lat="44.93652" lon="5.45771">
        <ele>1360.195282</ele>
        <time>2021-05-18T14:08:03.370Z</time>
      </trkpt>
      <trkpt lat="44.93651" lon="5.4572">
        <ele>1359.706007</ele>
        <time>2021-05-18T14:08:09.202Z</time>
      </trkpt>
      <trkpt lat="44.93642" lon="5.45688">
        <ele>1359.370016</ele>
        <time>2021-05-18T14:08:13.401Z</time>
      </trkpt>
      <trkpt lat="44.93627" lon="5.45666">
        <ele>1359.067754</ele>
        <time>2021-05-18T14:08:17.346Z</time>
      </trkpt>
      <trkpt lat="44.93584" lon="5.45657">
        <ele>1358.483612</ele>
        <time>2021-05-18T14:08:25.650Z</time>
      </trkpt>
      <trkpt lat="44.93564" lon="5.45649">
        <ele>1358.780201</ele>
        <time>2021-05-18T14:08:30.370Z</time>
      </trkpt>
      <trkpt lat="44.93548" lon="5.45635">
        <ele>1359.331533</ele>
        <time>2021-05-18T14:08:34.989Z</time>
      </trkpt>
      <trkpt lat="44.93528" lon="5.45631">
        <ele>1359.936657</ele>
        <time>2021-05-18T14:08:40.302Z</time>
      </trkpt>
      <trkpt lat="44.93454" lon="5.45696">
        <ele>1362.498028</ele>
        <time>2021-05-18T14:09:11.013Z</time>
      </trkpt>
      <trkpt lat="44.93397" lon="5.4571">
        <ele>1364.812839</ele>
        <time>2021-05-18T14:09:39.278Z</time>
      </trkpt>
      <trkpt lat="44.93381" lon="5.45701">
        <ele>1365.94243</ele>
        <time>2021-05-18T14:09:48.277Z</time>
      </trkpt>
      <trkpt lat="44.93359" lon="5.4567">
        <ele>1367.907849</ele>
        <time>2021-05-18T14:10:03.579Z</time>
      </trkpt>
      <trkpt lat="44.93357" lon="5.45657">
        <ele>1368.525646</ele>
        <time>2021-05-18T14:10:10.371Z</time>
      </trkpt>
      <trkpt lat="44.93358" lon="5.45641">
        <ele>1369.247778</ele>
        <time>2021-05-18T14:10:16.034Z</time>
      </trkpt>
      <trkpt lat="44.93366" lon="5.45598">
        <ele>1371.29252</ele>
        <time>2021-05-18T14:10:33.593Z</time>
      </trkpt>
      <trkpt lat="44.93378" lon="5.45557">
        <ele>1373.315472</ele>
        <time>2021-05-18T14:10:50.971Z</time>
      </trkpt>
      <trkpt lat="44.93396" lon="5.45517">
        <ele>1375.424794</ele>
        <time>2021-05-18T14:11:09.442Z</time>
      </trkpt>
      <trkpt lat="44.93405" lon="5.45471">
        <ele>1376.98523</ele>
        <time>2021-05-18T14:11:27.289Z</time>
      </trkpt>
      <trkpt lat="44.93392" lon="5.45379">
        <ele>1380.069113</ele>
        <time>2021-05-18T14:11:57.245Z</time>
      </trkpt>
      <trkpt lat="44.93394" lon="5.45341">
        <ele>1381.298188</ele>
        <time>2021-05-18T14:12:07.608Z</time>
      </trkpt>
      <trkpt lat="44.93392" lon="5.4533">
        <ele>1381.67179</ele>
        <time>2021-05-18T14:12:10.715Z</time>
      </trkpt>
      <trkpt lat="44.93384" lon="5.45327">
        <ele>1382.050548</ele>
        <time>2021-05-18T14:12:13.794Z</time>
      </trkpt>
      <trkpt lat="44.93378" lon="5.45347">
        <ele>1382.771912</ele>
        <time>2021-05-18T14:12:19.328Z</time>
      </trkpt>
      <trkpt lat="44.93379" lon="5.45388">
        <ele>1383.873711</ele>
        <time>2021-05-18T14:12:29.206Z</time>
      </trkpt>
      <trkpt lat="44.9337" lon="5.45448">
        <ele>1384.980586</ele>
        <time>2021-05-18T14:12:43.092Z</time>
      </trkpt>
      <trkpt lat="44.93359" lon="5.45489">
        <ele>1385.76909</ele>
        <time>2021-05-18T14:12:52.672Z</time>
      </trkpt>
      <trkpt lat="44.93355" lon="5.45531">
        <ele>1386.530154</ele>
        <time>2021-05-18T14:13:01.973Z</time>
      </trkpt>
      <trkpt lat="44.93328" lon="5.45575">
        <ele>1387.605735</ele>
        <time>2021-05-18T14:13:15.477Z</time>
      </trkpt>
      <trkpt lat="44.93301" lon="5.45602">
        <ele>1388.582467</ele>
        <time>2021-05-18T14:13:26.373Z</time>
      </trkpt>
      <trkpt lat="44.93288" lon="5.456">
        <ele>1389.122552</ele>
        <time>2021-05-18T14:13:31.086Z</time>
      </trkpt>
      <trkpt lat="44.93245" lon="5.45618">
        <ele>1390.918492</ele>
        <time>2021-05-18T14:13:47.460Z</time>
      </trkpt>
      <trkpt lat="44.93212" lon="5.45649">
        <ele>1392.534894</ele>
        <time>2021-05-18T14:14:03.573Z</time>
      </trkpt>
      <trkpt lat="44.93178" lon="5.45656">
        <ele>1393.936723</ele>
        <time>2021-05-18T14:14:18.628Z</time>
      </trkpt>
      <trkpt lat="44.93117" lon="5.45726">
        <ele>1397.661876</ele>
        <time>2021-05-18T14:14:55.259Z</time>
      </trkpt>
      <trkpt lat="44.93104" lon="5.45759">
        <ele>1399.101685</ele>
        <time>2021-05-18T14:15:08.321Z</time>
      </trkpt>
      <trkpt lat="44.93082" lon="5.45791">
        <ele>1400.805929</ele>
        <time>2021-05-18T14:15:23.924Z</time>
      </trkpt>
      <trkpt lat="44.93058" lon="5.4581">
        <ele>1402.258998</ele>
        <time>2021-05-18T14:15:37.109Z</time>
      </trkpt>
      <trkpt lat="44.93026" lon="5.45814">
        <ele>1404.022298</ele>
        <time>2021-05-18T14:15:52.787Z</time>
      </trkpt>
      <trkpt lat="44.93002" lon="5.45832">
        <ele>1405.372345</ele>
        <time>2021-05-18T14:16:04.990Z</time>
      </trkpt>
      <trkpt lat="44.92997" lon="5.45856">
        <ele>1406.100659</ele>
        <time>2021-05-18T14:16:12.858Z</time>
      </trkpt>
      <trkpt lat="44.93002" lon="5.45875">
        <ele>1406.717677</ele>
        <time>2021-05-18T14:16:19.303Z</time>
      </trkpt>
      <trkpt lat="44.92998" lon="5.45913">
        <ele>1407.843683</ele>
        <time>2021-05-18T14:16:30.788Z</time>
      </trkpt>
      <trkpt lat="44.92999" lon="5.45924">
        <ele>1408.173943</ele>
        <time>2021-05-18T14:16:34.022Z</time>
      </trkpt>
      <trkpt lat="44.9301" lon="5.45945">
        <ele>1408.927749</ele>
        <time>2021-05-18T14:16:41.398Z</time>
      </trkpt>
      <trkpt lat="44.93009" lon="5.45958">
        <ele>1409.307652</ele>
        <time>2021-05-18T14:16:45.158Z</time>
      </trkpt>
      <trkpt lat="44.92985" lon="5.45987">
        <ele>1410.623315</ele>
        <time>2021-05-18T14:16:57.858Z</time>
      </trkpt>
      <trkpt lat="44.92956" lon="5.46006">
        <ele>1411.934758</ele>
        <time>2021-05-18T14:17:10.116Z</time>
      </trkpt>
      <trkpt lat="44.9295" lon="5.46027">
        <ele>1412.582172</ele>
        <time>2021-05-18T14:17:16.195Z</time>
      </trkpt>
      <trkpt lat="44.92969" lon="5.46086">
        <ele>1413.803999</ele>
        <time>2021-05-18T14:17:32.352Z</time>
      </trkpt>
      <trkpt lat="44.92973" lon="5.46152">
        <ele>1415.070823</ele>
        <time>2021-05-18T14:17:48.225Z</time>
      </trkpt>
      <trkpt lat="44.92966" lon="5.46168">
        <ele>1415.425604</ele>
        <time>2021-05-18T14:17:52.528Z</time>
      </trkpt>
      <trkpt lat="44.92936" lon="5.46207">
        <ele>1416.514516</ele>
        <time>2021-05-18T14:18:05.649Z</time>
      </trkpt>
      <trkpt lat="44.92913" lon="5.46274">
        <ele>1417.669324</ele>
        <time>2021-05-18T14:18:22.642Z</time>
      </trkpt>
      <trkpt lat="44.92884" lon="5.4631">
        <ele>1418.212907</ele>
        <time>2021-05-18T14:18:34.302Z</time>
      </trkpt>
      <trkpt lat="44.92868" lon="5.46313">
        <ele>1418.441726</ele>
        <time>2021-05-18T14:18:38.875Z</time>
      </trkpt>
      <trkpt lat="44.92862" lon="5.46303">
        <ele>1418.572241</ele>
        <time>2021-05-18T14:18:41.369Z</time>
      </trkpt>
      <trkpt lat="44.92866" lon="5.46233">
        <ele>1419.275254</ele>
        <time>2021-05-18T14:18:54.234Z</time>
      </trkpt>
      <trkpt lat="44.92882" lon="5.46172">
        <ele>1419.901696</ele>
        <time>2021-05-18T14:19:05.380Z</time>
      </trkpt>
      <trkpt lat="44.92885" lon="5.46141">
        <ele>1419.720872</ele>
        <time>2021-05-18T14:19:10.462Z</time>
      </trkpt>
      <trkpt lat="44.92879" lon="5.46078">
        <ele>1419.347584</ele>
        <time>2021-05-18T14:19:20.559Z</time>
      </trkpt>
      <trkpt lat="44.92868" lon="5.46067">
        <ele>1419.237263</ele>
        <time>2021-05-18T14:19:23.343Z</time>
      </trkpt>
      <trkpt lat="44.92844" lon="5.46106">
        <ele>1418.931863</ele>
        <time>2021-05-18T14:19:30.695Z</time>
      </trkpt>
      <trkpt lat="44.92816" lon="5.46116">
        <ele>1418.697721</ele>
        <time>2021-05-18T14:19:35.261Z</time>
      </trkpt>
      <trkpt lat="44.9281" lon="5.46126">
        <ele>1418.619299</ele>
        <time>2021-05-18T14:19:36.722Z</time>
      </trkpt>
      <trkpt lat="44.92796" lon="5.46201">
        <ele>1417.149345</ele>
        <time>2021-05-18T14:19:45.191Z</time>
      </trkpt>
      <trkpt lat="44.92786" lon="5.46226">
        <ele>1416.297008</ele>
        <time>2021-05-18T14:19:48.242Z</time>
      </trkpt>
      <trkpt lat="44.92771" lon="5.46245">
        <ele>1415.495931</ele>
        <time>2021-05-18T14:19:51.387Z</time>
      </trkpt>
      <trkpt lat="44.92761" lon="5.46248">
        <ele>1415.09916</ele>
        <time>2021-05-18T14:19:52.942Z</time>
      </trkpt>
      <trkpt lat="44.92756" lon="5.46245">
        <ele>1414.867273</ele>
        <time>2021-05-18T14:19:53.652Z</time>
      </trkpt>
      <trkpt lat="44.92741" lon="5.46227">
        <ele>1414.060282</ele>
        <time>2021-05-18T14:19:56.728Z</time>
      </trkpt>
      <trkpt lat="44.92725" lon="5.4616">
        <ele>1412.025505</ele>
        <time>2021-05-18T14:20:03.849Z</time>
      </trkpt>
      <trkpt lat="44.92712" lon="5.46146">
        <ele>1411.359939</ele>
        <time>2021-05-18T14:20:06.189Z</time>
      </trkpt>
      <trkpt lat="44.92677" lon="5.46124">
        <ele>1409.760443</ele>
        <time>2021-05-18T14:20:11.621Z</time>
      </trkpt>
      <trkpt lat="44.92667" lon="5.46112">
        <ele>1409.220987</ele>
        <time>2021-05-18T14:20:13.544Z</time>
      </trkpt>
      <trkpt lat="44.92655" lon="5.46072">
        <ele>1407.928529</ele>
        <time>2021-05-18T14:20:17.843Z</time>
      </trkpt>
      <trkpt lat="44.9265" lon="5.46069">
        <ele>1407.678695</ele>
        <time>2021-05-18T14:20:18.726Z</time>
      </trkpt>
      <trkpt lat="44.92646" lon="5.46075">
        <ele>1407.432904</ele>
        <time>2021-05-18T14:20:19.601Z</time>
      </trkpt>
      <trkpt lat="44.92655" lon="5.46146">
        <ele>1405.31999</ele>
        <time>2021-05-18T14:20:27.148Z</time>
      </trkpt>
      <trkpt lat="44.92649" lon="5.46166">
        <ele>1404.658668</ele>
        <time>2021-05-18T14:20:29.534Z</time>
      </trkpt>
      <trkpt lat="44.92615" lon="5.46199">
        <ele>1403.07316</ele>
        <time>2021-05-18T14:20:35.791Z</time>
      </trkpt>
      <trkpt lat="44.92609" lon="5.46205">
        <ele>1402.81388</ele>
        <time>2021-05-18T14:20:36.994Z</time>
      </trkpt>
      <trkpt lat="44.92598" lon="5.46235">
        <ele>1402.040314</ele>
        <time>2021-05-18T14:20:40.607Z</time>
      </trkpt>
      <trkpt lat="44.92584" lon="5.4624">
        <ele>1401.557276</ele>
        <time>2021-05-18T14:20:42.871Z</time>
      </trkpt>
      <trkpt lat="44.92551" lon="5.46215">
        <ele>1400.318681</ele>
        <time>2021-05-18T14:20:48.680Z</time>
      </trkpt>
      <trkpt lat="44.92538" lon="5.46174">
        <ele>1399.277061</ele>
        <time>2021-05-18T14:20:53.516Z</time>
      </trkpt>
      <trkpt lat="44.92505" lon="5.46115">
        <ele>1397.497296</ele>
        <time>2021-05-18T14:21:01.541Z</time>
      </trkpt>
      <trkpt lat="44.92474" lon="5.46105">
        <ele>1396.354046</ele>
        <time>2021-05-18T14:21:06.210Z</time>
      </trkpt>
      <trkpt lat="44.92456" lon="5.4609">
        <ele>1395.568615</ele>
        <time>2021-05-18T14:21:09.402Z</time>
      </trkpt>
      <trkpt lat="44.92423" lon="5.46094">
        <ele>1394.39111</ele>
        <time>2021-05-18T14:21:14.246Z</time>
      </trkpt>
      <trkpt lat="44.92391" lon="5.46112">
        <ele>1393.125286</ele>
        <time>2021-05-18T14:21:19.488Z</time>
      </trkpt>
      <trkpt lat="44.92362" lon="5.46096">
        <ele>1392.013348</ele>
        <time>2021-05-18T14:21:24.091Z</time>
      </trkpt>
      <trkpt lat="44.92336" lon="5.46108">
        <ele>1391.036943</ele>
        <time>2021-05-18T14:21:28.274Z</time>
      </trkpt>
      <trkpt lat="44.9232" lon="5.46103">
        <ele>1390.619951</ele>
        <time>2021-05-18T14:21:30.741Z</time>
      </trkpt>
      <trkpt lat="44.92308" lon="5.46083">
        <ele>1390.152008</ele>
        <time>2021-05-18T14:21:33.516Z</time>
      </trkpt>
      <trkpt lat="44.92299" lon="5.46077">
        <ele>1389.890329</ele>
        <time>2021-05-18T14:21:35.080Z</time>
      </trkpt>
      <trkpt lat="44.92274" lon="5.46072">
        <ele>1389.235052</ele>
        <time>2021-05-18T14:21:39.060Z</time>
      </trkpt>
      <trkpt lat="44.92172" lon="5.46139">
        <ele>1386.431702</ele>
        <time>2021-05-18T14:21:57.300Z</time>
      </trkpt>
      <trkpt lat="44.92164" lon="5.46142">
        <ele>1386.286583</ele>
        <time>2021-05-18T14:21:58.760Z</time>
      </trkpt>
      <trkpt lat="44.92145" lon="5.46127">
        <ele>1385.922836</ele>
        <time>2021-05-18T14:22:02.378Z</time>
      </trkpt>
      <trkpt lat="44.92138" lon="5.4613">
        <ele>1385.794746</ele>
        <time>2021-05-18T14:22:03.655Z</time>
      </trkpt>
      <trkpt lat="44.9213" lon="5.46161">
        <ele>1385.393951</ele>
        <time>2021-05-18T14:22:07.687Z</time>
      </trkpt>
      <trkpt lat="44.92093" lon="5.46255">
        <ele>1384.110265</ele>
        <time>2021-05-18T14:22:20.577Z</time>
      </trkpt>
      <trkpt lat="44.92051" lon="5.46325">
        <ele>1383.130282</ele>
        <time>2021-05-18T14:22:31.504Z</time>
      </trkpt>
      <trkpt lat="44.92032" lon="5.46324">
        <ele>1382.883568</ele>
        <time>2021-05-18T14:22:34.855Z</time>
      </trkpt>
      <trkpt lat="44.92014" lon="5.46299">
        <ele>1382.560913</ele>
        <time>2021-05-18T14:22:39.259Z</time>
      </trkpt>
      <trkpt lat="44.91997" lon="5.46297">
        <ele>1382.356532</ele>
        <time>2021-05-18T14:22:42.093Z</time>
      </trkpt>
      <trkpt lat="44.9196" lon="5.46323">
        <ele>1381.837936</ele>
        <time>2021-05-18T14:22:49.312Z</time>
      </trkpt>
      <trkpt lat="44.91951" lon="5.46329">
        <ele>1381.706597</ele>
        <time>2021-05-18T14:22:51.176Z</time>
      </trkpt>
      <trkpt lat="44.91924" lon="5.46331">
        <ele>1381.372655</ele>
        <time>2021-05-18T14:22:55.933Z</time>
      </trkpt>
      <trkpt lat="44.9187" lon="5.46379">
        <ele>1381.038366</ele>
        <time>2021-05-18T14:23:07.818Z</time>
      </trkpt>
      <trkpt lat="44.91824" lon="5.46404">
        <ele>1380.871357</ele>
        <time>2021-05-18T14:23:17.325Z</time>
      </trkpt>
      <trkpt lat="44.91804" lon="5.46434">
        <ele>1380.772781</ele>
        <time>2021-05-18T14:23:23.366Z</time>
      </trkpt>
      <trkpt lat="44.91785" lon="5.46481">
        <ele>1380.642351</ele>
        <time>2021-05-18T14:23:31.115Z</time>
      </trkpt>
      <trkpt lat="44.91776" lon="5.4649">
        <ele>1380.605019</ele>
        <time>2021-05-18T14:23:33.296Z</time>
      </trkpt>
      <trkpt lat="44.91741" lon="5.46507">
        <ele>1380.300179</ele>
        <time>2021-05-18T14:23:40.507Z</time>
      </trkpt>
      <trkpt lat="44.91733" lon="5.46506">
        <ele>1380.231086</ele>
        <time>2021-05-18T14:23:42.151Z</time>
      </trkpt>
      <trkpt lat="44.91721" lon="5.46497">
        <ele>1380.121055</ele>
        <time>2021-05-18T14:23:44.618Z</time>
      </trkpt>
      <trkpt lat="44.91719" lon="5.46485">
        <ele>1380.049996</ele>
        <time>2021-05-18T14:23:46.213Z</time>
      </trkpt>
      <trkpt lat="44.91725" lon="5.46463">
        <ele>1379.907758</ele>
        <time>2021-05-18T14:23:49.550Z</time>
      </trkpt>
      <trkpt lat="44.91733" lon="5.46448">
        <ele>1379.796192</ele>
        <time>2021-05-18T14:23:51.862Z</time>
      </trkpt>
      <trkpt lat="44.91731" lon="5.46443">
        <ele>1379.767971</ele>
        <time>2021-05-18T14:23:52.415Z</time>
      </trkpt>
      <trkpt lat="44.91728" lon="5.46394">
        <ele>1379.474286</ele>
        <time>2021-05-18T14:23:58.600Z</time>
      </trkpt>
      <trkpt lat="44.91723" lon="5.4638">
        <ele>1379.38283</ele>
        <time>2021-05-18T14:24:00.442Z</time>
      </trkpt>
      <trkpt lat="44.91713" lon="5.46372">
        <ele>1379.286925</ele>
        <time>2021-05-18T14:24:02.646Z</time>
      </trkpt>
      <trkpt lat="44.91689" lon="5.46385">
        <ele>1379.063582</ele>
        <time>2021-05-18T14:24:07.021Z</time>
      </trkpt>
      <trkpt lat="44.91654" lon="5.46438">
        <ele>1378.515717</ele>
        <time>2021-05-18T14:24:16.084Z</time>
      </trkpt>
      <trkpt lat="44.91645" lon="5.46448">
        <ele>1378.393103</ele>
        <time>2021-05-18T14:24:17.940Z</time>
      </trkpt>
      <trkpt lat="44.91638" lon="5.46455">
        <ele>1378.302898</ele>
        <time>2021-05-18T14:24:19.321Z</time>
      </trkpt>
      <trkpt lat="44.91611" lon="5.4648">
        <ele>1377.958553</ele>
        <time>2021-05-18T14:24:24.988Z</time>
      </trkpt>
      <trkpt lat="44.9156" lon="5.46499">
        <ele>1377.390717</ele>
        <time>2021-05-18T14:24:34.626Z</time>
      </trkpt>
      <trkpt lat="44.91538" lon="5.46492">
        <ele>1377.182384</ele>
        <time>2021-05-18T14:24:38.554Z</time>
      </trkpt>
      <trkpt lat="44.91515" lon="5.4647">
        <ele>1377.327292</ele>
        <time>2021-05-18T14:24:44.056Z</time>
      </trkpt>
      <trkpt lat="44.91505" lon="5.4647">
        <ele>1377.375503</ele>
        <time>2021-05-18T14:24:45.694Z</time>
      </trkpt>
      <trkpt lat="44.91474" lon="5.46494">
        <ele>1377.558024</ele>
        <time>2021-05-18T14:24:53.929Z</time>
      </trkpt>
      <trkpt lat="44.91436" lon="5.46581">
        <ele>1377.93378</ele>
        <time>2021-05-18T14:25:11.239Z</time>
      </trkpt>
      <trkpt lat="44.91407" lon="5.46603">
        <ele>1378.113179</ele>
        <time>2021-05-18T14:25:19.910Z</time>
      </trkpt>
      <trkpt lat="44.9135" lon="5.46578">
        <ele>1379.546706</ele>
        <time>2021-05-18T14:25:37.586Z</time>
      </trkpt>
      <trkpt lat="44.91312" lon="5.46592">
        <ele>1380.493011</ele>
        <time>2021-05-18T14:25:50.310Z</time>
      </trkpt>
      <trkpt lat="44.9129" lon="5.46582">
        <ele>1381.060646</ele>
        <time>2021-05-18T14:25:58.228Z</time>
      </trkpt>
      <trkpt lat="44.91259" lon="5.46558">
        <ele>1381.900184</ele>
        <time>2021-05-18T14:26:10.375Z</time>
      </trkpt>
      <trkpt lat="44.91229" lon="5.46557">
        <ele>1382.766276</ele>
        <time>2021-05-18T14:26:21.155Z</time>
      </trkpt>
      <trkpt lat="44.91214" lon="5.46567">
        <ele>1383.473616</ele>
        <time>2021-05-18T14:26:27.257Z</time>
      </trkpt>
      <trkpt lat="44.91204" lon="5.46606">
        <ele>1384.70814</ele>
        <time>2021-05-18T14:26:38.235Z</time>
      </trkpt>
      <trkpt lat="44.91194" lon="5.46624">
        <ele>1385.404548</ele>
        <time>2021-05-18T14:26:44.649Z</time>
      </trkpt>
      <trkpt lat="44.91157" lon="5.46647">
        <ele>1387.080423</ele>
        <time>2021-05-18T14:27:00.982Z</time>
      </trkpt>
      <trkpt lat="44.91115" lon="5.46643">
        <ele>1388.875208</ele>
        <time>2021-05-18T14:27:19.419Z</time>
      </trkpt>
      <trkpt lat="44.91098" lon="5.46624">
        <ele>1389.791572</ele>
        <time>2021-05-18T14:27:29.246Z</time>
      </trkpt>
      <trkpt lat="44.91066" lon="5.46604">
        <ele>1392.223521</ele>
        <time>2021-05-18T14:27:46.023Z</time>
      </trkpt>
      <trkpt lat="44.91059" lon="5.46597">
        <ele>1392.855567</ele>
        <time>2021-05-18T14:27:50.289Z</time>
      </trkpt>
      <trkpt lat="44.91052" lon="5.46561">
        <ele>1394.809214</ele>
        <time>2021-05-18T14:28:04.271Z</time>
      </trkpt>
      <trkpt lat="44.91046" lon="5.46557">
        <ele>1395.293426</ele>
        <time>2021-05-18T14:28:07.799Z</time>
      </trkpt>
      <trkpt lat="44.90997" lon="5.4657">
        <ele>1399.07312</ele>
        <time>2021-05-18T14:28:37.425Z</time>
      </trkpt>
      <trkpt lat="44.90973" lon="5.46596">
        <ele>1401.312542</ele>
        <time>2021-05-18T14:28:56.333Z</time>
      </trkpt>
      <trkpt lat="44.90898" lon="5.46597">
        <ele>1408.128487</ele>
        <time>2021-05-18T14:29:47.995Z</time>
      </trkpt>
      <trkpt lat="44.90879" lon="5.46611">
        <ele>1410.208366</ele>
        <time>2021-05-18T14:30:03.313Z</time>
      </trkpt>
      <trkpt lat="44.9084" lon="5.46623">
        <ele>1414.226198</ele>
        <time>2021-05-18T14:30:33.007Z</time>
      </trkpt>
      <trkpt lat="44.90815" lon="5.46644">
        <ele>1417.036102</ele>
        <time>2021-05-18T14:30:53.873Z</time>
      </trkpt>
      <trkpt lat="44.90771" lon="5.46661">
        <ele>1421.480804</ele>
        <time>2021-05-18T14:31:26.125Z</time>
      </trkpt>
      <trkpt lat="44.90726" lon="5.46645">
        <ele>1425.027741</ele>
        <time>2021-05-18T14:31:55.931Z</time>
      </trkpt>
      <trkpt lat="44.90694" lon="5.46605">
        <ele>1428.317491</ele>
        <time>2021-05-18T14:32:21.166Z</time>
      </trkpt>
      <trkpt lat="44.90684" lon="5.466">
        <ele>1429.11122</ele>
        <time>2021-05-18T14:32:27.077Z</time>
      </trkpt>
      <trkpt lat="44.90675" lon="5.466">
        <ele>1429.792587</ele>
        <time>2021-05-18T14:32:32.185Z</time>
      </trkpt>
      <trkpt lat="44.90643" lon="5.46619">
        <ele>1432.448219</ele>
        <time>2021-05-18T14:32:51.464Z</time>
      </trkpt>
      <trkpt lat="44.90617" lon="5.46614">
        <ele>1434.448509</ele>
        <time>2021-05-18T14:33:04.941Z</time>
      </trkpt>
      <trkpt lat="44.90588" lon="5.46565">
        <ele>1437.131563</ele>
        <time>2021-05-18T14:33:27.355Z</time>
      </trkpt>
      <trkpt lat="44.90566" lon="5.46558">
        <ele>1438.338089</ele>
        <time>2021-05-18T14:33:37.560Z</time>
      </trkpt>
      <trkpt lat="44.90515" lon="5.46566">
        <ele>1441.158226</ele>
        <time>2021-05-18T14:34:01.573Z</time>
      </trkpt>
      <trkpt lat="44.90467" lon="5.46548">
        <ele>1443.876713</ele>
        <time>2021-05-18T14:34:24.350Z</time>
      </trkpt>
      <trkpt lat="44.9044" lon="5.46567">
        <ele>1445.435978</ele>
        <time>2021-05-18T14:34:38.968Z</time>
      </trkpt>
      <trkpt lat="44.90404" lon="5.46569">
        <ele>1447.033869</ele>
        <time>2021-05-18T14:34:55.702Z</time>
      </trkpt>
      <trkpt lat="44.90361" lon="5.46538">
        <ele>1449.240915</ele>
        <time>2021-05-18T14:35:17.082Z</time>
      </trkpt>
      <trkpt lat="44.90287" lon="5.46554">
        <ele>1452.611648</ele>
        <time>2021-05-18T14:35:48.020Z</time>
      </trkpt>
      <trkpt lat="44.90224" lon="5.46536">
        <ele>1455.200945</ele>
        <time>2021-05-18T14:36:10.878Z</time>
      </trkpt>
      <trkpt lat="44.90177" lon="5.46541">
        <ele>1457.049029</ele>
        <time>2021-05-18T14:36:30.597Z</time>
      </trkpt>
      <trkpt lat="44.90142" lon="5.46569">
        <ele>1458.615384</ele>
        <time>2021-05-18T14:36:45.714Z</time>
      </trkpt>
      <trkpt lat="44.90118" lon="5.46562">
        <ele>1459.560455</ele>
        <time>2021-05-18T14:36:53.671Z</time>
      </trkpt>
      <trkpt lat="44.90086" lon="5.46562">
        <ele>1461.47266</ele>
        <time>2021-05-18T14:37:07.582Z</time>
      </trkpt>
      <trkpt lat="44.90081" lon="5.46566">
        <ele>1461.866601</ele>
        <time>2021-05-18T14:37:10.188Z</time>
      </trkpt>
      <trkpt lat="44.90078" lon="5.46575">
        <ele>1462.366409</ele>
        <time>2021-05-18T14:37:15.162Z</time>
      </trkpt>
      <trkpt lat="44.90073" lon="5.46611">
        <ele>1464.195411</ele>
        <time>2021-05-18T14:37:27.175Z</time>
      </trkpt>
      <trkpt lat="44.90056" lon="5.46646">
        <ele>1466.361279</ele>
        <time>2021-05-18T14:37:45.144Z</time>
      </trkpt>
      <trkpt lat="44.90047" lon="5.46687">
        <ele>1468.545209</ele>
        <time>2021-05-18T14:38:04.063Z</time>
      </trkpt>
      <trkpt lat="44.90032" lon="5.46745">
        <ele>1471.704496</ele>
        <time>2021-05-18T14:38:31.228Z</time>
      </trkpt>
      <trkpt lat="44.9002" lon="5.46784">
        <ele>1473.842255</ele>
        <time>2021-05-18T14:38:51.443Z</time>
      </trkpt>
      <trkpt lat="44.90009" lon="5.46817">
        <ele>1475.626274</ele>
        <time>2021-05-18T14:39:08.102Z</time>
      </trkpt>
      <trkpt lat="44.89982" lon="5.4689">
        <ele>1479.623015</ele>
        <time>2021-05-18T14:39:42.806Z</time>
      </trkpt>
      <trkpt lat="44.89977" lon="5.46916">
        <ele>1480.949571</ele>
        <time>2021-05-18T14:39:54.075Z</time>
      </trkpt>
      <trkpt lat="44.89982" lon="5.46943">
        <ele>1482.315718</ele>
        <time>2021-05-18T14:40:04.957Z</time>
      </trkpt>
      <trkpt lat="44.89998" lon="5.46962">
        <ele>1483.736521</ele>
        <time>2021-05-18T14:40:14.864Z</time>
      </trkpt>
      <trkpt lat="44.90005" lon="5.46979">
        <ele>1484.708685</ele>
        <time>2021-05-18T14:40:21.655Z</time>
      </trkpt>
      <trkpt lat="44.9" lon="5.47043">
        <ele>1485.815493</ele>
        <time>2021-05-18T14:40:37.533Z</time>
      </trkpt>
      <trkpt lat="44.89992" lon="5.47061">
        <ele>1486.006149</ele>
        <time>2021-05-18T14:40:41.709Z</time>
      </trkpt>
      <trkpt lat="44.89959" lon="5.47096">
        <ele>1486.525628</ele>
        <time>2021-05-18T14:40:52.305Z</time>
      </trkpt>
      <trkpt lat="44.89946" lon="5.47103">
        <ele>1486.7023</ele>
        <time>2021-05-18T14:40:55.700Z</time>
      </trkpt>
      <trkpt lat="44.89926" lon="5.47145">
        <ele>1487.143797</ele>
        <time>2021-05-18T14:41:03.159Z</time>
      </trkpt>
      <trkpt lat="44.89891" lon="5.47183">
        <ele>1487.617182</ele>
        <time>2021-05-18T14:41:11.590Z</time>
      </trkpt>
      <trkpt lat="44.89882" lon="5.47241">
        <ele>1487.59986</ele>
        <time>2021-05-18T14:41:19.172Z</time>
      </trkpt>
      <trkpt lat="44.8987" lon="5.47265">
        <ele>1487.591503</ele>
        <time>2021-05-18T14:41:22.890Z</time>
      </trkpt>
      <trkpt lat="44.89876" lon="5.47344">
        <ele>1487.568609</ele>
        <time>2021-05-18T14:41:33.460Z</time>
      </trkpt>
      <trkpt lat="44.89872" lon="5.47356">
        <ele>1487.564649</ele>
        <time>2021-05-18T14:41:35.519Z</time>
      </trkpt>
      <trkpt lat="44.8986" lon="5.47363">
        <ele>1487.559509</ele>
        <time>2021-05-18T14:41:38.235Z</time>
      </trkpt>
      <trkpt lat="44.89856" lon="5.4736">
        <ele>1487.557397</ele>
        <time>2021-05-18T14:41:39.439Z</time>
      </trkpt>
      <trkpt lat="44.89837" lon="5.47318">
        <ele>1487.783771</ele>
        <time>2021-05-18T14:41:48.530Z</time>
      </trkpt>
      <trkpt lat="44.89806" lon="5.473">
        <ele>1488.809394</ele>
        <time>2021-05-18T14:41:58.667Z</time>
      </trkpt>
      <trkpt lat="44.89784" lon="5.47264">
        <ele>1489.829072</ele>
        <time>2021-05-18T14:42:09.900Z</time>
      </trkpt>
      <trkpt lat="44.89761" lon="5.47266">
        <ele>1490.534316</ele>
        <time>2021-05-18T14:42:18.223Z</time>
      </trkpt>
      <trkpt lat="44.89744" lon="5.47282">
        <ele>1491.158651</ele>
        <time>2021-05-18T14:42:25.771Z</time>
      </trkpt>
      <trkpt lat="44.89737" lon="5.47308">
        <ele>1491.772656</ele>
        <time>2021-05-18T14:42:33.598Z</time>
      </trkpt>
      <trkpt lat="44.89743" lon="5.47377">
        <ele>1493.455248</ele>
        <time>2021-05-18T14:42:54.138Z</time>
      </trkpt>
      <trkpt lat="44.8974" lon="5.474">
        <ele>1494.351478</ele>
        <time>2021-05-18T14:43:01.585Z</time>
      </trkpt>
      <trkpt lat="44.89725" lon="5.47436">
        <ele>1495.963932</ele>
        <time>2021-05-18T14:43:15.504Z</time>
      </trkpt>
      <trkpt lat="44.89696" lon="5.47478">
        <ele>1498.207526</ele>
        <time>2021-05-18T14:43:35.814Z</time>
      </trkpt>
      <trkpt lat="44.89682" lon="5.47531">
        <ele>1500.370262</ele>
        <time>2021-05-18T14:43:55.692Z</time>
      </trkpt>
      <trkpt lat="44.89675" lon="5.47539">
        <ele>1500.85927</ele>
        <time>2021-05-18T14:44:00.192Z</time>
      </trkpt>
      <trkpt lat="44.89658" lon="5.47539">
        <ele>1501.746386</ele>
        <time>2021-05-18T14:44:08.242Z</time>
      </trkpt>
      <trkpt lat="44.89639" lon="5.47528">
        <ele>1502.871827</ele>
        <time>2021-05-18T14:44:18.361Z</time>
      </trkpt>
      <trkpt lat="44.8963" lon="5.47478">
        <ele>1504.719906</ele>
        <time>2021-05-18T14:44:36.001Z</time>
      </trkpt>
      <trkpt lat="44.89575" lon="5.47417">
        <ele>1508.18643</ele>
        <time>2021-05-18T14:45:09.092Z</time>
      </trkpt>
      <trkpt lat="44.89558" lon="5.47409">
        <ele>1509.051588</ele>
        <time>2021-05-18T14:45:17.344Z</time>
      </trkpt>
      <trkpt lat="44.89535" lon="5.47414">
        <ele>1510.23373</ele>
        <time>2021-05-18T14:45:28.653Z</time>
      </trkpt>
      <trkpt lat="44.89508" lon="5.4743">
        <ele>1511.710866</ele>
        <time>2021-05-18T14:45:40.745Z</time>
      </trkpt>
      <trkpt lat="44.89466" lon="5.47519">
        <ele>1511.941848</ele>
        <time>2021-05-18T14:46:05.128Z</time>
      </trkpt>
      <trkpt lat="44.89454" lon="5.47522">
        <ele>1511.974944</ele>
        <time>2021-05-18T14:46:09.435Z</time>
      </trkpt>
      <trkpt lat="44.8943" lon="5.47511">
        <ele>1512.039417</ele>
        <time>2021-05-18T14:46:14.066Z</time>
      </trkpt>
      <trkpt lat="44.89418" lon="5.47517">
        <ele>1512.074113</ele>
        <time>2021-05-18T14:46:18.007Z</time>
      </trkpt>
      <trkpt lat="44.89406" lon="5.47516">
        <ele>1512.103879</ele>
        <time>2021-05-18T14:46:19.524Z</time>
      </trkpt>
      <trkpt lat="44.89399" lon="5.47511">
        <ele>1512.124173</ele>
        <time>2021-05-18T14:46:20.702Z</time>
      </trkpt>
      <trkpt lat="44.89387" lon="5.4748">
        <ele>1512.190008</ele>
        <time>2021-05-18T14:46:24.796Z</time>
      </trkpt>
      <trkpt lat="44.89377" lon="5.47422">
        <ele>1511.027508</ele>
        <time>2021-05-18T14:46:31.079Z</time>
      </trkpt>
      <trkpt lat="44.89369" lon="5.4734">
        <ele>1508.876097</ele>
        <time>2021-05-18T14:46:40.037Z</time>
      </trkpt>
      <trkpt lat="44.89366" lon="5.47326">
        <ele>1508.484372</ele>
        <time>2021-05-18T14:46:41.394Z</time>
      </trkpt>
      <trkpt lat="44.89363" lon="5.47312">
        <ele>1508.126022</ele>
        <time>2021-05-18T14:46:42.789Z</time>
      </trkpt>
      <trkpt lat="44.89361" lon="5.47216">
        <ele>1505.61318</ele>
        <time>2021-05-18T14:46:53.163Z</time>
      </trkpt>
      <trkpt lat="44.89375" lon="5.47101">
        <ele>1504.016965</ele>
        <time>2021-05-18T14:47:06.667Z</time>
      </trkpt>
      <trkpt lat="44.89378" lon="5.47039">
        <ele>1503.171854</ele>
        <time>2021-05-18T14:47:14.694Z</time>
      </trkpt>
      <trkpt lat="44.89358" lon="5.46999">
        <ele>1502.50568</ele>
        <time>2021-05-18T14:47:20.552Z</time>
      </trkpt>
      <trkpt lat="44.89356" lon="5.46969">
        <ele>1502.077223</ele>
        <time>2021-05-18T14:47:24.419Z</time>
      </trkpt>
      <trkpt lat="44.89346" lon="5.4694">
        <ele>1501.426509</ele>
        <time>2021-05-18T14:47:28.023Z</time>
      </trkpt>
      <trkpt lat="44.8934" lon="5.4693">
        <ele>1501.159911</ele>
        <time>2021-05-18T14:47:31.545Z</time>
      </trkpt>
      <trkpt lat="44.89333" lon="5.46927">
        <ele>1500.96404</ele>
        <time>2021-05-18T14:47:32.381Z</time>
      </trkpt>
      <trkpt lat="44.89317" lon="5.46939">
        <ele>1500.432413</ele>
        <time>2021-05-18T14:47:35.535Z</time>
      </trkpt>
      <trkpt lat="44.89299" lon="5.46983">
        <ele>1499.404973</ele>
        <time>2021-05-18T14:47:41.076Z</time>
      </trkpt>
      <trkpt lat="44.89286" lon="5.46999">
        <ele>1498.921673</ele>
        <time>2021-05-18T14:47:43.531Z</time>
      </trkpt>
      <trkpt lat="44.89239" lon="5.47017">
        <ele>1497.533955</ele>
        <time>2021-05-18T14:47:50.818Z</time>
      </trkpt>
      <trkpt lat="44.89222" lon="5.4701">
        <ele>1497.01289</ele>
        <time>2021-05-18T14:47:54.132Z</time>
      </trkpt>
      <trkpt lat="44.89213" lon="5.47">
        <ele>1496.862887</ele>
        <time>2021-05-18T14:47:55.678Z</time>
      </trkpt>
      <trkpt lat="44.89198" lon="5.46962">
        <ele>1496.522108</ele>
        <time>2021-05-18T14:48:00.680Z</time>
      </trkpt>
      <trkpt lat="44.8919" lon="5.46883">
        <ele>1495.893519</ele>
        <time>2021-05-18T14:48:10.895Z</time>
      </trkpt>
      <trkpt lat="44.8918" lon="5.46849">
        <ele>1495.608976</ele>
        <time>2021-05-18T14:48:15.855Z</time>
      </trkpt>
      <trkpt lat="44.89165" lon="5.46837">
        <ele>1495.416404</ele>
        <time>2021-05-18T14:48:19.316Z</time>
      </trkpt>
      <trkpt lat="44.89131" lon="5.4684">
        <ele>1495.035495</ele>
        <time>2021-05-18T14:48:26.322Z</time>
      </trkpt>
      <trkpt lat="44.89118" lon="5.46831">
        <ele>1495.131726</ele>
        <time>2021-05-18T14:48:29.536Z</time>
      </trkpt>
      <trkpt lat="44.89107" lon="5.46787">
        <ele>1495.599836</ele>
        <time>2021-05-18T14:48:37.120Z</time>
      </trkpt>
      <trkpt lat="44.89078" lon="5.46756">
        <ele>1496.11401</ele>
        <time>2021-05-18T14:48:45.887Z</time>
      </trkpt>
      <trkpt lat="44.8903" lon="5.46595">
        <ele>1498.705469</ele>
        <time>2021-05-18T14:49:22.728Z</time>
      </trkpt>
      <trkpt lat="44.89002" lon="5.46568">
        <ele>1500.39303</ele>
        <time>2021-05-18T14:49:35.737Z</time>
      </trkpt>
      <trkpt lat="44.88972" lon="5.4652">
        <ele>1502.654225</ele>
        <time>2021-05-18T14:49:56.091Z</time>
      </trkpt>
      <trkpt lat="44.88966" lon="5.46498">
        <ele>1503.489218</ele>
        <time>2021-05-18T14:50:04.598Z</time>
      </trkpt>
      <trkpt lat="44.88951" lon="5.46483">
        <ele>1504.44561</ele>
        <time>2021-05-18T14:50:14.409Z</time>
      </trkpt>
      <trkpt lat="44.88935" lon="5.46422">
        <ele>1506.781998</ele>
        <time>2021-05-18T14:50:40.431Z</time>
      </trkpt>
      <trkpt lat="44.88924" lon="5.46411">
        <ele>1507.587766</ele>
        <time>2021-05-18T14:50:48.433Z</time>
      </trkpt>
      <trkpt lat="44.88896" lon="5.4641">
        <ele>1509.186534</ele>
        <time>2021-05-18T14:51:04.563Z</time>
      </trkpt>
      <trkpt lat="44.88881" lon="5.4638">
        <ele>1510.696914</ele>
        <time>2021-05-18T14:51:19.547Z</time>
      </trkpt>
      <trkpt lat="44.88869" lon="5.46333">
        <ele>1512.705913</ele>
        <time>2021-05-18T14:51:38.551Z</time>
      </trkpt>
      <trkpt lat="44.8887" lon="5.46283">
        <ele>1514.715737</ele>
        <time>2021-05-18T14:51:55.502Z</time>
      </trkpt>
      <trkpt lat="44.88859" lon="5.46251">
        <ele>1516.187585</ele>
        <time>2021-05-18T14:52:05.983Z</time>
      </trkpt>
      <trkpt lat="44.88861" lon="5.46223">
        <ele>1516.736842</ele>
        <time>2021-05-18T14:52:12.775Z</time>
      </trkpt>
      <trkpt lat="44.88893" lon="5.46169">
        <ele>1516.017679</ele>
        <time>2021-05-18T14:52:26.281Z</time>
      </trkpt>
      <trkpt lat="44.88895" lon="5.46141">
        <ele>1515.731831</ele>
        <time>2021-05-18T14:52:30.108Z</time>
      </trkpt>
      <trkpt lat="44.88889" lon="5.46112">
        <ele>1515.431699</ele>
        <time>2021-05-18T14:52:33.848Z</time>
      </trkpt>
      <trkpt lat="44.88895" lon="5.46086">
        <ele>1515.158331</ele>
        <time>2021-05-18T14:52:36.999Z</time>
      </trkpt>
      <trkpt lat="44.88943" lon="5.46008">
        <ele>1513.401499</ele>
        <time>2021-05-18T14:52:47.495Z</time>
      </trkpt>
      <trkpt lat="44.88948" lon="5.4599">
        <ele>1512.411004</ele>
        <time>2021-05-18T14:52:49.369Z</time>
      </trkpt>
      <trkpt lat="44.88948" lon="5.45947">
        <ele>1510.212288</ele>
        <time>2021-05-18T14:52:53.451Z</time>
      </trkpt>
      <trkpt lat="44.88962" lon="5.45908">
        <ele>1507.946592</ele>
        <time>2021-05-18T14:52:57.659Z</time>
      </trkpt>
      <trkpt lat="44.88963" lon="5.45883">
        <ele>1506.662834</ele>
        <time>2021-05-18T14:53:00.086Z</time>
      </trkpt>
      <trkpt lat="44.88964" lon="5.45868">
        <ele>1505.932672</ele>
        <time>2021-05-18T14:53:01.400Z</time>
      </trkpt>
      <trkpt lat="44.88966" lon="5.4585">
        <ele>1504.986947</ele>
        <time>2021-05-18T14:53:03.088Z</time>
      </trkpt>
      <trkpt lat="44.88972" lon="5.45823">
        <ele>1503.530761</ele>
        <time>2021-05-18T14:53:05.803Z</time>
      </trkpt>
      <trkpt lat="44.88979" lon="5.4581">
        <ele>1502.710306</ele>
        <time>2021-05-18T14:53:07.265Z</time>
      </trkpt>
      <trkpt lat="44.89017" lon="5.45791">
        <ele>1499.570362</ele>
        <time>2021-05-18T14:53:12.553Z</time>
      </trkpt>
      <trkpt lat="44.89031" lon="5.45759">
        <ele>1497.432657</ele>
        <time>2021-05-18T14:53:15.960Z</time>
      </trkpt>
      <trkpt lat="44.89042" lon="5.45707">
        <ele>1494.277891</ele>
        <time>2021-05-18T14:53:20.920Z</time>
      </trkpt>
      <trkpt lat="44.89054" lon="5.45696">
        <ele>1493.094912</ele>
        <time>2021-05-18T14:53:22.795Z</time>
      </trkpt>
      <trkpt lat="44.8906" lon="5.45682">
        <ele>1492.096894</ele>
        <time>2021-05-18T14:53:24.420Z</time>
      </trkpt>
      <trkpt lat="44.89061" lon="5.45633">
        <ele>1489.298819</ele>
        <time>2021-05-18T14:53:28.946Z</time>
      </trkpt>
      <trkpt lat="44.89079" lon="5.45622">
        <ele>1487.649545</ele>
        <time>2021-05-18T14:53:31.625Z</time>
      </trkpt>
      <trkpt lat="44.89083" lon="5.45603">
        <ele>1486.509488</ele>
        <time>2021-05-18T14:53:33.503Z</time>
      </trkpt>
      <trkpt lat="44.89077" lon="5.45586">
        <ele>1485.712709</ele>
        <time>2021-05-18T14:53:35.289Z</time>
      </trkpt>
      <trkpt lat="44.89063" lon="5.45567">
        <ele>1484.542793</ele>
        <time>2021-05-18T14:53:37.912Z</time>
      </trkpt>
      <trkpt lat="44.89063" lon="5.45527">
        <ele>1482.873473</ele>
        <time>2021-05-18T14:53:41.708Z</time>
      </trkpt>
      <trkpt lat="44.89075" lon="5.45472">
        <ele>1480.455817</ele>
        <time>2021-05-18T14:53:47.276Z</time>
      </trkpt>
      <trkpt lat="44.89071" lon="5.45457">
        <ele>1479.762059</ele>
        <time>2021-05-18T14:53:48.899Z</time>
      </trkpt>
      <trkpt lat="44.89058" lon="5.45459">
        <ele>1478.98043</ele>
        <time>2021-05-18T14:53:50.754Z</time>
      </trkpt>
      <trkpt lat="44.89042" lon="5.4547">
        <ele>1477.949125</ele>
        <time>2021-05-18T14:53:53.182Z</time>
      </trkpt>
      <trkpt lat="44.89022" lon="5.455">
        <ele>1476.22698</ele>
        <time>2021-05-18T14:53:57.340Z</time>
      </trkpt>
      <trkpt lat="44.89007" lon="5.45512">
        <ele>1475.464558</ele>
        <time>2021-05-18T14:53:59.880Z</time>
      </trkpt>
      <trkpt lat="44.88943" lon="5.45503">
        <ele>1473.187042</ele>
        <time>2021-05-18T14:54:09.540Z</time>
      </trkpt>
      <trkpt lat="44.88915" lon="5.45519">
        <ele>1472.103665</ele>
        <time>2021-05-18T14:54:14.349Z</time>
      </trkpt>
      <trkpt lat="44.88889" lon="5.45515">
        <ele>1471.184389</ele>
        <time>2021-05-18T14:54:18.413Z</time>
      </trkpt>
      <trkpt lat="44.88861" lon="5.45493">
        <ele>1470.03311</ele>
        <time>2021-05-18T14:54:23.420Z</time>
      </trkpt>
      <trkpt lat="44.88848" lon="5.45473">
        <ele>1469.267808</ele>
        <time>2021-05-18T14:54:26.322Z</time>
      </trkpt>
      <trkpt lat="44.88836" lon="5.45445">
        <ele>1467.895646</ele>
        <time>2021-05-18T14:54:29.734Z</time>
      </trkpt>
      <trkpt lat="44.88815" lon="5.45371">
        <ele>1464.58444</ele>
        <time>2021-05-18T14:54:37.682Z</time>
      </trkpt>
      <trkpt lat="44.88817" lon="5.45352">
        <ele>1463.784798</ele>
        <time>2021-05-18T14:54:39.540Z</time>
      </trkpt>
      <trkpt lat="44.88824" lon="5.45352">
        <ele>1463.362744</ele>
        <time>2021-05-18T14:54:40.529Z</time>
      </trkpt>
      <trkpt lat="44.88848" lon="5.45393">
        <ele>1461.115155</ele>
        <time>2021-05-18T14:54:45.687Z</time>
      </trkpt>
      <trkpt lat="44.8887" lon="5.45419">
        <ele>1459.391941</ele>
        <time>2021-05-18T14:54:49.566Z</time>
      </trkpt>
      <trkpt lat="44.88891" lon="5.45432">
        <ele>1457.481826</ele>
        <time>2021-05-18T14:54:52.606Z</time>
      </trkpt>
      <trkpt lat="44.88908" lon="5.45429">
        <ele>1455.88865</ele>
        <time>2021-05-18T14:54:54.701Z</time>
      </trkpt>
      <trkpt lat="44.88932" lon="5.45404">
        <ele>1452.881143</ele>
        <time>2021-05-18T14:54:58.622Z</time>
      </trkpt>
      <trkpt lat="44.88934" lon="5.45326">
        <ele>1447.467501</ele>
        <time>2021-05-18T14:55:05.614Z</time>
      </trkpt>
      <trkpt lat="44.88957" lon="5.45297">
        <ele>1444.467475</ele>
        <time>2021-05-18T14:55:09.467Z</time>
      </trkpt>
      <trkpt lat="44.8897" lon="5.4518">
        <ele>1436.51064</ele>
        <time>2021-05-18T14:55:20.116Z</time>
      </trkpt>
      <trkpt lat="44.88972" lon="5.4508">
        <ele>1429.978441</ele>
        <time>2021-05-18T14:55:29.170Z</time>
      </trkpt>
      <trkpt lat="44.88965" lon="5.45069">
        <ele>1428.96693</ele>
        <time>2021-05-18T14:55:30.589Z</time>
      </trkpt>
      <trkpt lat="44.88945" lon="5.45068">
        <ele>1427.165078</ele>
        <time>2021-05-18T14:55:33.135Z</time>
      </trkpt>
      <trkpt lat="44.88937" lon="5.45057">
        <ele>1426.169718</ele>
        <time>2021-05-18T14:55:34.541Z</time>
      </trkpt>
      <trkpt lat="44.88914" lon="5.44917">
        <ele>1419.943945</ele>
        <time>2021-05-18T14:55:48.413Z</time>
      </trkpt>
      <trkpt lat="44.8891" lon="5.44911">
        <ele>1419.607805</ele>
        <time>2021-05-18T14:55:49.276Z</time>
      </trkpt>
      <trkpt lat="44.88892" lon="5.4491">
        <ele>1418.595243</ele>
        <time>2021-05-18T14:55:51.919Z</time>
      </trkpt>
      <trkpt lat="44.88881" lon="5.44901">
        <ele>1417.918795</ele>
        <time>2021-05-18T14:55:53.700Z</time>
      </trkpt>
      <trkpt lat="44.88849" lon="5.44831">
        <ele>1414.703142</ele>
        <time>2021-05-18T14:56:02.397Z</time>
      </trkpt>
      <trkpt lat="44.8877" lon="5.44763">
        <ele>1411.432465</ele>
        <time>2021-05-18T14:56:16.435Z</time>
      </trkpt>
      <trkpt lat="44.88764" lon="5.44741">
        <ele>1410.831387</ele>
        <time>2021-05-18T14:56:19.040Z</time>
      </trkpt>
      <trkpt lat="44.88769" lon="5.44669">
        <ele>1408.996539</ele>
        <time>2021-05-18T14:56:26.862Z</time>
      </trkpt>
      <trkpt lat="44.8876" lon="5.44581">
        <ele>1406.092673</ele>
        <time>2021-05-18T14:56:36.116Z</time>
      </trkpt>
      <trkpt lat="44.88744" lon="5.44523">
        <ele>1403.827713</ele>
        <time>2021-05-18T14:56:42.479Z</time>
      </trkpt>
      <trkpt lat="44.88728" lon="5.44495">
        <ele>1402.551669</ele>
        <time>2021-05-18T14:56:46.038Z</time>
      </trkpt>
      <trkpt lat="44.88717" lon="5.44495">
        <ele>1401.969307</ele>
        <time>2021-05-18T14:56:47.635Z</time>
      </trkpt>
      <trkpt lat="44.88712" lon="5.44504">
        <ele>1401.558495</ele>
        <time>2021-05-18T14:56:48.770Z</time>
      </trkpt>
      <trkpt lat="44.88718" lon="5.44547">
        <ele>1399.944018</ele>
        <time>2021-05-18T14:56:53.145Z</time>
      </trkpt>
      <trkpt lat="44.88709" lon="5.44557">
        <ele>1399.382039</ele>
        <time>2021-05-18T14:56:54.649Z</time>
      </trkpt>
      <trkpt lat="44.88654" lon="5.44538">
        <ele>1395.15352</ele>
        <time>2021-05-18T14:57:02.272Z</time>
      </trkpt>
      <trkpt lat="44.88634" lon="5.44525">
        <ele>1393.501927</ele>
        <time>2021-05-18T14:57:05.142Z</time>
      </trkpt>
      <trkpt lat="44.88611" lon="5.44525">
        <ele>1391.747762</ele>
        <time>2021-05-18T14:57:08.176Z</time>
      </trkpt>
      <trkpt lat="44.88512" lon="5.44495">
        <ele>1384.347554</ele>
        <time>2021-05-18T14:57:21.429Z</time>
      </trkpt>
      <trkpt lat="44.88441" lon="5.44449">
        <ele>1366.9</ele>
      </trkpt>
      <trkpt lat="44.8844" lon="5.44451">
        <ele>1367.1</ele>
      </trkpt>
      <trkpt lat="44.8844" lon="5.44451">
        <ele>1367.1</ele>
      </trkpt>
      <trkpt lat="44.88437" lon="5.44446">
        <ele>1366.4</ele>
      </trkpt>
      <trkpt lat="44.88437" lon="5.44441">
        <ele>1365.8</ele>
      </trkpt>
      <trkpt lat="44.88445" lon="5.44423">
        <ele>1363.5</ele>
      </trkpt>
      <trkpt lat="44.88525" lon="5.44286">
        <ele>1368.1</ele>
      </trkpt>
      <trkpt lat="44.88531" lon="5.44275">
        <ele>1368.4</ele>
      </trkpt>
      <trkpt lat="44.88537" lon="5.44265">
        <ele>1368.4</ele>
      </trkpt>
      <trkpt lat="44.88542" lon="5.44257">
        <ele>1368.2</ele>
      </trkpt>
      <trkpt lat="44.88555" lon="5.44246">
        <ele>1367.4</ele>
      </trkpt>
      <trkpt lat="44.88579" lon="5.44238">
        <ele>1365.1</ele>
      </trkpt>
      <trkpt lat="44.88617" lon="5.44229">
        <ele>1365.7</ele>
      </trkpt>
      <trkpt lat="44.88626" lon="5.44225">
        <ele>1365.7</ele>
      </trkpt>
      <trkpt lat="44.88633" lon="5.44221">
        <ele>1365.4</ele>
      </trkpt>
      <trkpt lat="44.88636" lon="5.44217">
        <ele>1365.1</ele>
      </trkpt>
      <trkpt lat="44.88641" lon="5.44206">
        <ele>1364.1</ele>
      </trkpt>
      <trkpt lat="44.88653" lon="5.44172">
        <ele>1359.5</ele>
      </trkpt>
      <trkpt lat="44.88655" lon="5.44158">
        <ele>1357.7</ele>
      </trkpt>
      <trkpt lat="44.88656" lon="5.44137">
        <ele>1355.5</ele>
      </trkpt>
      <trkpt lat="44.88654" lon="5.441">
        <ele>1352.4</ele>
      </trkpt>
      <trkpt lat="44.88638" lon="5.44055">
        <ele>1354.7</ele>
      </trkpt>
      <trkpt lat="44.88637" lon="5.44042">
        <ele>1354.7</ele>
      </trkpt>
      <trkpt lat="44.88639" lon="5.44032">
        <ele>1353.7</ele>
      </trkpt>
      <trkpt lat="44.8866" lon="5.43986">
        <ele>1344.2</ele>
      </trkpt>
      <trkpt lat="44.88664" lon="5.43973">
        <ele>1342.4</ele>
      </trkpt>
      <trkpt lat="44.88662" lon="5.43911">
        <ele>1341.4</ele>
      </trkpt>
      <trkpt lat="44.88665" lon="5.43876">
        <ele>1337.7</ele>
      </trkpt>
      <trkpt lat="44.88655" lon="5.43823">
        <ele>1336.7</ele>
      </trkpt>
      <trkpt lat="44.88649" lon="5.43805">
        <ele>1336.4</ele>
      </trkpt>
      <trkpt lat="44.88641" lon="5.43787">
        <ele>1336.7</ele>
      </trkpt>
      <trkpt lat="44.88617" lon="5.43745">
        <ele>1339.5</ele>
      </trkpt>
      <trkpt lat="44.88613" lon="5.43736">
        <ele>1339.4</ele>
      </trkpt>
      <trkpt lat="44.88613" lon="5.43726">
        <ele>1337.5</ele>
      </trkpt>
      <trkpt lat="44.88615" lon="5.43717">
        <ele>1335.1</ele>
      </trkpt>
      <trkpt lat="44.8862" lon="5.43711">
        <ele>1332</ele>
      </trkpt>
      <trkpt lat="44.88628" lon="5.43712">
        <ele>1329</ele>
      </trkpt>
      <trkpt lat="44.88631" lon="5.43713">
        <ele>1328</ele>
      </trkpt>
      <trkpt lat="44.88679" lon="5.43732">
        <ele>1314.3</ele>
      </trkpt>
      <trkpt lat="44.88705" lon="5.43747">
        <ele>1310.5</ele>
      </trkpt>
      <trkpt lat="44.88709" lon="5.43756">
        <ele>1311.1</ele>
      </trkpt>
      <trkpt lat="44.8871" lon="5.43768">
        <ele>1312.4</ele>
      </trkpt>
      <trkpt lat="44.887" lon="5.43834">
        <ele>1324</ele>
      </trkpt>
      <trkpt lat="44.88702" lon="5.4385">
        <ele>1324.6</ele>
      </trkpt>
      <trkpt lat="44.88712" lon="5.43874">
        <ele>1323.3</ele>
      </trkpt>
      <trkpt lat="44.88722" lon="5.43887">
        <ele>1321.3</ele>
      </trkpt>
      <trkpt lat="44.88751" lon="5.43915">
        <ele>1314.8</ele>
      </trkpt>
      <trkpt lat="44.88764" lon="5.43923">
        <ele>1315.4</ele>
      </trkpt>
      <trkpt lat="44.88778" lon="5.43932">
        <ele>1316.3</ele>
      </trkpt>
      <trkpt lat="44.88788" lon="5.43935">
        <ele>1316.4</ele>
      </trkpt>
      <trkpt lat="44.88795" lon="5.43935">
        <ele>1316.2</ele>
      </trkpt>
      <trkpt lat="44.88803" lon="5.43931">
        <ele>1315.1</ele>
      </trkpt>
      <trkpt lat="44.88844" lon="5.43881">
        <ele>1301.4</ele>
      </trkpt>
      <trkpt lat="44.88851" lon="5.43876">
        <ele>1299.1</ele>
      </trkpt>
      <trkpt lat="44.88866" lon="5.43877">
        <ele>1297.2</ele>
      </trkpt>
      <trkpt lat="44.8888" lon="5.43883">
        <ele>1297.2</ele>
      </trkpt>
      <trkpt lat="44.88917" lon="5.43905">
        <ele>1301.9</ele>
      </trkpt>
      <trkpt lat="44.8893" lon="5.4391">
        <ele>1302.3</ele>
      </trkpt>
      <trkpt lat="44.88938" lon="5.43911">
        <ele>1301.6</ele>
      </trkpt>
      <trkpt lat="44.88946" lon="5.4391">
        <ele>1300</ele>
      </trkpt>
      <trkpt lat="44.8895" lon="5.43907">
        <ele>1298.3</ele>
      </trkpt>
      <trkpt lat="44.88953" lon="5.43903">
        <ele>1296.2</ele>
      </trkpt>
      <trkpt lat="44.88954" lon="5.43898">
        <ele>1294.1</ele>
      </trkpt>
      <trkpt lat="44.88953" lon="5.43893">
        <ele>1292.2</ele>
      </trkpt>
      <trkpt lat="44.8895" lon="5.43889">
        <ele>1290.9</ele>
      </trkpt>
      <trkpt lat="44.88922" lon="5.43888">
        <ele>1294</ele>
      </trkpt>
      <trkpt lat="44.88871" lon="5.43854">
        <ele>1289.1</ele>
      </trkpt>
      <trkpt lat="44.88815" lon="5.43784">
        <ele>1281.5</ele>
      </trkpt>
      <trkpt lat="44.88808" lon="5.43764">
        <ele>1278.4</ele>
      </trkpt>
      <trkpt lat="44.88803" lon="5.43743">
        <ele>1274.1</ele>
      </trkpt>
      <trkpt lat="44.88778" lon="5.43714">
        <ele>1273.6</ele>
      </trkpt>
      <trkpt lat="44.88768" lon="5.43706">
        <ele>1274.7</ele>
      </trkpt>
      <trkpt lat="44.8875" lon="5.43699">
        <ele>1279.4</ele>
      </trkpt>
      <trkpt lat="44.88739" lon="5.43686">
        <ele>1278.9</ele>
      </trkpt>
      <trkpt lat="44.88727" lon="5.43664">
        <ele>1276.3</ele>
      </trkpt>
      <trkpt lat="44.88702" lon="5.43629">
        <ele>1275.3</ele>
      </trkpt>
      <trkpt lat="44.88687" lon="5.43604">
        <ele>1273.9</ele>
      </trkpt>
      <trkpt lat="44.88676" lon="5.43578">
        <ele>1271</ele>
      </trkpt>
      <trkpt lat="44.8866" lon="5.43527">
        <ele>1267</ele>
      </trkpt>
      <trkpt lat="44.88648" lon="5.4348">
        <ele>1263.2</ele>
      </trkpt>
      <trkpt lat="44.88648" lon="5.43442">
        <ele>1253.5</ele>
      </trkpt>
      <trkpt lat="44.88642" lon="5.43426">
        <ele>1253.5</ele>
      </trkpt>
      <trkpt lat="44.88637" lon="5.43358">
        <ele>1237.7</ele>
      </trkpt>
      <trkpt lat="44.88633" lon="5.43351">
        <ele>1238.4</ele>
      </trkpt>
      <trkpt lat="44.88627" lon="5.43346">
        <ele>1240.9</ele>
      </trkpt>
      <trkpt lat="44.88613" lon="5.43342">
        <ele>1249</ele>
      </trkpt>
      <trkpt lat="44.88601" lon="5.43333">
        <ele>1254.2</ele>
      </trkpt>
      <trkpt lat="44.88591" lon="5.43321">
        <ele>1256.8</ele>
      </trkpt>
      <trkpt lat="44.88584" lon="5.43307">
        <ele>1256.4</ele>
      </trkpt>
      <trkpt lat="44.88575" lon="5.43277">
        <ele>1250.6</ele>
      </trkpt>
      <trkpt lat="44.88555" lon="5.43232">
        <ele>1244.2</ele>
      </trkpt>
      <trkpt lat="44.88523" lon="5.43185">
        <ele>1237.6</ele>
      </trkpt>
      <trkpt lat="44.88464" lon="5.43123">
        <ele>1219.2</ele>
      </trkpt>
      <trkpt lat="44.88452" lon="5.43118">
        <ele>1217.9</ele>
      </trkpt>
      <trkpt lat="44.88437" lon="5.43117">
        <ele>1219.2</ele>
      </trkpt>
      <trkpt lat="44.88419" lon="5.4312">
        <ele>1223.1</ele>
      </trkpt>
      <trkpt lat="44.88386" lon="5.43134">
        <ele>1233.4</ele>
      </trkpt>
      <trkpt lat="44.88343" lon="5.43122">
        <ele>1228.3</ele>
      </trkpt>
      <trkpt lat="44.88332" lon="5.43116">
        <ele>1225.4</ele>
      </trkpt>
      <trkpt lat="44.88315" lon="5.43093">
        <ele>1214.8</ele>
      </trkpt>
      <trkpt lat="44.88304" lon="5.43087">
        <ele>1213.3</ele>
      </trkpt>
      <trkpt lat="44.88283" lon="5.43081">
        <ele>1214.1</ele>
      </trkpt>
      <trkpt lat="44.88257" lon="5.43069">
        <ele>1213.8</ele>
      </trkpt>
      <trkpt lat="44.88211" lon="5.43043">
        <ele>1210.6</ele>
      </trkpt>
      <trkpt lat="44.88183" lon="5.43029">
        <ele>1209.4</ele>
      </trkpt>
      <trkpt lat="44.88157" lon="5.43006">
        <ele>1205.2</ele>
      </trkpt>
      <trkpt lat="44.88152" lon="5.42999">
        <ele>1203.7</ele>
      </trkpt>
      <trkpt lat="44.8812" lon="5.42979">
        <ele>1206.1</ele>
      </trkpt>
      <trkpt lat="44.88109" lon="5.42969">
        <ele>1206.2</ele>
      </trkpt>
      <trkpt lat="44.88098" lon="5.42954">
        <ele>1204.8</ele>
      </trkpt>
      <trkpt lat="44.88079" lon="5.4291">
        <ele>1196.7</ele>
      </trkpt>
      <trkpt lat="44.88071" lon="5.42903">
        <ele>1195.9</ele>
      </trkpt>
      <trkpt lat="44.88046" lon="5.42896">
        <ele>1197.8</ele>
      </trkpt>
      <trkpt lat="44.88014" lon="5.42894">
        <ele>1202.5</ele>
      </trkpt>
      <trkpt lat="44.88004" lon="5.42886">
        <ele>1201.3</ele>
      </trkpt>
      <trkpt lat="44.87974" lon="5.42854">
        <ele>1193.2</ele>
      </trkpt>
      <trkpt lat="44.87959" lon="5.42844">
        <ele>1190.8</ele>
      </trkpt>
      <trkpt lat="44.87906" lon="5.4283">
        <ele>1190</ele>
      </trkpt>
      <trkpt lat="44.8788" lon="5.42827">
        <ele>1192.2</ele>
      </trkpt>
      <trkpt lat="44.87838" lon="5.42808">
        <ele>1189.2</ele>
      </trkpt>
      <trkpt lat="44.87822" lon="5.42792">
        <ele>1184.9</ele>
      </trkpt>
      <trkpt lat="44.87804" lon="5.42778">
        <ele>1182</ele>
      </trkpt>
      <trkpt lat="44.87774" lon="5.42765">
        <ele>1181.3</ele>
      </trkpt>
      <trkpt lat="44.87731" lon="5.42737">
        <ele>1175.3</ele>
      </trkpt>
      <trkpt lat="44.87675" lon="5.42715">
        <ele>1173.2</ele>
      </trkpt>
      <trkpt lat="44.87644" lon="5.42692">
        <ele>1167.9</ele>
      </trkpt>
      <trkpt lat="44.87627" lon="5.42678">
        <ele>1164.4</ele>
      </trkpt>
      <trkpt lat="44.87549" lon="5.4264">
        <ele>1156.5</ele>
      </trkpt>
      <trkpt lat="44.87527" lon="5.42636">
        <ele>1156.2</ele>
      </trkpt>
      <trkpt lat="44.87498" lon="5.42636">
        <ele>1158.3</ele>
      </trkpt>
      <trkpt lat="44.87414" lon="5.42597">
        <ele>1151.1</ele>
      </trkpt>
      <trkpt lat="44.87355" lon="5.42588">
        <ele>1148.6</ele>
      </trkpt>
      <trkpt lat="44.87345" lon="5.42583">
        <ele>1146.6</ele>
      </trkpt>
      <trkpt lat="44.87299" lon="5.42548">
        <ele>1137.5</ele>
      </trkpt>
      <trkpt lat="44.87281" lon="5.4254">
        <ele>1135.6</ele>
      </trkpt>
      <trkpt lat="44.87276" lon="5.42536">
        <ele>1134.5</ele>
      </trkpt>
      <trkpt lat="44.87276" lon="5.42527">
        <ele>1131.7</ele>
      </trkpt>
      <trkpt lat="44.87279" lon="5.42525">
        <ele>1131</ele>
      </trkpt>
      <trkpt lat="44.87285" lon="5.42528">
        <ele>1131.8</ele>
      </trkpt>
      <trkpt lat="44.87285" lon="5.42528">
        <ele>1131.8</ele>
      </trkpt>
      <trkpt lat="44.8735" lon="5.42553">
        <ele>1136.8</ele>
      </trkpt>
      <trkpt lat="44.87362" lon="5.42553">
        <ele>1136</ele>
      </trkpt>
      <trkpt lat="44.8742" lon="5.42546">
        <ele>1129</ele>
      </trkpt>
      <trkpt lat="44.87465" lon="5.42556">
        <ele>1128.3</ele>
      </trkpt>
      <trkpt lat="44.87483" lon="5.42558">
        <ele>1127.1</ele>
      </trkpt>
      <trkpt lat="44.875" lon="5.42557">
        <ele>1124.8</ele>
      </trkpt>
      <trkpt lat="44.87532" lon="5.42543">
        <ele>1118.6</ele>
      </trkpt>
      <trkpt lat="44.87557" lon="5.42537">
        <ele>1115.4</ele>
      </trkpt>
      <trkpt lat="44.87583" lon="5.42535">
        <ele>1113.6</ele>
      </trkpt>
      <trkpt lat="44.87639" lon="5.42538">
        <ele>1109</ele>
      </trkpt>
      <trkpt lat="44.87665" lon="5.42537">
        <ele>1105.9</ele>
      </trkpt>
      <trkpt lat="44.87748" lon="5.42546">
        <ele>1099.5</ele>
      </trkpt>
      <trkpt lat="44.87799" lon="5.42561">
        <ele>1097.2</ele>
      </trkpt>
      <trkpt lat="44.87834" lon="5.42575">
        <ele>1096.8</ele>
      </trkpt>
      <trkpt lat="44.87849" lon="5.42576">
        <ele>1095</ele>
      </trkpt>
      <trkpt lat="44.87841" lon="5.42571">
        <ele>1094.3</ele>
      </trkpt>
      <trkpt lat="44.8782" lon="5.42553">
        <ele>1090.8</ele>
      </trkpt>
      <trkpt lat="44.87795" lon="5.42525">
        <ele>1084.1</ele>
      </trkpt>
      <trkpt lat="44.87764" lon="5.42501">
        <ele>1079.4</ele>
      </trkpt>
      <trkpt lat="44.87709" lon="5.42479">
        <ele>1078.8</ele>
      </trkpt>
      <trkpt lat="44.87691" lon="5.42436">
        <ele>1066.4</ele>
      </trkpt>
      <trkpt lat="44.87673" lon="5.42405">
        <ele>1058.4</ele>
      </trkpt>
      <trkpt lat="44.87646" lon="5.42397">
        <ele>1057.9</ele>
      </trkpt>
      <trkpt lat="44.87618" lon="5.42396">
        <ele>1059.4</ele>
      </trkpt>
      <trkpt lat="44.87579" lon="5.42372">
        <ele>1053.7</ele>
      </trkpt>
      <trkpt lat="44.87566" lon="5.42361">
        <ele>1050.7</ele>
      </trkpt>
      <trkpt lat="44.87552" lon="5.42356">
        <ele>1049.9</ele>
      </trkpt>
      <trkpt lat="44.8754" lon="5.42365">
        <ele>1053.7</ele>
      </trkpt>
      <trkpt lat="44.87514" lon="5.42348">
        <ele>1049.8</ele>
      </trkpt>
      <trkpt lat="44.87494" lon="5.42322">
        <ele>1044.1</ele>
      </trkpt>
      <trkpt lat="44.87459" lon="5.42256">
        <ele>1030.1</ele>
      </trkpt>
      <trkpt lat="44.87436" lon="5.42228">
        <ele>1020.8</ele>
      </trkpt>
      <trkpt lat="44.87404" lon="5.42216">
        <ele>1015.7</ele>
      </trkpt>
      <trkpt lat="44.87374" lon="5.42217">
        <ele>1013.8</ele>
      </trkpt>
      <trkpt lat="44.87345" lon="5.42228">
        <ele>1016.6</ele>
      </trkpt>
      <trkpt lat="44.87285" lon="5.42212">
        <ele>1005.5</ele>
      </trkpt>
      <trkpt lat="44.87241" lon="5.42199">
        <ele>997.7</ele>
      </trkpt>
      <trkpt lat="44.87194" lon="5.42175">
        <ele>985.6</ele>
      </trkpt>
      <trkpt lat="44.87168" lon="5.42176">
        <ele>984.7</ele>
      </trkpt>
      <trkpt lat="44.8715" lon="5.42167">
        <ele>981.7</ele>
      </trkpt>
      <trkpt lat="44.8714" lon="5.42157">
        <ele>980</ele>
      </trkpt>
      <trkpt lat="44.87131" lon="5.42144">
        <ele>977.8</ele>
      </trkpt>
      <trkpt lat="44.87125" lon="5.4214">
        <ele>977.2</ele>
      </trkpt>
      <trkpt lat="44.87071" lon="5.42132">
        <ele>977.8</ele>
      </trkpt>
      <trkpt lat="44.87061" lon="5.42128">
        <ele>977.5</ele>
      </trkpt>
      <trkpt lat="44.87055" lon="5.4213">
        <ele>978.1</ele>
      </trkpt>
      <trkpt lat="44.87054" lon="5.42132">
        <ele>978.5</ele>
      </trkpt>
    </trkseg>
  </trk>
</gpx>